﻿<?xml version="1.0" encoding="utf-8"?><gpx creator="Garmin Desktop App" version="1.1" xsi:schemaLocation="http://www.topografix.com/GPX/1/1 http://www.topografix.com/GPX/1/1/gpx.xsd http://www.garmin.com/xmlschemas/WaypointExtension/v1 http://www8.garmin.com/xmlschemas/WaypointExtensionv1.xsd http://www.garmin.com/xmlschemas/TrackPointExtension/v1 http://www.garmin.com/xmlschemas/TrackPointExtensionv1.xsd http://www.garmin.com/xmlschemas/GpxExtensions/v3 http://www8.garmin.com/xmlschemas/GpxExtensionsv3.xsd http://www.garmin.com/xmlschemas/ActivityExtension/v1 http://www8.garmin.com/xmlschemas/ActivityExtensionv1.xsd http://www.garmin.com/xmlschemas/AdventuresExtensions/v1 http://www8.garmin.com/xmlschemas/AdventuresExtensionv1.xsd http://www.garmin.com/xmlschemas/PressureExtension/v1 http://www.garmin.com/xmlschemas/PressureExtensionv1.xsd http://www.garmin.com/xmlschemas/TripExtensions/v1 http://www.garmin.com/xmlschemas/TripExtensionsv1.xsd http://www.garmin.com/xmlschemas/TripMetaDataExtensions/v1 http://www.garmin.com/xmlschemas/TripMetaDataExtensionsv1.xsd http://www.garmin.com/xmlschemas/ViaPointTransportationModeExtensions/v1 http://www.garmin.com/xmlschemas/ViaPointTransportationModeExtensionsv1.xsd http://www.garmin.com/xmlschemas/CreationTimeExtension/v1 http://www.garmin.com/xmlschemas/CreationTimeExtensionsv1.xsd http://www.garmin.com/xmlschemas/AccelerationExtension/v1 http://www.garmin.com/xmlschemas/AccelerationExtensionv1.xsd http://www.garmin.com/xmlschemas/PowerExtension/v1 http://www.garmin.com/xmlschemas/PowerExtensionv1.xsd http://www.garmin.com/xmlschemas/VideoExtension/v1 http://www.garmin.com/xmlschemas/VideoExtensionv1.xsd" xmlns="http://www.topografix.com/GPX/1/1" xmlns:xsi="http://www.w3.org/2001/XMLSchema-instance" xmlns:wptx1="http://www.garmin.com/xmlschemas/WaypointExtension/v1" xmlns:gpxtrx="http://www.garmin.com/xmlschemas/GpxExtensions/v3" xmlns:gpxtpx="http://www.garmin.com/xmlschemas/TrackPointExtension/v1" xmlns:gpxx="http://www.garmin.com/xmlschemas/GpxExtensions/v3" xmlns:trp="http://www.garmin.com/xmlschemas/TripExtensions/v1" xmlns:adv="http://www.garmin.com/xmlschemas/AdventuresExtensions/v1" xmlns:prs="http://www.garmin.com/xmlschemas/PressureExtension/v1" xmlns:tmd="http://www.garmin.com/xmlschemas/TripMetaDataExtensions/v1" xmlns:vptm="http://www.garmin.com/xmlschemas/ViaPointTransportationModeExtensions/v1" xmlns:ctx="http://www.garmin.com/xmlschemas/CreationTimeExtension/v1" xmlns:gpxacc="http://www.garmin.com/xmlschemas/AccelerationExtension/v1" xmlns:gpxpx="http://www.garmin.com/xmlschemas/PowerExtension/v1" xmlns:vidx1="http://www.garmin.com/xmlschemas/VideoExtension/v1">

  <metadata>
    <link href="http://www.garmin.com">
      <text>Garmin International</text>
    </link>
    <time>2017-07-15T07:21:40Z</time>
    <bounds maxlat="38.242249991744757" maxlon="-7.050610017031431" minlat="38.169920034706593" minlon="-7.118599992245436" />
  </metadata>

  <trk>
    <name>ARDILA TRANSFRONTERIZO Ardila Transfronterizo</name>
    <desc>ARDILA TRANSFRONTERIZO Ardila Trans</desc>
    <extensions>
      <gpxx:TrackExtension>
        <gpxx:DisplayColor>Cyan</gpxx:DisplayColor>
      </gpxx:TrackExtension>
    </extensions>
    <trkseg>
      <trkpt lat="38.241225890815258" lon="-7.115587117150426">
        <ele>292.4296875</ele>
        <time>2008-06-15T07:43:19Z</time>
      </trkpt>
      <trkpt lat="38.241260005161166" lon="-7.115660039708018">
        <ele>292.26953125</ele>
        <time>2008-06-15T07:43:20Z</time>
      </trkpt>
      <trkpt lat="38.241309961304069" lon="-7.115849973633885">
        <ele>290.96875</ele>
        <time>2008-06-15T07:43:27Z</time>
      </trkpt>
      <trkpt lat="38.24159000068903" lon="-7.116179969161749">
        <ele>286.94921875</ele>
        <time>2008-06-15T07:43:34Z</time>
      </trkpt>
      <trkpt lat="38.241840032860637" lon="-7.116499990224838">
        <ele>283.484375</ele>
        <time>2008-06-15T07:43:39Z</time>
      </trkpt>
      <trkpt lat="38.241940028965473" lon="-7.116609960794449">
        <ele>282.4140625</ele>
        <time>2008-06-15T07:43:40Z</time>
      </trkpt>
      <trkpt lat="38.242210010066628" lon="-7.11691003292799">
        <ele>281.765625</ele>
        <time>2008-06-15T07:43:48Z</time>
      </trkpt>
      <trkpt lat="38.242140021175146" lon="-7.117040036246181">
        <ele>281.98046875</ele>
        <time>2008-06-15T07:43:53Z</time>
      </trkpt>
      <trkpt lat="38.241929970681667" lon="-7.117270035669208">
        <ele>282.375</ele>
        <time>2008-06-15T07:43:57Z</time>
      </trkpt>
      <trkpt lat="38.241520011797547" lon="-7.117740008980036">
        <ele>284.546875</ele>
        <time>2008-06-15T07:44:05Z</time>
      </trkpt>
      <trkpt lat="38.240890027955174" lon="-7.118090037256479">
        <ele>288.875</ele>
        <time>2008-06-15T07:44:21Z</time>
      </trkpt>
      <trkpt lat="38.240479985252023" lon="-7.11833001114428">
        <ele>288</ele>
        <time>2008-06-15T07:44:30Z</time>
      </trkpt>
      <trkpt lat="38.240070026367903" lon="-7.118479963392019">
        <ele>285.91015625</ele>
        <time>2008-06-15T07:44:38Z</time>
      </trkpt>
      <trkpt lat="38.240019986405969" lon="-7.118499996140599">
        <ele>285.56640625</ele>
        <time>2008-06-15T07:44:40Z</time>
      </trkpt>
      <trkpt lat="38.239150028675795" lon="-7.118599992245436">
        <ele>286.27734375</ele>
        <time>2008-06-15T07:44:57Z</time>
      </trkpt>
      <trkpt lat="38.238830007612705" lon="-7.118599992245436">
        <ele>286.2421875</ele>
        <time>2008-06-15T07:45:04Z</time>
      </trkpt>
      <trkpt lat="38.237350014969707" lon="-7.118420032784343">
        <ele>282.83984375</ele>
        <time>2008-06-15T07:45:28Z</time>
      </trkpt>
      <trkpt lat="38.235770026221871" lon="-7.11822004057467">
        <ele>284.45703125</ele>
        <time>2008-06-15T07:45:53Z</time>
      </trkpt>
      <trkpt lat="38.235640022903681" lon="-7.118190033361316">
        <ele>285.4765625</ele>
        <time>2008-06-15T07:45:54Z</time>
      </trkpt>
      <trkpt lat="38.235240038484335" lon="-7.118139993399382">
        <ele>287.91015625</ele>
        <time>2008-06-15T07:46:02Z</time>
      </trkpt>
      <trkpt lat="38.234969973564148" lon="-7.118070004507899">
        <ele>288.26171875</ele>
        <time>2008-06-15T07:46:14Z</time>
      </trkpt>
      <trkpt lat="38.234249968081713" lon="-7.117849979549646">
        <ele>289.41796875</ele>
        <time>2008-06-15T07:46:36Z</time>
      </trkpt>
      <trkpt lat="38.233949979767203" lon="-7.117779990658164">
        <ele>289.7265625</ele>
        <time>2008-06-15T07:46:40Z</time>
      </trkpt>
      <trkpt lat="38.233020007610321" lon="-7.117659961804748">
        <ele>288.15625</ele>
        <time>2008-06-15T07:47:00Z</time>
      </trkpt>
      <trkpt lat="38.23276000097394" lon="-7.117600031197071">
        <ele>286.80859375</ele>
        <time>2008-06-15T07:47:04Z</time>
      </trkpt>
      <trkpt lat="38.232629997655749" lon="-7.117600031197071">
        <ele>286.46484375</ele>
        <time>2008-06-15T07:47:07Z</time>
      </trkpt>
      <trkpt lat="38.232179973274469" lon="-7.117670020088553">
        <ele>285.28515625</ele>
        <time>2008-06-15T07:47:14Z</time>
      </trkpt>
      <trkpt lat="38.232119958847761" lon="-7.117679994553328">
        <ele>285.19921875</ele>
        <time>2008-06-15T07:47:15Z</time>
      </trkpt>
      <trkpt lat="38.231939999386668" lon="-7.117809997871518">
        <ele>283.4296875</ele>
        <time>2008-06-15T07:47:18Z</time>
      </trkpt>
      <trkpt lat="38.231659960001707" lon="-7.117849979549646">
        <ele>282.58984375</ele>
        <time>2008-06-15T07:47:22Z</time>
      </trkpt>
      <trkpt lat="38.23142996057868" lon="-7.117840005084872">
        <ele>281.8125</ele>
        <time>2008-06-15T07:47:24Z</time>
      </trkpt>
      <trkpt lat="38.231119997799397" lon="-7.117719976231456">
        <ele>281.05859375</ele>
        <time>2008-06-15T07:47:29Z</time>
      </trkpt>
      <trkpt lat="38.230839958414435" lon="-7.117519984021783">
        <ele>279.90625</ele>
        <time>2008-06-15T07:47:33Z</time>
      </trkpt>
      <trkpt lat="38.230769969522953" lon="-7.117470027878881">
        <ele>279.58984375</ele>
        <time>2008-06-15T07:47:34Z</time>
      </trkpt>
      <trkpt lat="38.230490013957024" lon="-7.117240028455854">
        <ele>278.24609375</ele>
        <time>2008-06-15T07:47:38Z</time>
      </trkpt>
      <trkpt lat="38.230060022324324" lon="-7.116899974644184">
        <ele>276.06640625</ele>
        <time>2008-06-15T07:47:46Z</time>
      </trkpt>
      <trkpt lat="38.229970000684261" lon="-7.116799978539348">
        <ele>275.59765625</ele>
        <time>2008-06-15T07:47:49Z</time>
      </trkpt>
      <trkpt lat="38.229800015687943" lon="-7.116450034081936">
        <ele>275.421875</ele>
        <time>2008-06-15T07:47:57Z</time>
      </trkpt>
      <trkpt lat="38.228929974138737" lon="-7.115960028022528">
        <ele>273.02734375</ele>
        <time>2008-06-15T07:48:14Z</time>
      </trkpt>
      <trkpt lat="38.228350030258298" lon="-7.115800017490983">
        <ele>274.421875</ele>
        <time>2008-06-15T07:48:25Z</time>
      </trkpt>
      <trkpt lat="38.22756003588438" lon="-7.115089986473322">
        <ele>278.5</ele>
        <time>2008-06-15T07:48:43Z</time>
      </trkpt>
      <trkpt lat="38.227449981495738" lon="-7.114980015903711">
        <ele>278.140625</ele>
        <time>2008-06-15T07:48:45Z</time>
      </trkpt>
      <trkpt lat="38.227019989863038" lon="-7.114899968728423">
        <ele>277.2890625</ele>
        <time>2008-06-15T07:48:52Z</time>
      </trkpt>
      <trkpt lat="38.226480027660728" lon="-7.114959983155131">
        <ele>280.45703125</ele>
        <time>2008-06-15T07:48:59Z</time>
      </trkpt>
      <trkpt lat="38.226050036028028" lon="-7.115029972046614">
        <ele>277.4609375</ele>
        <time>2008-06-15T07:49:06Z</time>
      </trkpt>
      <trkpt lat="38.225820036605" lon="-7.115070037543774">
        <ele>273.9140625</ele>
        <time>2008-06-15T07:49:08Z</time>
      </trkpt>
      <trkpt lat="38.225739989429712" lon="-7.115080012008548">
        <ele>272.71484375</ele>
        <time>2008-06-15T07:49:10Z</time>
      </trkpt>
      <trkpt lat="38.225389961153269" lon="-7.115140026435256">
        <ele>268.89453125</ele>
        <time>2008-06-15T07:49:14Z</time>
      </trkpt>
      <trkpt lat="38.225040016695857" lon="-7.11515000090003">
        <ele>264.73828125</ele>
        <time>2008-06-15T07:49:18Z</time>
      </trkpt>
      <trkpt lat="38.224659981206059" lon="-7.11515000090003">
        <ele>261.31640625</ele>
        <time>2008-06-15T07:49:22Z</time>
      </trkpt>
      <trkpt lat="38.22435999289155" lon="-7.11512996815145">
        <ele>259.3046875</ele>
        <time>2008-06-15T07:49:25Z</time>
      </trkpt>
      <trkpt lat="38.223869986832142" lon="-7.115089986473322">
        <ele>256.7734375</ele>
        <time>2008-06-15T07:49:30Z</time>
      </trkpt>
      <trkpt lat="38.223549965769053" lon="-7.115189982578158">
        <ele>255.9375</ele>
        <time>2008-06-15T07:49:35Z</time>
      </trkpt>
      <trkpt lat="38.223040010780096" lon="-7.115249997004867">
        <ele>253.4765625</ele>
        <time>2008-06-15T07:49:42Z</time>
      </trkpt>
      <trkpt lat="38.222480015829206" lon="-7.115349993109703">
        <ele>251.0546875</ele>
        <time>2008-06-15T07:49:49Z</time>
      </trkpt>
      <trkpt lat="38.221790017560124" lon="-7.115519978106022">
        <ele>248.17578125</ele>
        <time>2008-06-15T07:50:00Z</time>
      </trkpt>
      <trkpt lat="38.221049979329109" lon="-7.115670014172792">
        <ele>247.1015625</ele>
        <time>2008-06-15T07:50:16Z</time>
      </trkpt>
      <trkpt lat="38.220220003277063" lon="-7.116149961948395">
        <ele>246.23828125</ele>
        <time>2008-06-15T07:50:32Z</time>
      </trkpt>
      <trkpt lat="38.220120007172227" lon="-7.116169994696975">
        <ele>245.97265625</ele>
        <time>2008-06-15T07:50:36Z</time>
      </trkpt>
      <trkpt lat="38.219100013375282" lon="-7.11630997247994">
        <ele>243.6328125</ele>
        <time>2008-06-15T07:50:54Z</time>
      </trkpt>
      <trkpt lat="38.217980023473501" lon="-7.116090031340718">
        <ele>241.87890625</ele>
        <time>2008-06-15T07:51:15Z</time>
      </trkpt>
      <trkpt lat="38.217350039631128" lon="-7.115619974210858">
        <ele>245.1015625</ele>
        <time>2008-06-15T07:51:26Z</time>
      </trkpt>
      <trkpt lat="38.21729002520442" lon="-7.11555995978415">
        <ele>245.7578125</ele>
        <time>2008-06-15T07:51:27Z</time>
      </trkpt>
      <trkpt lat="38.217179970815778" lon="-7.115410007536411">
        <ele>246.93359375</ele>
        <time>2008-06-15T07:51:30Z</time>
      </trkpt>
      <trkpt lat="38.217049967497587" lon="-7.11517003364861">
        <ele>248.4140625</ele>
        <time>2008-06-15T07:51:33Z</time>
      </trkpt>
      <trkpt lat="38.216700023040175" lon="-7.114469977095723">
        <ele>245.47265625</ele>
        <time>2008-06-15T07:51:44Z</time>
      </trkpt>
      <trkpt lat="38.216500030830503" lon="-7.114220028743148">
        <ele>242.62109375</ele>
        <time>2008-06-15T07:51:49Z</time>
      </trkpt>
      <trkpt lat="38.216319987550378" lon="-7.114109974354506">
        <ele>240.296875</ele>
        <time>2008-06-15T07:51:53Z</time>
      </trkpt>
      <trkpt lat="38.216170035302639" lon="-7.113960022106767">
        <ele>238.03125</ele>
        <time>2008-06-15T07:51:57Z</time>
      </trkpt>
      <trkpt lat="38.216099962592125" lon="-7.113879974931479">
        <ele>237.01171875</ele>
        <time>2008-06-15T07:51:59Z</time>
      </trkpt>
      <trkpt lat="38.21595998480916" lon="-7.113560037687421">
        <ele>233.953125</ele>
        <time>2008-06-15T07:52:04Z</time>
      </trkpt>
      <trkpt lat="38.215880021452904" lon="-7.113370019942522">
        <ele>232.58984375</ele>
        <time>2008-06-15T07:52:08Z</time>
      </trkpt>
      <trkpt lat="38.215859988704324" lon="-7.113330038264394">
        <ele>232.37890625</ele>
        <time>2008-06-15T07:52:08Z</time>
      </trkpt>
      <trkpt lat="38.215639963746071" lon="-7.112780017778277">
        <ele>228.953125</ele>
        <time>2008-06-15T07:52:16Z</time>
      </trkpt>
      <trkpt lat="38.215610040351748" lon="-7.112720003351569">
        <ele>228.359375</ele>
        <time>2008-06-15T07:52:17Z</time>
      </trkpt>
      <trkpt lat="38.215490011498332" lon="-7.112429989501834">
        <ele>227.203125</ele>
        <time>2008-06-15T07:52:30Z</time>
      </trkpt>
      <trkpt lat="38.215460004284978" lon="-7.112299986183643">
        <ele>226.765625</ele>
        <time>2008-06-15T07:53:02Z</time>
      </trkpt>
      <trkpt lat="38.215429997071624" lon="-7.112260004505515">
        <ele>226.46875</ele>
        <time>2008-06-15T07:53:24Z</time>
      </trkpt>
      <trkpt lat="38.215269986540079" lon="-7.11209999397397">
        <ele>225.12890625</ele>
        <time>2008-06-15T07:53:29Z</time>
      </trkpt>
      <trkpt lat="38.214819962158799" lon="-7.111820038408041">
        <ele>223.01171875</ele>
        <time>2008-06-15T07:53:45Z</time>
      </trkpt>
      <trkpt lat="38.214719966053963" lon="-7.111809980124235">
        <ele>222.95703125</ele>
        <time>2008-06-15T07:53:48Z</time>
      </trkpt>
      <trkpt lat="38.21456003934145" lon="-7.111730016767979">
        <ele>223.6015625</ele>
        <time>2008-06-15T07:53:51Z</time>
      </trkpt>
      <trkpt lat="38.214509999379516" lon="-7.111700009554625">
        <ele>223.84375</ele>
        <time>2008-06-15T07:53:52Z</time>
      </trkpt>
      <trkpt lat="38.214019993320107" lon="-7.111189970746636">
        <ele>226.38671875</ele>
        <time>2008-06-15T07:54:00Z</time>
      </trkpt>
      <trkpt lat="38.213580027222633" lon="-7.110699964687228">
        <ele>229.73046875</ele>
        <time>2008-06-15T07:54:08Z</time>
      </trkpt>
      <trkpt lat="38.213450023904443" lon="-7.110459990799427">
        <ele>230.59375</ele>
        <time>2008-06-15T07:54:12Z</time>
      </trkpt>
      <trkpt lat="38.213399983942509" lon="-7.110380027443171">
        <ele>230.76171875</ele>
        <time>2008-06-15T07:54:12Z</time>
      </trkpt>
      <trkpt lat="38.212749967351556" lon="-7.109700003638864">
        <ele>227.58203125</ele>
        <time>2008-06-15T07:54:22Z</time>
      </trkpt>
      <trkpt lat="38.212590040639043" lon="-7.109519960358739">
        <ele>226.01953125</ele>
        <time>2008-06-15T07:54:24Z</time>
      </trkpt>
      <trkpt lat="38.211889984086156" lon="-7.108459984883666">
        <ele>225.8125</ele>
        <time>2008-06-15T07:54:45Z</time>
      </trkpt>
      <trkpt lat="38.211450017988682" lon="-7.108069974929094">
        <ele>223.62109375</ele>
        <time>2008-06-15T07:55:03Z</time>
      </trkpt>
      <trkpt lat="38.210660023614764" lon="-7.107600001618266">
        <ele>225.52734375</ele>
        <time>2008-06-15T07:55:20Z</time>
      </trkpt>
      <trkpt lat="38.210560027509928" lon="-7.10747997276485">
        <ele>227.0390625</ele>
        <time>2008-06-15T07:55:22Z</time>
      </trkpt>
      <trkpt lat="38.210349977016449" lon="-7.107349969446659">
        <ele>229.48046875</ele>
        <time>2008-06-15T07:55:26Z</time>
      </trkpt>
      <trkpt lat="38.210100028663874" lon="-7.107279980555177">
        <ele>232.7265625</ele>
        <time>2008-06-15T07:55:30Z</time>
      </trkpt>
      <trkpt lat="38.209829963743687" lon="-7.107270006090403">
        <ele>234.69921875</ele>
        <time>2008-06-15T07:55:36Z</time>
      </trkpt>
      <trkpt lat="38.209520000964403" lon="-7.107170009985566">
        <ele>234.74609375</ele>
        <time>2008-06-15T07:55:41Z</time>
      </trkpt>
      <trkpt lat="38.209359990432858" lon="-7.106989966705442">
        <ele>233.16015625</ele>
        <time>2008-06-15T07:55:47Z</time>
      </trkpt>
      <trkpt lat="38.209259994328022" lon="-7.106830039992929">
        <ele>231.73828125</ele>
        <time>2008-06-15T07:55:51Z</time>
      </trkpt>
      <trkpt lat="38.209129991009831" lon="-7.106629963964224">
        <ele>229.48828125</ele>
        <time>2008-06-15T07:55:55Z</time>
      </trkpt>
      <trkpt lat="38.209060002118349" lon="-7.106280019506812">
        <ele>229.80078125</ele>
        <time>2008-06-15T07:56:00Z</time>
      </trkpt>
      <trkpt lat="38.208980038762093" lon="-7.106059994548559">
        <ele>230.91796875</ele>
        <time>2008-06-15T07:56:04Z</time>
      </trkpt>
      <trkpt lat="38.208779962733388" lon="-7.105809962376952">
        <ele>230.00390625</ele>
        <time>2008-06-15T07:56:11Z</time>
      </trkpt>
      <trkpt lat="38.208679966628551" lon="-7.105449959635735">
        <ele>227.77734375</ele>
        <time>2008-06-15T07:56:16Z</time>
      </trkpt>
      <trkpt lat="38.208709973841906" lon="-7.105270000174642">
        <ele>227.55078125</ele>
        <time>2008-06-15T07:56:19Z</time>
      </trkpt>
      <trkpt lat="38.20873998105526" lon="-7.105109989643097">
        <ele>227.765625</ele>
        <time>2008-06-15T07:56:27Z</time>
      </trkpt>
      <trkpt lat="38.208370003849268" lon="-7.104510013014078">
        <ele>230.3828125</ele>
        <time>2008-06-15T07:56:42Z</time>
      </trkpt>
      <trkpt lat="38.208160037174821" lon="-7.104340028017759">
        <ele>231.5390625</ele>
        <time>2008-06-15T07:56:54Z</time>
      </trkpt>
      <trkpt lat="38.208000026643276" lon="-7.104150010272861">
        <ele>233.0625</ele>
        <time>2008-06-15T07:57:09Z</time>
      </trkpt>
      <trkpt lat="38.207689980044961" lon="-7.103729993104935">
        <ele>235.32421875</ele>
        <time>2008-06-15T07:57:25Z</time>
      </trkpt>
      <trkpt lat="38.207480013370514" lon="-7.103629997000098">
        <ele>237.75390625</ele>
        <time>2008-06-15T07:57:32Z</time>
      </trkpt>
      <trkpt lat="38.20745000615716" lon="-7.103620022535324">
        <ele>237.91015625</ele>
        <time>2008-06-15T07:57:32Z</time>
      </trkpt>
      <trkpt lat="38.207269962877035" lon="-7.103639971464872">
        <ele>238.86328125</ele>
        <time>2008-06-15T07:57:52Z</time>
      </trkpt>
      <trkpt lat="38.207159992307425" lon="-7.103639971464872">
        <ele>238.70703125</ele>
        <time>2008-06-15T07:59:11Z</time>
      </trkpt>
      <trkpt lat="38.206349965184927" lon="-7.103690011426806">
        <ele>235.1015625</ele>
        <time>2008-06-15T07:59:32Z</time>
      </trkpt>
      <trkpt lat="38.205770021304488" lon="-7.103920010849834">
        <ele>238.02734375</ele>
        <time>2008-06-15T07:59:50Z</time>
      </trkpt>
      <trkpt lat="38.205670025199652" lon="-7.10399997420609">
        <ele>239.35546875</ele>
        <time>2008-06-15T07:59:56Z</time>
      </trkpt>
      <trkpt lat="38.205619985237718" lon="-7.10404003970325">
        <ele>240.1640625</ele>
        <time>2008-06-15T07:59:59Z</time>
      </trkpt>
      <trkpt lat="38.205440025776625" lon="-7.104210024699569">
        <ele>243.5859375</ele>
        <time>2008-06-15T08:00:07Z</time>
      </trkpt>
      <trkpt lat="38.2052599824965" lon="-7.104319995269179">
        <ele>245.734375</ele>
        <time>2008-06-15T08:00:18Z</time>
      </trkpt>
      <trkpt lat="38.205110030248761" lon="-7.104640016332269">
        <ele>246.21875</ele>
        <time>2008-06-15T08:00:33Z</time>
      </trkpt>
      <trkpt lat="38.205110030248761" lon="-7.104659965261817">
        <ele>246.34765625</ele>
        <time>2008-06-15T08:00:41Z</time>
      </trkpt>
      <trkpt lat="38.205120004713535" lon="-7.104719979688525">
        <ele>246.81640625</ele>
        <time>2008-06-15T08:00:45Z</time>
      </trkpt>
      <trkpt lat="38.205159986391664" lon="-7.104860041290522">
        <ele>247.75</ele>
        <time>2008-06-15T08:01:04Z</time>
      </trkpt>
      <trkpt lat="38.205089997500181" lon="-7.104649990797043">
        <ele>246.08203125</ele>
        <time>2008-06-15T08:01:27Z</time>
      </trkpt>
      <trkpt lat="38.205089997500181" lon="-7.104640016332269">
        <ele>246.0078125</ele>
        <time>2008-06-15T08:01:34Z</time>
      </trkpt>
      <trkpt lat="38.205099971964955" lon="-7.104589976370335">
        <ele>245.921875</ele>
        <time>2008-06-15T08:01:35Z</time>
      </trkpt>
      <trkpt lat="38.205129979178309" lon="-7.104519987478852">
        <ele>246.09375</ele>
        <time>2008-06-15T08:01:38Z</time>
      </trkpt>
      <trkpt lat="38.205329971387982" lon="-7.104270039126277">
        <ele>244.9375</ele>
        <time>2008-06-15T08:01:50Z</time>
      </trkpt>
      <trkpt lat="38.205480007454753" lon="-7.104110028594732">
        <ele>241.64453125</ele>
        <time>2008-06-15T08:02:02Z</time>
      </trkpt>
      <trkpt lat="38.205489981919527" lon="-7.104089995846152">
        <ele>241.2578125</ele>
        <time>2008-06-15T08:02:02Z</time>
      </trkpt>
      <trkpt lat="38.2056899741292" lon="-7.103939959779382">
        <ele>238.30078125</ele>
        <time>2008-06-15T08:02:13Z</time>
      </trkpt>
      <trkpt lat="38.205909999087453" lon="-7.103790007531643">
        <ele>236.32421875</ele>
        <time>2008-06-15T08:02:24Z</time>
      </trkpt>
      <trkpt lat="38.205909999087453" lon="-7.103739967569709">
        <ele>235.6640625</ele>
        <time>2008-06-15T08:02:38Z</time>
      </trkpt>
      <trkpt lat="38.205480007454753" lon="-7.103720018640161">
        <ele>234.7109375</ele>
        <time>2008-06-15T08:02:52Z</time>
      </trkpt>
      <trkpt lat="38.205069964751601" lon="-7.103629997000098">
        <ele>234.0078125</ele>
        <time>2008-06-15T08:03:03Z</time>
      </trkpt>
      <trkpt lat="38.204769976437092" lon="-7.103479960933328">
        <ele>229.35546875</ele>
        <time>2008-06-15T08:03:16Z</time>
      </trkpt>
      <trkpt lat="38.204390024766326" lon="-7.103609964251518">
        <ele>226.7421875</ele>
        <time>2008-06-15T08:03:42Z</time>
      </trkpt>
      <trkpt lat="38.20399004034698" lon="-7.103910036385059">
        <ele>223.76953125</ele>
        <time>2008-06-15T08:03:54Z</time>
      </trkpt>
      <trkpt lat="38.203349998220801" lon="-7.104240031912923">
        <ele>221.0703125</ele>
        <time>2008-06-15T08:04:14Z</time>
      </trkpt>
      <trkpt lat="38.202940039336681" lon="-7.104380009695888">
        <ele>217.82421875</ele>
        <time>2008-06-15T08:04:26Z</time>
      </trkpt>
      <trkpt lat="38.202599985525012" lon="-7.10442996583879">
        <ele>216.0078125</ele>
        <time>2008-06-15T08:04:35Z</time>
      </trkpt>
      <trkpt lat="38.202169993892312" lon="-7.104510013014078">
        <ele>214.19921875</ele>
        <time>2008-06-15T08:04:48Z</time>
      </trkpt>
      <trkpt lat="38.201430039480329" lon="-7.104319995269179">
        <ele>216.1015625</ele>
        <time>2008-06-15T08:05:06Z</time>
      </trkpt>
      <trkpt lat="38.201270028948784" lon="-7.104140035808086">
        <ele>215.86328125</ele>
        <time>2008-06-15T08:05:11Z</time>
      </trkpt>
      <trkpt lat="38.201129967346787" lon="-7.10404003970325">
        <ele>213.9296875</ele>
        <time>2008-06-15T08:05:15Z</time>
      </trkpt>
      <trkpt lat="38.200680026784539" lon="-7.103920010849834">
        <ele>212.015625</ele>
        <time>2008-06-15T08:05:27Z</time>
      </trkpt>
      <trkpt lat="38.200350031256676" lon="-7.103699985891581">
        <ele>215.08984375</ele>
        <time>2008-06-15T08:05:35Z</time>
      </trkpt>
      <trkpt lat="38.200309965759516" lon="-7.103660004213452">
        <ele>215.6953125</ele>
        <time>2008-06-15T08:05:37Z</time>
      </trkpt>
      <trkpt lat="38.200239976868033" lon="-7.10356998257339">
        <ele>217.12109375</ele>
        <time>2008-06-15T08:05:38Z</time>
      </trkpt>
      <trkpt lat="38.200099999085069" lon="-7.103360015898943">
        <ele>219.515625</ele>
        <time>2008-06-15T08:05:42Z</time>
      </trkpt>
      <trkpt lat="38.20003998465836" lon="-7.103230012580752">
        <ele>220.92578125</ele>
        <time>2008-06-15T08:05:45Z</time>
      </trkpt>
      <trkpt lat="38.200000002980232" lon="-7.103100009262562">
        <ele>221.37890625</ele>
        <time>2008-06-15T08:05:46Z</time>
      </trkpt>
      <trkpt lat="38.199860025197268" lon="-7.102700024843216">
        <ele>217.90625</ele>
        <time>2008-06-15T08:05:57Z</time>
      </trkpt>
      <trkpt lat="38.199830017983913" lon="-7.102659959346056">
        <ele>217.2421875</ele>
        <time>2008-06-15T08:05:58Z</time>
      </trkpt>
      <trkpt lat="38.199760029092431" lon="-7.1025799959898">
        <ele>215.86328125</ele>
        <time>2008-06-15T08:06:00Z</time>
      </trkpt>
      <trkpt lat="38.199489964172244" lon="-7.102340022101998">
        <ele>213.78125</ele>
        <time>2008-06-15T08:06:06Z</time>
      </trkpt>
      <trkpt lat="38.199129961431026" lon="-7.101880023255944">
        <ele>217.87109375</ele>
        <time>2008-06-15T08:06:21Z</time>
      </trkpt>
      <trkpt lat="38.19902996532619" lon="-7.101680031046271">
        <ele>220.46484375</ele>
        <time>2008-06-15T08:06:25Z</time>
      </trkpt>
      <trkpt lat="38.198680020868778" lon="-7.101209973916411">
        <ele>216.66796875</ele>
        <time>2008-06-15T08:06:37Z</time>
      </trkpt>
      <trkpt lat="38.198410039767623" lon="-7.101100003346801">
        <ele>214.12109375</ele>
        <time>2008-06-15T08:06:44Z</time>
      </trkpt>
      <trkpt lat="38.198150033131242" lon="-7.10099003277719">
        <ele>211.8984375</ele>
        <time>2008-06-15T08:06:52Z</time>
      </trkpt>
      <trkpt lat="38.198020029813051" lon="-7.100939992815256">
        <ele>210.8984375</ele>
        <time>2008-06-15T08:06:55Z</time>
      </trkpt>
      <trkpt lat="38.197709983214736" lon="-7.10081996396184">
        <ele>208.34765625</ele>
        <time>2008-06-15T08:07:10Z</time>
      </trkpt>
      <trkpt lat="38.197349980473518" lon="-7.100649978965521">
        <ele>205.66796875</ele>
        <time>2008-06-15T08:07:23Z</time>
      </trkpt>
      <trkpt lat="38.197230035439134" lon="-7.100679986178875">
        <ele>207.34765625</ele>
        <time>2008-06-15T08:07:27Z</time>
      </trkpt>
      <trkpt lat="38.197049992159009" lon="-7.100849971175194">
        <ele>207.51953125</ele>
        <time>2008-06-15T08:07:33Z</time>
      </trkpt>
      <trkpt lat="38.196670040488243" lon="-7.10097000002861">
        <ele>209.60546875</ele>
        <time>2008-06-15T08:07:41Z</time>
      </trkpt>
      <trkpt lat="38.195909969508648" lon="-7.10083999671042">
        <ele>210.21875</ele>
        <time>2008-06-15T08:07:53Z</time>
      </trkpt>
      <trkpt lat="38.195490036159754" lon="-7.100510001182556">
        <ele>212.33203125</ele>
        <time>2008-06-15T08:08:01Z</time>
      </trkpt>
      <trkpt lat="38.195279985666275" lon="-7.100330041721463">
        <ele>213.37890625</ele>
        <time>2008-06-15T08:08:06Z</time>
      </trkpt>
      <trkpt lat="38.195059960708022" lon="-7.100189980119467">
        <ele>212.71875</ele>
        <time>2008-06-15T08:08:12Z</time>
      </trkpt>
      <trkpt lat="38.194619994610548" lon="-7.100159972906113">
        <ele>210.5859375</ele>
        <time>2008-06-15T08:08:27Z</time>
      </trkpt>
      <trkpt lat="38.194610020145774" lon="-7.100170031189919">
        <ele>210.5078125</ele>
        <time>2008-06-15T08:08:28Z</time>
      </trkpt>
      <trkpt lat="38.194429976865649" lon="-7.100259969010949">
        <ele>210.125</ele>
        <time>2008-06-15T08:08:35Z</time>
      </trkpt>
      <trkpt lat="38.19412998855114" lon="-7.100570015609264">
        <ele>211.53515625</ele>
        <time>2008-06-15T08:08:43Z</time>
      </trkpt>
      <trkpt lat="38.194090006873012" lon="-7.100619971752167">
        <ele>211.5078125</ele>
        <time>2008-06-15T08:08:43Z</time>
      </trkpt>
      <trkpt lat="38.193980036303401" lon="-7.100740000605583">
        <ele>210.66015625</ele>
        <time>2008-06-15T08:08:47Z</time>
      </trkpt>
      <trkpt lat="38.193790018558502" lon="-7.100809989497066">
        <ele>209.44140625</ele>
        <time>2008-06-15T08:08:51Z</time>
      </trkpt>
      <trkpt lat="38.193739978596568" lon="-7.100800015032291">
        <ele>209.140625</ele>
        <time>2008-06-15T08:08:52Z</time>
      </trkpt>
      <trkpt lat="38.193639982491732" lon="-7.100779982283711">
        <ele>208.48828125</ele>
        <time>2008-06-15T08:08:55Z</time>
      </trkpt>
      <trkpt lat="38.193530011922121" lon="-7.100740000605583">
        <ele>207.578125</ele>
        <time>2008-06-15T08:08:56Z</time>
      </trkpt>
      <trkpt lat="38.193260030820966" lon="-7.100689960643649">
        <ele>205.140625</ele>
        <time>2008-06-15T08:09:02Z</time>
      </trkpt>
      <trkpt lat="38.193209990859032" lon="-7.100679986178875">
        <ele>204.75390625</ele>
        <time>2008-06-15T08:09:03Z</time>
      </trkpt>
      <trkpt lat="38.192959958687425" lon="-7.100670011714101">
        <ele>203.29296875</ele>
        <time>2008-06-15T08:09:09Z</time>
      </trkpt>
      <trkpt lat="38.192749992012978" lon="-7.100700018927455">
        <ele>203.9453125</ele>
        <time>2008-06-15T08:09:14Z</time>
      </trkpt>
      <trkpt lat="38.192559974268079" lon="-7.100830022245646">
        <ele>205.24609375</ele>
        <time>2008-06-15T08:09:19Z</time>
      </trkpt>
      <trkpt lat="38.192399963736534" lon="-7.100860029459">
        <ele>205.30859375</ele>
        <time>2008-06-15T08:09:23Z</time>
      </trkpt>
      <trkpt lat="38.192289993166924" lon="-7.100860029459">
        <ele>205.0546875</ele>
        <time>2008-06-15T08:09:26Z</time>
      </trkpt>
      <trkpt lat="38.19195999763906" lon="-7.10097000002861">
        <ele>207.93359375</ele>
        <time>2008-06-15T08:09:36Z</time>
      </trkpt>
      <trkpt lat="38.191850027069449" lon="-7.101049963384867">
        <ele>209.2265625</ele>
        <time>2008-06-15T08:09:42Z</time>
      </trkpt>
      <trkpt lat="38.191609969362617" lon="-7.1012900210917">
        <ele>211.296875</ele>
        <time>2008-06-15T08:09:49Z</time>
      </trkpt>
      <trkpt lat="38.191390028223395" lon="-7.101369984447956">
        <ele>210.43359375</ele>
        <time>2008-06-15T08:09:54Z</time>
      </trkpt>
      <trkpt lat="38.191209984943271" lon="-7.101360009983182">
        <ele>208.76171875</ele>
        <time>2008-06-15T08:10:00Z</time>
      </trkpt>
      <trkpt lat="38.191179977729917" lon="-7.101350035518408">
        <ele>208.5</ele>
        <time>2008-06-15T08:10:01Z</time>
      </trkpt>
      <trkpt lat="38.190800026059151" lon="-7.101250039413571">
        <ele>203.8984375</ele>
        <time>2008-06-15T08:10:12Z</time>
      </trkpt>
      <trkpt lat="38.190619982779026" lon="-7.101190024986863">
        <ele>201.2890625</ele>
        <time>2008-06-15T08:10:16Z</time>
      </trkpt>
      <trkpt lat="38.190359976142645" lon="-7.101060021668673">
        <ele>198.94921875</ele>
        <time>2008-06-15T08:10:23Z</time>
      </trkpt>
      <trkpt lat="38.190319994464517" lon="-7.101039988920093">
        <ele>198.53125</ele>
        <time>2008-06-15T08:10:24Z</time>
      </trkpt>
      <trkpt lat="38.1901999656111" lon="-7.100979974493384">
        <ele>197.16796875</ele>
        <time>2008-06-15T08:10:27Z</time>
      </trkpt>
      <trkpt lat="38.190059987828135" lon="-7.100909985601902">
        <ele>195.41796875</ele>
        <time>2008-06-15T08:10:31Z</time>
      </trkpt>
      <trkpt lat="38.189939958974719" lon="-7.100809989497066">
        <ele>194.3359375</ele>
        <time>2008-06-15T08:10:34Z</time>
      </trkpt>
      <trkpt lat="38.189699985086918" lon="-7.100730026140809">
        <ele>192.15625</ele>
        <time>2008-06-15T08:10:39Z</time>
      </trkpt>
      <trkpt lat="38.189369989559054" lon="-7.100700018927455">
        <ele>187.640625</ele>
        <time>2008-06-15T08:10:46Z</time>
      </trkpt>
      <trkpt lat="38.189160022884607" lon="-7.100649978965521">
        <ele>184.86328125</ele>
        <time>2008-06-15T08:10:50Z</time>
      </trkpt>
      <trkpt lat="38.188900016248226" lon="-7.100570015609264">
        <ele>182.015625</ele>
        <time>2008-06-15T08:10:55Z</time>
      </trkpt>
      <trkpt lat="38.188630035147071" lon="-7.100479993969202">
        <ele>179.7890625</ele>
        <time>2008-06-15T08:11:01Z</time>
      </trkpt>
      <trkpt lat="38.188119996339083" lon="-7.10051997564733">
        <ele>177.09765625</ele>
        <time>2008-06-15T08:11:14Z</time>
      </trkpt>
      <trkpt lat="38.187699979171157" lon="-7.100670011714101">
        <ele>173.52734375</ele>
        <time>2008-06-15T08:11:22Z</time>
      </trkpt>
      <trkpt lat="38.187429998070002" lon="-7.100700018927455">
        <ele>170.12109375</ele>
        <time>2008-06-15T08:11:28Z</time>
      </trkpt>
      <trkpt lat="38.187350034713745" lon="-7.100719967857003">
        <ele>168.734375</ele>
        <time>2008-06-15T08:11:29Z</time>
      </trkpt>
      <trkpt lat="38.187120035290718" lon="-7.100740000605583">
        <ele>165.46484375</ele>
        <time>2008-06-15T08:11:36Z</time>
      </trkpt>
      <trkpt lat="38.186939992010593" lon="-7.100730026140809">
        <ele>163.8515625</ele>
        <time>2008-06-15T08:11:40Z</time>
      </trkpt>
      <trkpt lat="38.186909984797239" lon="-7.100730026140809">
        <ele>163.69921875</ele>
        <time>2008-06-15T08:11:41Z</time>
      </trkpt>
      <trkpt lat="38.18658996373415" lon="-7.100919960066676">
        <ele>158.41015625</ele>
        <time>2008-06-15T08:11:55Z</time>
      </trkpt>
      <trkpt lat="38.186419978737831" lon="-7.101020039990544">
        <ele>154.67578125</ele>
        <time>2008-06-15T08:12:00Z</time>
      </trkpt>
      <trkpt lat="38.186070034280419" lon="-7.10094996728003">
        <ele>151.01953125</ele>
        <time>2008-06-15T08:12:11Z</time>
      </trkpt>
      <trkpt lat="38.186050001531839" lon="-7.100939992815256">
        <ele>150.7109375</ele>
        <time>2008-06-15T08:12:12Z</time>
      </trkpt>
      <trkpt lat="38.185869958251715" lon="-7.100879978388548">
        <ele>148.30859375</ele>
        <time>2008-06-15T08:12:23Z</time>
      </trkpt>
      <trkpt lat="38.185769962146878" lon="-7.100900011137128">
        <ele>147.21875</ele>
        <time>2008-06-15T08:12:39Z</time>
      </trkpt>
      <trkpt lat="38.185789994895458" lon="-7.100890036672354">
        <ele>147.26171875</ele>
        <time>2008-06-15T08:12:50Z</time>
      </trkpt>
      <trkpt lat="38.185789994895458" lon="-7.100890036672354">
        <ele>147.26171875</ele>
        <time>2008-06-15T08:13:37Z</time>
      </trkpt>
      <trkpt lat="38.185799969360232" lon="-7.101169992238283">
        <ele>145.4375</ele>
        <time>2008-06-15T08:14:03Z</time>
      </trkpt>
      <trkpt lat="38.185850009322166" lon="-7.101360009983182">
        <ele>143.34375</ele>
        <time>2008-06-15T08:14:19Z</time>
      </trkpt>
      <trkpt lat="38.185869958251715" lon="-7.10142002440989">
        <ele>142.76171875</ele>
        <time>2008-06-15T08:14:42Z</time>
      </trkpt>
      <trkpt lat="38.185880016535521" lon="-7.10139999166131">
        <ele>143.0546875</ele>
        <time>2008-06-15T08:15:01Z</time>
      </trkpt>
      <trkpt lat="38.186029968783259" lon="-7.101450031623244">
        <ele>143.69921875</ele>
        <time>2008-06-15T08:15:12Z</time>
      </trkpt>
      <trkpt lat="38.186430037021637" lon="-7.101669972762466">
        <ele>143.3984375</ele>
        <time>2008-06-15T08:15:41Z</time>
      </trkpt>
      <trkpt lat="38.186640003696084" lon="-7.101940037682653">
        <ele>142.56640625</ele>
        <time>2008-06-15T08:16:03Z</time>
      </trkpt>
      <trkpt lat="38.186860028654337" lon="-7.102219993248582">
        <ele>142.1484375</ele>
        <time>2008-06-15T08:16:26Z</time>
      </trkpt>
      <trkpt lat="38.186939992010593" lon="-7.102250000461936">
        <ele>142.96484375</ele>
        <time>2008-06-15T08:16:33Z</time>
      </trkpt>
      <trkpt lat="38.18714995868504" lon="-7.102519981563091">
        <ele>144.37890625</ele>
        <time>2008-06-15T08:16:56Z</time>
      </trkpt>
      <trkpt lat="38.187160016968846" lon="-7.102549988776445">
        <ele>144.015625</ele>
        <time>2008-06-15T08:16:58Z</time>
      </trkpt>
      <trkpt lat="38.187179965898395" lon="-7.102570021525025">
        <ele>144.2265625</ele>
        <time>2008-06-15T08:17:01Z</time>
      </trkpt>
      <trkpt lat="38.187250038608909" lon="-7.102789962664247">
        <ele>143.703125</ele>
        <time>2008-06-15T08:17:20Z</time>
      </trkpt>
      <trkpt lat="38.187260013073683" lon="-7.102830028161407">
        <ele>143.42578125</ele>
        <time>2008-06-15T08:17:24Z</time>
      </trkpt>
      <trkpt lat="38.187320027500391" lon="-7.102949973195791">
        <ele>143.52734375</ele>
        <time>2008-06-15T08:17:36Z</time>
      </trkpt>
      <trkpt lat="38.187450030818582" lon="-7.103200005367398">
        <ele>144.390625</ele>
        <time>2008-06-15T08:18:00Z</time>
      </trkpt>
      <trkpt lat="38.18749001249671" lon="-7.103430004790425">
        <ele>143.35546875</ele>
        <time>2008-06-15T08:18:22Z</time>
      </trkpt>
      <trkpt lat="38.187499986961484" lon="-7.103520026430488">
        <ele>142.9921875</ele>
        <time>2008-06-15T08:18:37Z</time>
      </trkpt>
      <trkpt lat="38.187509961426258" lon="-7.103580040857196">
        <ele>143.140625</ele>
        <time>2008-06-15T08:18:41Z</time>
      </trkpt>
      <trkpt lat="38.187520019710064" lon="-7.103769974783063">
        <ele>143.02734375</ele>
        <time>2008-06-15T08:19:01Z</time>
      </trkpt>
      <trkpt lat="38.187509961426258" lon="-7.103989999741316">
        <ele>141.85546875</ele>
        <time>2008-06-15T08:19:20Z</time>
      </trkpt>
      <trkpt lat="38.187509961426258" lon="-7.104150010272861">
        <ele>140.625</ele>
        <time>2008-06-15T08:19:39Z</time>
      </trkpt>
      <trkpt lat="38.187550026923418" lon="-7.104110028594732">
        <ele>142.3359375</ele>
        <time>2008-06-15T08:20:14Z</time>
      </trkpt>
      <trkpt lat="38.187580034136772" lon="-7.104150010272861">
        <ele>143.05078125</ele>
        <time>2008-06-15T08:20:18Z</time>
      </trkpt>
      <trkpt lat="38.1876200158149" lon="-7.104310020804405">
        <ele>143.27734375</ele>
        <time>2008-06-15T08:20:30Z</time>
      </trkpt>
      <trkpt lat="38.187629990279675" lon="-7.104340028017759">
        <ele>143.34765625</ele>
        <time>2008-06-15T08:20:33Z</time>
      </trkpt>
      <trkpt lat="38.187639964744449" lon="-7.104610009118915">
        <ele>142.60546875</ele>
        <time>2008-06-15T08:20:55Z</time>
      </trkpt>
      <trkpt lat="38.1876200158149" lon="-7.104789968580008">
        <ele>142.62890625</ele>
        <time>2008-06-15T08:21:14Z</time>
      </trkpt>
      <trkpt lat="38.187610041350126" lon="-7.104870015755296">
        <ele>142.58203125</ele>
        <time>2008-06-15T08:21:24Z</time>
      </trkpt>
      <trkpt lat="38.1876200158149" lon="-7.105100015178323">
        <ele>142.5703125</ele>
        <time>2008-06-15T08:21:45Z</time>
      </trkpt>
      <trkpt lat="38.187690004706383" lon="-7.105369996279478">
        <ele>143.703125</ele>
        <time>2008-06-15T08:22:02Z</time>
      </trkpt>
      <trkpt lat="38.187680030241609" lon="-7.105430010706186">
        <ele>142.42578125</ele>
        <time>2008-06-15T08:22:06Z</time>
      </trkpt>
      <trkpt lat="38.187720011919737" lon="-7.105599995702505">
        <ele>142.80859375</ele>
        <time>2008-06-15T08:22:17Z</time>
      </trkpt>
      <trkpt lat="38.187769968062639" lon="-7.105799987912178">
        <ele>143.66015625</ele>
        <time>2008-06-15T08:22:36Z</time>
      </trkpt>
      <trkpt lat="38.187769968062639" lon="-7.10576000623405">
        <ele>144.0390625</ele>
        <time>2008-06-15T08:22:44Z</time>
      </trkpt>
      <trkpt lat="38.187699979171157" lon="-7.105530006811023">
        <ele>142.30078125</ele>
        <time>2008-06-15T08:22:57Z</time>
      </trkpt>
      <trkpt lat="38.187610041350126" lon="-7.105179978534579">
        <ele>141.859375</ele>
        <time>2008-06-15T08:23:19Z</time>
      </trkpt>
      <trkpt lat="38.187590008601546" lon="-7.105090040713549">
        <ele>141.8046875</ele>
        <time>2008-06-15T08:23:27Z</time>
      </trkpt>
      <trkpt lat="38.18759998306632" lon="-7.104949979111552">
        <ele>142.21875</ele>
        <time>2008-06-15T08:23:37Z</time>
      </trkpt>
      <trkpt lat="38.18759998306632" lon="-7.10490002296865">
        <ele>142.26953125</ele>
        <time>2008-06-15T08:23:39Z</time>
      </trkpt>
      <trkpt lat="38.187590008601546" lon="-7.104870015755296">
        <ele>142.02734375</ele>
        <time>2008-06-15T08:23:42Z</time>
      </trkpt>
      <trkpt lat="38.1876200158149" lon="-7.104789968580008">
        <ele>142.62890625</ele>
        <time>2008-06-15T08:23:47Z</time>
      </trkpt>
      <trkpt lat="38.1876200158149" lon="-7.104749986901879">
        <ele>142.50390625</ele>
        <time>2008-06-15T08:23:50Z</time>
      </trkpt>
      <trkpt lat="38.187650023028255" lon="-7.104519987478852">
        <ele>143.26953125</ele>
        <time>2008-06-15T08:24:06Z</time>
      </trkpt>
      <trkpt lat="38.187590008601546" lon="-7.104329969733954">
        <ele>142.296875</ele>
        <time>2008-06-15T08:24:32Z</time>
      </trkpt>
      <trkpt lat="38.187569975852966" lon="-7.104280013591051">
        <ele>141.98046875</ele>
        <time>2008-06-15T08:24:37Z</time>
      </trkpt>
      <trkpt lat="38.187539968639612" lon="-7.104189991950989">
        <ele>141.41015625</ele>
        <time>2008-06-15T08:24:45Z</time>
      </trkpt>
      <trkpt lat="38.187499986961484" lon="-7.103929985314608">
        <ele>141.875</ele>
        <time>2008-06-15T08:25:07Z</time>
      </trkpt>
      <trkpt lat="38.187450030818582" lon="-7.103739967569709">
        <ele>140.34765625</ele>
        <time>2008-06-15T08:25:22Z</time>
      </trkpt>
      <trkpt lat="38.187460005283356" lon="-7.103720018640161">
        <ele>140.77734375</ele>
        <time>2008-06-15T08:25:29Z</time>
      </trkpt>
      <trkpt lat="38.187509961426258" lon="-7.103690011426806">
        <ele>142.8359375</ele>
        <time>2008-06-15T08:25:35Z</time>
      </trkpt>
      <trkpt lat="38.187509961426258" lon="-7.103669978678227">
        <ele>142.890625</ele>
        <time>2008-06-15T08:25:38Z</time>
      </trkpt>
      <trkpt lat="38.187520019710064" lon="-7.103620022535324">
        <ele>143.390625</ele>
        <time>2008-06-15T08:25:58Z</time>
      </trkpt>
      <trkpt lat="38.187509961426258" lon="-7.103560008108616">
        <ele>143.1953125</ele>
        <time>2008-06-15T08:26:11Z</time>
      </trkpt>
      <trkpt lat="38.18749001249671" lon="-7.103390023112297">
        <ele>143.77734375</ele>
        <time>2008-06-15T08:26:27Z</time>
      </trkpt>
      <trkpt lat="38.18749001249671" lon="-7.103369990363717">
        <ele>143.98828125</ele>
        <time>2008-06-15T08:26:28Z</time>
      </trkpt>
      <trkpt lat="38.187350034713745" lon="-7.103019962087274">
        <ele>143.35546875</ele>
        <time>2008-06-15T08:26:55Z</time>
      </trkpt>
      <trkpt lat="38.187230005860329" lon="-7.102800020948052">
        <ele>142.86328125</ele>
        <time>2008-06-15T08:27:15Z</time>
      </trkpt>
      <trkpt lat="38.18714995868504" lon="-7.10255996324122">
        <ele>143.52734375</ele>
        <time>2008-06-15T08:27:34Z</time>
      </trkpt>
      <trkpt lat="38.187100002542138" lon="-7.102459967136383">
        <ele>144.140625</ele>
        <time>2008-06-15T08:27:45Z</time>
      </trkpt>
      <trkpt lat="38.186960024759173" lon="-7.10230004042387">
        <ele>142.50390625</ele>
        <time>2008-06-15T08:28:05Z</time>
      </trkpt>
      <trkpt lat="38.186860028654337" lon="-7.102189986035228">
        <ele>142.66796875</ele>
        <time>2008-06-15T08:28:44Z</time>
      </trkpt>
      <trkpt lat="38.186570014804602" lon="-7.101889997720718">
        <ele>142.4765625</ele>
        <time>2008-06-15T08:29:13Z</time>
      </trkpt>
      <trkpt lat="38.186300033703446" lon="-7.101609958335757">
        <ele>143.6015625</ele>
        <time>2008-06-15T08:29:38Z</time>
      </trkpt>
      <trkpt lat="38.185940030962229" lon="-7.101409966126084">
        <ele>143.41015625</ele>
        <time>2008-06-15T08:30:08Z</time>
      </trkpt>
      <trkpt lat="38.185539962723851" lon="-7.101299995556474">
        <ele>142.734375</ele>
        <time>2008-06-15T08:30:39Z</time>
      </trkpt>
      <trkpt lat="38.185150036588311" lon="-7.101179966703057">
        <ele>142.2265625</ele>
        <time>2008-06-15T08:31:08Z</time>
      </trkpt>
      <trkpt lat="38.185079963877797" lon="-7.101160017773509">
        <ele>142.08984375</ele>
        <time>2008-06-15T08:31:13Z</time>
      </trkpt>
      <trkpt lat="38.185069989413023" lon="-7.101130010560155">
        <ele>142.26171875</ele>
        <time>2008-06-15T08:31:16Z</time>
      </trkpt>
      <trkpt lat="38.185050040483475" lon="-7.101109977811575">
        <ele>142.390625</ele>
        <time>2008-06-15T08:31:17Z</time>
      </trkpt>
      <trkpt lat="38.184969993308187" lon="-7.101030014455319">
        <ele>143.078125</ele>
        <time>2008-06-15T08:31:29Z</time>
      </trkpt>
      <trkpt lat="38.184949960559607" lon="-7.101049963384867">
        <ele>142.94140625</ele>
        <time>2008-06-15T08:31:32Z</time>
      </trkpt>
      <trkpt lat="38.18486999720335" lon="-7.101039988920093">
        <ele>143.1640625</ele>
        <time>2008-06-15T08:31:39Z</time>
      </trkpt>
      <trkpt lat="38.184489961713552" lon="-7.100960025563836">
        <ele>143.41796875</ele>
        <time>2008-06-15T08:32:07Z</time>
      </trkpt>
      <trkpt lat="38.184230038896203" lon="-7.100890036672354">
        <ele>143.25</ele>
        <time>2008-06-15T08:32:29Z</time>
      </trkpt>
      <trkpt lat="38.18385997787118" lon="-7.100809989497066">
        <ele>143.6328125</ele>
        <time>2008-06-15T08:32:57Z</time>
      </trkpt>
      <trkpt lat="38.183520007878542" lon="-7.100740000605583">
        <ele>144.13671875</ele>
        <time>2008-06-15T08:33:24Z</time>
      </trkpt>
      <trkpt lat="38.183369971811771" lon="-7.100689960643649">
        <ele>144.41015625</ele>
        <time>2008-06-15T08:33:45Z</time>
      </trkpt>
      <trkpt lat="38.183099990710616" lon="-7.100589964538813">
        <ele>145.19140625</ele>
        <time>2008-06-15T08:34:08Z</time>
      </trkpt>
      <trkpt lat="38.182760020717978" lon="-7.100440012291074">
        <ele>145.48828125</ele>
        <time>2008-06-15T08:34:37Z</time>
      </trkpt>
      <trkpt lat="38.182690031826496" lon="-7.1004300378263">
        <ele>145.08203125</ele>
        <time>2008-06-15T08:34:42Z</time>
      </trkpt>
      <trkpt lat="38.182519963011146" lon="-7.10041000507772">
        <ele>143.96875</ele>
        <time>2008-06-15T08:34:57Z</time>
      </trkpt>
      <trkpt lat="38.182449974119663" lon="-7.10038997232914">
        <ele>143.68359375</ele>
        <time>2008-06-15T08:35:04Z</time>
      </trkpt>
      <trkpt lat="38.182200025767088" lon="-7.100200038403273">
        <ele>144.8359375</ele>
        <time>2008-06-15T08:35:28Z</time>
      </trkpt>
      <trkpt lat="38.181959968060255" lon="-7.100029969587922">
        <ele>145.234375</ele>
        <time>2008-06-15T08:35:51Z</time>
      </trkpt>
      <trkpt lat="38.181900037452579" lon="-7.099970038980246">
        <ele>145.3984375</ele>
        <time>2008-06-15T08:36:21Z</time>
      </trkpt>
      <trkpt lat="38.1816899869591" lon="-7.099750014021993">
        <ele>145.85546875</ele>
        <time>2008-06-15T08:37:05Z</time>
      </trkpt>
      <trkpt lat="38.181429980322719" lon="-7.099580029025674">
        <ele>144.4296875</ele>
        <time>2008-06-15T08:37:28Z</time>
      </trkpt>
      <trkpt lat="38.18141003139317" lon="-7.09955002181232">
        <ele>144.52734375</ele>
        <time>2008-06-15T08:37:31Z</time>
      </trkpt>
      <trkpt lat="38.181359991431236" lon="-7.099480032920837">
        <ele>144.8828125</ele>
        <time>2008-06-15T08:37:38Z</time>
      </trkpt>
      <trkpt lat="38.18128002807498" lon="-7.099399985745549">
        <ele>145.08984375</ele>
        <time>2008-06-15T08:37:46Z</time>
      </trkpt>
      <trkpt lat="38.18098003976047" lon="-7.09912003017962">
        <ele>145.21484375</ele>
        <time>2008-06-15T08:38:13Z</time>
      </trkpt>
      <trkpt lat="38.1808300036937" lon="-7.098949961364269">
        <ele>145.1328125</ele>
        <time>2008-06-15T08:38:33Z</time>
      </trkpt>
      <trkpt lat="38.180569997057319" lon="-7.098619965836406">
        <ele>144.4296875</ele>
        <time>2008-06-15T08:39:01Z</time>
      </trkpt>
      <trkpt lat="38.180539989843965" lon="-7.098579984158278">
        <ele>144.359375</ele>
        <time>2008-06-15T08:39:27Z</time>
      </trkpt>
      <trkpt lat="38.180360030382872" lon="-7.098349984735251">
        <ele>144.078125</ele>
        <time>2008-06-15T08:39:49Z</time>
      </trkpt>
      <trkpt lat="38.180189961567521" lon="-7.098179999738932">
        <ele>142.9609375</ele>
        <time>2008-06-15T08:40:05Z</time>
      </trkpt>
      <trkpt lat="38.180010002106428" lon="-7.097829971462488">
        <ele>143.16796875</ele>
        <time>2008-06-15T08:40:29Z</time>
      </trkpt>
      <trkpt lat="38.180010002106428" lon="-7.097819996997714">
        <ele>143.2578125</ele>
        <time>2008-06-15T08:40:30Z</time>
      </trkpt>
      <trkpt lat="38.179979994893074" lon="-7.097729975357652">
        <ele>143.71484375</ele>
        <time>2008-06-15T08:40:37Z</time>
      </trkpt>
      <trkpt lat="38.179740021005273" lon="-7.097450019791722">
        <ele>143.1796875</ele>
        <time>2008-06-15T08:41:04Z</time>
      </trkpt>
      <trkpt lat="38.179719988256693" lon="-7.097450019791722">
        <ele>142.92578125</ele>
        <time>2008-06-15T08:41:06Z</time>
      </trkpt>
      <trkpt lat="38.179689981043339" lon="-7.097469968721271">
        <ele>142.359375</ele>
        <time>2008-06-15T08:41:08Z</time>
      </trkpt>
      <trkpt lat="38.179640024900436" lon="-7.097589997574687">
        <ele>140.890625</ele>
        <time>2008-06-15T08:41:19Z</time>
      </trkpt>
      <trkpt lat="38.179640024900436" lon="-7.097599972039461">
        <ele>140.8203125</ele>
        <time>2008-06-15T08:41:26Z</time>
      </trkpt>
      <trkpt lat="38.179689981043339" lon="-7.097459994256496">
        <ele>142.453125</ele>
        <time>2008-06-15T08:41:38Z</time>
      </trkpt>
      <trkpt lat="38.179700039327145" lon="-7.097420012578368">
        <ele>142.95703125</ele>
        <time>2008-06-15T08:41:42Z</time>
      </trkpt>
      <trkpt lat="38.179570036008954" lon="-7.097169980406761">
        <ele>143.1015625</ele>
        <time>2008-06-15T08:42:02Z</time>
      </trkpt>
      <trkpt lat="38.179480014368892" lon="-7.096849959343672">
        <ele>144.2890625</ele>
        <time>2008-06-15T08:42:27Z</time>
      </trkpt>
      <trkpt lat="38.179389992728829" lon="-7.096449974924326">
        <ele>144.71875</ele>
        <time>2008-06-15T08:42:52Z</time>
      </trkpt>
      <trkpt lat="38.179310029372573" lon="-7.096040016040206">
        <ele>144.5390625</ele>
        <time>2008-06-15T08:43:19Z</time>
      </trkpt>
      <trkpt lat="38.179310029372573" lon="-7.096019983291626">
        <ele>144.67578125</ele>
        <time>2008-06-15T08:43:21Z</time>
      </trkpt>
      <trkpt lat="38.179269963875413" lon="-7.095770034939051">
        <ele>144.7265625</ele>
        <time>2008-06-15T08:43:42Z</time>
      </trkpt>
      <trkpt lat="38.179280022159219" lon="-7.095689987763763">
        <ele>145.18359375</ele>
        <time>2008-06-15T08:44:05Z</time>
      </trkpt>
      <trkpt lat="38.179289996623993" lon="-7.09564003162086">
        <ele>145.59765625</ele>
        <time>2008-06-15T08:44:25Z</time>
      </trkpt>
      <trkpt lat="38.179289996623993" lon="-7.095540035516024">
        <ele>145.234375</ele>
        <time>2008-06-15T08:44:47Z</time>
      </trkpt>
      <trkpt lat="38.179350011050701" lon="-7.095299977809191">
        <ele>145.8203125</ele>
        <time>2008-06-15T08:45:15Z</time>
      </trkpt>
      <trkpt lat="38.179380018264055" lon="-7.09521003998816">
        <ele>146.4921875</ele>
        <time>2008-06-15T08:45:34Z</time>
      </trkpt>
      <trkpt lat="38.179399967193604" lon="-7.095069978386164">
        <ele>146.0703125</ele>
        <time>2008-06-15T08:45:57Z</time>
      </trkpt>
      <trkpt lat="38.179450007155538" lon="-7.094980040565133">
        <ele>147.890625</ele>
        <time>2008-06-15T08:46:31Z</time>
      </trkpt>
      <trkpt lat="38.179440032690763" lon="-7.094930000603199">
        <ele>146.953125</ele>
        <time>2008-06-15T08:47:02Z</time>
      </trkpt>
      <trkpt lat="38.179459981620312" lon="-7.094690026715398">
        <ele>146.890625</ele>
        <time>2008-06-15T08:47:18Z</time>
      </trkpt>
      <trkpt lat="38.179480014368892" lon="-7.094549965113401">
        <ele>147.5</ele>
        <time>2008-06-15T08:47:33Z</time>
      </trkpt>
      <trkpt lat="38.179510021582246" lon="-7.094470001757145">
        <ele>148.9296875</ele>
        <time>2008-06-15T08:47:45Z</time>
      </trkpt>
      <trkpt lat="38.17949996329844" lon="-7.094419961795211">
        <ele>148.4453125</ele>
        <time>2008-06-15T08:47:51Z</time>
      </trkpt>
      <trkpt lat="38.179510021582246" lon="-7.094240002334118">
        <ele>149.359375</ele>
        <time>2008-06-15T08:48:12Z</time>
      </trkpt>
      <trkpt lat="38.179489988833666" lon="-7.094079991802573">
        <ele>148.30078125</ele>
        <time>2008-06-15T08:48:31Z</time>
      </trkpt>
      <trkpt lat="38.17949996329844" lon="-7.094030035659671">
        <ele>148.94921875</ele>
        <time>2008-06-15T08:48:35Z</time>
      </trkpt>
      <trkpt lat="38.179489988833666" lon="-7.093919981271029">
        <ele>148.34765625</ele>
        <time>2008-06-15T08:48:45Z</time>
      </trkpt>
      <trkpt lat="38.179480014368892" lon="-7.093789977952838">
        <ele>147.734375</ele>
        <time>2008-06-15T08:48:55Z</time>
      </trkpt>
      <trkpt lat="38.179489988833666" lon="-7.093710014596582">
        <ele>148.13671875</ele>
        <time>2008-06-15T08:49:01Z</time>
      </trkpt>
      <trkpt lat="38.179489988833666" lon="-7.093459982424974">
        <ele>148.2578125</ele>
        <time>2008-06-15T08:49:21Z</time>
      </trkpt>
      <trkpt lat="38.17949996329844" lon="-7.0934500079602">
        <ele>148.87890625</ele>
        <time>2008-06-15T08:49:21Z</time>
      </trkpt>
      <trkpt lat="38.179480014368892" lon="-7.09334003739059">
        <ele>148.25390625</ele>
        <time>2008-06-15T08:49:29Z</time>
      </trkpt>
      <trkpt lat="38.179450007155538" lon="-7.093069972470403">
        <ele>148.71875</ele>
        <time>2008-06-15T08:49:47Z</time>
      </trkpt>
      <trkpt lat="38.179440032690763" lon="-7.09299998357892">
        <ele>148.94140625</ele>
        <time>2008-06-15T08:49:52Z</time>
      </trkpt>
      <trkpt lat="38.179419999942183" lon="-7.092779958620668">
        <ele>149.48828125</ele>
        <time>2008-06-15T08:50:14Z</time>
      </trkpt>
      <trkpt lat="38.179399967193604" lon="-7.092469995841384">
        <ele>148.73828125</ele>
        <time>2008-06-15T08:50:33Z</time>
      </trkpt>
      <trkpt lat="38.179380018264055" lon="-7.092279978096485">
        <ele>148.14453125</ele>
        <time>2008-06-15T08:50:50Z</time>
      </trkpt>
      <trkpt lat="38.179380018264055" lon="-7.092270003631711">
        <ele>148.18359375</ele>
        <time>2008-06-15T08:50:51Z</time>
      </trkpt>
      <trkpt lat="38.179350011050701" lon="-7.092089960351586">
        <ele>147.7421875</ele>
        <time>2008-06-15T08:51:09Z</time>
      </trkpt>
      <trkpt lat="38.179329978302121" lon="-7.092060036957264">
        <ele>147.16796875</ele>
        <time>2008-06-15T08:51:28Z</time>
      </trkpt>
      <trkpt lat="38.179299971088767" lon="-7.092000022530556">
        <ele>146.73828125</ele>
        <time>2008-06-15T08:51:40Z</time>
      </trkpt>
      <trkpt lat="38.179229982197285" lon="-7.091719983145595">
        <ele>146.1875</ele>
        <time>2008-06-15T08:52:00Z</time>
      </trkpt>
      <trkpt lat="38.179159993305802" lon="-7.091399962082505">
        <ele>145.3203125</ele>
        <time>2008-06-15T08:52:22Z</time>
      </trkpt>
      <trkpt lat="38.179180026054382" lon="-7.091099973767996">
        <ele>146.98046875</ele>
        <time>2008-06-15T08:52:45Z</time>
      </trkpt>
      <trkpt lat="38.179190000519156" lon="-7.091039959341288">
        <ele>147.35546875</ele>
        <time>2008-06-15T08:52:49Z</time>
      </trkpt>
      <trkpt lat="38.179180026054382" lon="-7.090969970449805">
        <ele>147.14453125</ele>
        <time>2008-06-15T08:52:56Z</time>
      </trkpt>
      <trkpt lat="38.179190000519156" lon="-7.090669982135296">
        <ele>147.046875</ele>
        <time>2008-06-15T08:53:20Z</time>
      </trkpt>
      <trkpt lat="38.179190000519156" lon="-7.090479964390397">
        <ele>146.9609375</ele>
        <time>2008-06-15T08:53:40Z</time>
      </trkpt>
      <trkpt lat="38.179169967770576" lon="-7.090369993820787">
        <ele>146.67578125</ele>
        <time>2008-06-15T08:53:59Z</time>
      </trkpt>
      <trkpt lat="38.17906997166574" lon="-7.090100012719631">
        <ele>144.3984375</ele>
        <time>2008-06-15T08:54:26Z</time>
      </trkpt>
      <trkpt lat="38.17906997166574" lon="-7.09011996164918">
        <ele>144.375</ele>
        <time>2008-06-15T08:55:55Z</time>
      </trkpt>
      <trkpt lat="38.1791100371629" lon="-7.090090038254857">
        <ele>145.12890625</ele>
        <time>2008-06-15T08:55:58Z</time>
      </trkpt>
      <trkpt lat="38.179039964452386" lon="-7.089759958907962">
        <ele>145.51953125</ele>
        <time>2008-06-15T08:56:17Z</time>
      </trkpt>
      <trkpt lat="38.178999982774258" lon="-7.089589973911643">
        <ele>146.10546875</ele>
        <time>2008-06-15T08:56:25Z</time>
      </trkpt>
      <trkpt lat="38.178990008309484" lon="-7.089559966698289">
        <ele>146.2109375</ele>
        <time>2008-06-15T08:56:28Z</time>
      </trkpt>
      <trkpt lat="38.178899986669421" lon="-7.08938998170197">
        <ele>145.02734375</ele>
        <time>2008-06-15T08:56:40Z</time>
      </trkpt>
      <trkpt lat="38.178860004991293" lon="-7.089359974488616">
        <ele>144.33203125</ele>
        <time>2008-06-15T08:56:44Z</time>
      </trkpt>
      <trkpt lat="38.178720027208328" lon="-7.089159982278943">
        <ele>143.578125</ele>
        <time>2008-06-15T08:57:00Z</time>
      </trkpt>
      <trkpt lat="38.178699994459748" lon="-7.089120000600815">
        <ele>143.7578125</ele>
        <time>2008-06-15T08:57:04Z</time>
      </trkpt>
      <trkpt lat="38.178630005568266" lon="-7.08898002281785">
        <ele>144.47265625</ele>
        <time>2008-06-15T08:57:23Z</time>
      </trkpt>
      <trkpt lat="38.178599998354912" lon="-7.088940041139722">
        <ele>144.55078125</ele>
        <time>2008-06-15T08:57:30Z</time>
      </trkpt>
      <trkpt lat="38.178539983928204" lon="-7.088839961215854">
        <ele>145.0703125</ele>
        <time>2008-06-15T08:57:43Z</time>
      </trkpt>
      <trkpt lat="38.178349966183305" lon="-7.088629994541407">
        <ele>144.42578125</ele>
        <time>2008-06-15T08:58:03Z</time>
      </trkpt>
      <trkpt lat="38.178049977868795" lon="-7.088350038975477">
        <ele>144.140625</ele>
        <time>2008-06-15T08:58:32Z</time>
      </trkpt>
      <trkpt lat="38.178019970655441" lon="-7.088299999013543">
        <ele>144.2734375</ele>
        <time>2008-06-15T08:58:36Z</time>
      </trkpt>
      <trkpt lat="38.177919974550605" lon="-7.088190028443933">
        <ele>144.1953125</ele>
        <time>2008-06-15T08:58:57Z</time>
      </trkpt>
      <trkpt lat="38.177749989554286" lon="-7.088090032339096">
        <ele>143.7734375</ele>
        <time>2008-06-15T08:59:15Z</time>
      </trkpt>
      <trkpt lat="38.177410019561648" lon="-7.087840000167489">
        <ele>143.7109375</ele>
        <time>2008-06-15T08:59:46Z</time>
      </trkpt>
      <trkpt lat="38.17724003456533" lon="-7.087740004062653">
        <ele>143.7578125</ele>
        <time>2008-06-15T09:00:05Z</time>
      </trkpt>
      <trkpt lat="38.176990002393723" lon="-7.087610000744462">
        <ele>144.4140625</ele>
        <time>2008-06-15T09:00:33Z</time>
      </trkpt>
      <trkpt lat="38.176569985225797" lon="-7.087300037965179">
        <ele>145.171875</ele>
        <time>2008-06-15T09:01:06Z</time>
      </trkpt>
      <trkpt lat="38.176200008019805" lon="-7.086999965831637">
        <ele>145.37109375</ele>
        <time>2008-06-15T09:01:34Z</time>
      </trkpt>
      <trkpt lat="38.175940001383424" lon="-7.086739959195256">
        <ele>145.8671875</ele>
        <time>2008-06-15T09:02:00Z</time>
      </trkpt>
      <trkpt lat="38.17588996142149" lon="-7.086710035800934">
        <ele>145.90625</ele>
        <time>2008-06-15T09:02:04Z</time>
      </trkpt>
      <trkpt lat="38.175819972530007" lon="-7.086650021374226">
        <ele>145.98046875</ele>
        <time>2008-06-15T09:02:11Z</time>
      </trkpt>
      <trkpt lat="38.17563003860414" lon="-7.086720010265708">
        <ele>145.62890625</ele>
        <time>2008-06-15T09:02:27Z</time>
      </trkpt>
      <trkpt lat="38.175570024177432" lon="-7.086720010265708">
        <ele>145.4453125</ele>
        <time>2008-06-15T09:02:31Z</time>
      </trkpt>
      <trkpt lat="38.17518001422286" lon="-7.086559999734163">
        <ele>145.09765625</ele>
        <time>2008-06-15T09:02:58Z</time>
      </trkpt>
      <trkpt lat="38.174829985946417" lon="-7.086350033059716">
        <ele>145.52734375</ele>
        <time>2008-06-15T09:03:23Z</time>
      </trkpt>
      <trkpt lat="38.174810037016869" lon="-7.08633997477591">
        <ele>145.51953125</ele>
        <time>2008-06-15T09:03:26Z</time>
      </trkpt>
      <trkpt lat="38.174580037593842" lon="-7.086320025846362">
        <ele>144.94140625</ele>
        <time>2008-06-15T09:03:42Z</time>
      </trkpt>
      <trkpt lat="38.174390019848943" lon="-7.086179964244366">
        <ele>145.1171875</ele>
        <time>2008-06-15T09:03:57Z</time>
      </trkpt>
      <trkpt lat="38.174379961565137" lon="-7.086179964244366">
        <ele>145.08984375</ele>
        <time>2008-06-15T09:03:59Z</time>
      </trkpt>
      <trkpt lat="38.174269990995526" lon="-7.086369981989265">
        <ele>144.03515625</ele>
        <time>2008-06-15T09:04:12Z</time>
      </trkpt>
      <trkpt lat="38.174260016530752" lon="-7.086399989202619">
        <ele>143.90625</ele>
        <time>2008-06-15T09:04:13Z</time>
      </trkpt>
      <trkpt lat="38.174249958246946" lon="-7.086559999734163">
        <ele>142.68359375</ele>
        <time>2008-06-15T09:04:23Z</time>
      </trkpt>
      <trkpt lat="38.174269990995526" lon="-7.086629988625646">
        <ele>142.1484375</ele>
        <time>2008-06-15T09:04:30Z</time>
      </trkpt>
      <trkpt lat="38.174230009317398" lon="-7.086509959772229">
        <ele>143.0625</ele>
        <time>2008-06-15T09:04:36Z</time>
      </trkpt>
      <trkpt lat="38.174260016530752" lon="-7.086420021951199">
        <ele>143.79296875</ele>
        <time>2008-06-15T09:04:42Z</time>
      </trkpt>
      <trkpt lat="38.174390019848943" lon="-7.086179964244366">
        <ele>145.1171875</ele>
        <time>2008-06-15T09:04:58Z</time>
      </trkpt>
      <trkpt lat="38.174290023744106" lon="-7.086130008101463">
        <ele>145.3046875</ele>
        <time>2008-06-15T09:05:07Z</time>
      </trkpt>
      <trkpt lat="38.174090031534433" lon="-7.086130008101463">
        <ele>145.25390625</ele>
        <time>2008-06-15T09:05:22Z</time>
      </trkpt>
      <trkpt lat="38.174019958823919" lon="-7.086169989779592">
        <ele>144.859375</ele>
        <time>2008-06-15T09:05:28Z</time>
      </trkpt>
      <trkpt lat="38.173679988831282" lon="-7.086290018633008">
        <ele>144.1875</ele>
        <time>2008-06-15T09:05:52Z</time>
      </trkpt>
      <trkpt lat="38.173670014366508" lon="-7.086290018633008">
        <ele>144.1875</ele>
        <time>2008-06-15T09:05:52Z</time>
      </trkpt>
      <trkpt lat="38.173410007730126" lon="-7.086309967562556">
        <ele>144.23046875</ele>
        <time>2008-06-15T09:06:11Z</time>
      </trkpt>
      <trkpt lat="38.173210015520453" lon="-7.086199996992946">
        <ele>144.703125</ele>
        <time>2008-06-15T09:06:27Z</time>
      </trkpt>
      <trkpt lat="38.173080012202263" lon="-7.086179964244366">
        <ele>144.79296875</ele>
        <time>2008-06-15T09:06:39Z</time>
      </trkpt>
      <trkpt lat="38.172820005565882" lon="-7.086179964244366">
        <ele>144.95703125</ele>
        <time>2008-06-15T09:06:59Z</time>
      </trkpt>
      <trkpt lat="38.172739958390594" lon="-7.086030011996627">
        <ele>146.30859375</ele>
        <time>2008-06-15T09:07:18Z</time>
      </trkpt>
      <trkpt lat="38.172639962285757" lon="-7.08593001589179">
        <ele>147.25</ele>
        <time>2008-06-15T09:07:30Z</time>
      </trkpt>
      <trkpt lat="38.172220028936863" lon="-7.08593001589179">
        <ele>148.03125</ele>
        <time>2008-06-15T09:07:59Z</time>
      </trkpt>
      <trkpt lat="38.171809986233711" lon="-7.085879975929856">
        <ele>149.109375</ele>
        <time>2008-06-15T09:08:27Z</time>
      </trkpt>
      <trkpt lat="38.171509997919202" lon="-7.085920041427016">
        <ele>148.41015625</ele>
        <time>2008-06-15T09:08:47Z</time>
      </trkpt>
      <trkpt lat="38.171149995177984" lon="-7.085879975929856">
        <ele>148.89453125</ele>
        <time>2008-06-15T09:09:13Z</time>
      </trkpt>
      <trkpt lat="38.170759985223413" lon="-7.085719965398312">
        <ele>149.11328125</ele>
        <time>2008-06-15T09:09:41Z</time>
      </trkpt>
      <trkpt lat="38.170450022444129" lon="-7.085560038685799">
        <ele>149.15234375</ele>
        <time>2008-06-15T09:10:06Z</time>
      </trkpt>
      <trkpt lat="38.170169983059168" lon="-7.085389969870448">
        <ele>147.52734375</ele>
        <time>2008-06-15T09:10:29Z</time>
      </trkpt>
      <trkpt lat="38.169939983636141" lon="-7.085040025413036">
        <ele>148.0546875</ele>
        <time>2008-06-15T09:10:54Z</time>
      </trkpt>
      <trkpt lat="38.169920034706593" lon="-7.084640040993691">
        <ele>148.21484375</ele>
        <time>2008-06-15T09:11:17Z</time>
      </trkpt>
      <trkpt lat="38.169930009171367" lon="-7.084360001608729">
        <ele>148.34765625</ele>
        <time>2008-06-15T09:11:32Z</time>
      </trkpt>
      <trkpt lat="38.170099994167686" lon="-7.084109969437122">
        <ele>149.4296875</ele>
        <time>2008-06-15T09:11:54Z</time>
      </trkpt>
      <trkpt lat="38.17028003744781" lon="-7.083800006657839">
        <ele>148.99609375</ele>
        <time>2008-06-15T09:12:15Z</time>
      </trkpt>
      <trkpt lat="38.170380033552647" lon="-7.083649970591068">
        <ele>147.3671875</ele>
        <time>2008-06-15T09:12:30Z</time>
      </trkpt>
      <trkpt lat="38.170740036293864" lon="-7.083409996703267">
        <ele>148.28515625</ele>
        <time>2008-06-15T09:12:56Z</time>
      </trkpt>
      <trkpt lat="38.17098998464644" lon="-7.08315996453166">
        <ele>147.9765625</ele>
        <time>2008-06-15T09:13:17Z</time>
      </trkpt>
      <trkpt lat="38.171159969642758" lon="-7.082880008965731">
        <ele>147.4453125</ele>
        <time>2008-06-15T09:13:35Z</time>
      </trkpt>
      <trkpt lat="38.171410001814365" lon="-7.082550013437867">
        <ele>146.7578125</ele>
        <time>2008-06-15T09:13:59Z</time>
      </trkpt>
      <trkpt lat="38.17157001234591" lon="-7.082369970157743">
        <ele>146.8515625</ele>
        <time>2008-06-15T09:14:17Z</time>
      </trkpt>
      <trkpt lat="38.171819960698485" lon="-7.082139970734716">
        <ele>147.4296875</ele>
        <time>2008-06-15T09:14:38Z</time>
      </trkpt>
      <trkpt lat="38.172039985656738" lon="-7.081879964098334">
        <ele>147.15234375</ele>
        <time>2008-06-15T09:14:59Z</time>
      </trkpt>
      <trkpt lat="38.172230003401637" lon="-7.081730011850596">
        <ele>147.76953125</ele>
        <time>2008-06-15T09:15:19Z</time>
      </trkpt>
      <trkpt lat="38.172309966757894" lon="-7.081690030172467">
        <ele>148.58984375</ele>
        <time>2008-06-15T09:15:35Z</time>
      </trkpt>
      <trkpt lat="38.172460002824664" lon="-7.08141996525228">
        <ele>147.06640625</ele>
        <time>2008-06-15T09:15:59Z</time>
      </trkpt>
      <trkpt lat="38.172620013356209" lon="-7.081200024113059">
        <ele>146.34765625</ele>
        <time>2008-06-15T09:16:12Z</time>
      </trkpt>
      <trkpt lat="38.172669969499111" lon="-7.081170016899705">
        <ele>146.5078125</ele>
        <time>2008-06-15T09:16:16Z</time>
      </trkpt>
      <trkpt lat="38.172869961708784" lon="-7.081040013581514">
        <ele>147.62109375</ele>
        <time>2008-06-15T09:16:35Z</time>
      </trkpt>
      <trkpt lat="38.172980016097426" lon="-7.080929959192872">
        <ele>147.51953125</ele>
        <time>2008-06-15T09:16:44Z</time>
      </trkpt>
      <trkpt lat="38.17328997887671" lon="-7.080780006945133">
        <ele>149.375</ele>
        <time>2008-06-15T09:17:07Z</time>
      </trkpt>
      <trkpt lat="38.173400033265352" lon="-7.080689985305071">
        <ele>149.53515625</ele>
        <time>2008-06-15T09:17:15Z</time>
      </trkpt>
      <trkpt lat="38.17374000325799" lon="-7.080310033634305">
        <ele>149.0859375</ele>
        <time>2008-06-15T09:17:46Z</time>
      </trkpt>
      <trkpt lat="38.173979977145791" lon="-7.080060001462698">
        <ele>149.2578125</ele>
        <time>2008-06-15T09:18:09Z</time>
      </trkpt>
      <trkpt lat="38.174220034852624" lon="-7.079809969291091">
        <ele>149.765625</ele>
        <time>2008-06-15T09:18:32Z</time>
      </trkpt>
      <trkpt lat="38.174369987100363" lon="-7.079539988189936">
        <ele>149.0859375</ele>
        <time>2008-06-15T09:18:55Z</time>
      </trkpt>
      <trkpt lat="38.174390019848943" lon="-7.079509980976582">
        <ele>149.0390625</ele>
        <time>2008-06-15T09:19:04Z</time>
      </trkpt>
      <trkpt lat="38.174379961565137" lon="-7.079409984871745">
        <ele>148.01171875</ele>
        <time>2008-06-15T09:19:11Z</time>
      </trkpt>
      <trkpt lat="38.174379961565137" lon="-7.079400010406971">
        <ele>147.9296875</ele>
        <time>2008-06-15T09:19:11Z</time>
      </trkpt>
      <trkpt lat="38.174629993736744" lon="-7.079040007665753">
        <ele>147.49609375</ele>
        <time>2008-06-15T09:19:38Z</time>
      </trkpt>
      <trkpt lat="38.174869967624545" lon="-7.078770026564598">
        <ele>147.78515625</ele>
        <time>2008-06-15T09:20:00Z</time>
      </trkpt>
      <trkpt lat="38.175140032544732" lon="-7.078389991074801">
        <ele>148.4921875</ele>
        <time>2008-06-15T09:20:28Z</time>
      </trkpt>
      <trkpt lat="38.175259977579117" lon="-7.078150017186999">
        <ele>148.32421875</ele>
        <time>2008-06-15T09:20:43Z</time>
      </trkpt>
      <trkpt lat="38.175329966470599" lon="-7.078050021082163">
        <ele>148.61328125</ele>
        <time>2008-06-15T09:20:52Z</time>
      </trkpt>
      <trkpt lat="38.175380006432533" lon="-7.077990006655455">
        <ele>148.81640625</ele>
        <time>2008-06-15T09:20:59Z</time>
      </trkpt>
      <trkpt lat="38.175400039181113" lon="-7.077959999442101">
        <ele>148.80078125</ele>
        <time>2008-06-15T09:21:02Z</time>
      </trkpt>
      <trkpt lat="38.175449995324016" lon="-7.077730000019074">
        <ele>147.390625</ele>
        <time>2008-06-15T09:21:17Z</time>
      </trkpt>
      <trkpt lat="38.175689969211817" lon="-7.077569989487529">
        <ele>149.87109375</ele>
        <time>2008-06-15T09:21:41Z</time>
      </trkpt>
      <trkpt lat="38.175710001960397" lon="-7.077539982274175">
        <ele>149.8984375</ele>
        <time>2008-06-15T09:21:45Z</time>
      </trkpt>
      <trkpt lat="38.175809998065233" lon="-7.077249968424439">
        <ele>147.98046875</ele>
        <time>2008-06-15T09:22:03Z</time>
      </trkpt>
      <trkpt lat="38.17588996142149" lon="-7.077079983428121">
        <ele>147.390625</ele>
        <time>2008-06-15T09:22:16Z</time>
      </trkpt>
      <trkpt lat="38.17593002691865" lon="-7.077049976214767">
        <ele>147.80859375</ele>
        <time>2008-06-15T09:22:21Z</time>
      </trkpt>
      <trkpt lat="38.176000015810132" lon="-7.076960038393736">
        <ele>148.51171875</ele>
        <time>2008-06-15T09:22:32Z</time>
      </trkpt>
      <trkpt lat="38.17603999748826" lon="-7.076900023967028">
        <ele>148.734375</ele>
        <time>2008-06-15T09:22:38Z</time>
      </trkpt>
      <trkpt lat="38.176170000806451" lon="-7.076659966260195">
        <ele>149.48046875</ele>
        <time>2008-06-15T09:22:58Z</time>
      </trkpt>
      <trkpt lat="38.17633998580277" lon="-7.076289989054203">
        <ele>150.50390625</ele>
        <time>2008-06-15T09:23:24Z</time>
      </trkpt>
      <trkpt lat="38.176420032978058" lon="-7.076099971309304">
        <ele>151.203125</ele>
        <time>2008-06-15T09:23:41Z</time>
      </trkpt>
      <trkpt lat="38.176460014656186" lon="-7.075769975781441">
        <ele>149.66796875</ele>
        <time>2008-06-15T09:24:01Z</time>
      </trkpt>
      <trkpt lat="38.176509970799088" lon="-7.075609965249896">
        <ele>149.7890625</ele>
        <time>2008-06-15T09:24:19Z</time>
      </trkpt>
      <trkpt lat="38.176560010761023" lon="-7.07550996914506">
        <ele>149.81640625</ele>
        <time>2008-06-15T09:24:38Z</time>
      </trkpt>
      <trkpt lat="38.176560010761023" lon="-7.075450038537383">
        <ele>149.05859375</ele>
        <time>2008-06-15T09:25:02Z</time>
      </trkpt>
      <trkpt lat="38.176569985225797" lon="-7.075409973040223">
        <ele>148.703125</ele>
        <time>2008-06-15T09:25:16Z</time>
      </trkpt>
      <trkpt lat="38.176569985225797" lon="-7.075339984148741">
        <ele>147.7890625</ele>
        <time>2008-06-15T09:25:37Z</time>
      </trkpt>
      <trkpt lat="38.176569985225797" lon="-7.075399998575449">
        <ele>148.57421875</ele>
        <time>2008-06-15T09:25:43Z</time>
      </trkpt>
      <trkpt lat="38.176539978012443" lon="-7.075520027428865">
        <ele>149.5390625</ele>
        <time>2008-06-15T09:25:53Z</time>
      </trkpt>
      <trkpt lat="38.176420032978058" lon="-7.075839964672923">
        <ele>148.953125</ele>
        <time>2008-06-15T09:26:16Z</time>
      </trkpt>
      <trkpt lat="38.176330011337996" lon="-7.076180018484592">
        <ele>149.1875</ele>
        <time>2008-06-15T09:26:35Z</time>
      </trkpt>
      <trkpt lat="38.176279971376061" lon="-7.076440025120974">
        <ele>150.66796875</ele>
        <time>2008-06-15T09:26:54Z</time>
      </trkpt>
      <trkpt lat="38.176109986379743" lon="-7.076779995113611">
        <ele>148.62890625</ele>
        <time>2008-06-15T09:27:17Z</time>
      </trkpt>
      <trkpt lat="38.176079979166389" lon="-7.076909998431802">
        <ele>149.38671875</ele>
        <time>2008-06-15T09:27:36Z</time>
      </trkpt>
      <trkpt lat="38.176130019128323" lon="-7.07697001285851">
        <ele>150.703125</ele>
        <time>2008-06-15T09:27:51Z</time>
      </trkpt>
      <trkpt lat="38.176200008019805" lon="-7.077060034498572">
        <ele>151.97265625</ele>
        <time>2008-06-15T09:28:08Z</time>
      </trkpt>
      <trkpt lat="38.176279971376061" lon="-7.077040001749992">
        <ele>153.55859375</ele>
        <time>2008-06-15T09:28:29Z</time>
      </trkpt>
      <trkpt lat="38.176290029659867" lon="-7.077060034498572">
        <ele>153.5703125</ele>
        <time>2008-06-15T09:28:57Z</time>
      </trkpt>
      <trkpt lat="38.176379967480898" lon="-7.07697001285851">
        <ele>156.66015625</ele>
        <time>2008-06-15T09:29:11Z</time>
      </trkpt>
      <trkpt lat="38.176430007442832" lon="-7.076960038393736">
        <ele>158.234375</ele>
        <time>2008-06-15T09:29:16Z</time>
      </trkpt>
      <trkpt lat="38.176509970799088" lon="-7.076940005645156">
        <ele>160.703125</ele>
        <time>2008-06-15T09:29:24Z</time>
      </trkpt>
      <trkpt lat="38.176530003547668" lon="-7.076930031180382">
        <ele>161.35546875</ele>
        <time>2008-06-15T09:29:27Z</time>
      </trkpt>
      <trkpt lat="38.176550036296248" lon="-7.076930031180382">
        <ele>161.9609375</ele>
        <time>2008-06-15T09:29:28Z</time>
      </trkpt>
      <trkpt lat="38.176590017974377" lon="-7.076919972896576">
        <ele>163.2265625</ele>
        <time>2008-06-15T09:29:32Z</time>
      </trkpt>
      <trkpt lat="38.176739970222116" lon="-7.076810002326965">
        <ele>168.3203125</ele>
        <time>2008-06-15T09:29:47Z</time>
      </trkpt>
      <trkpt lat="38.17679001018405" lon="-7.076789969578385">
        <ele>169.8671875</ele>
        <time>2008-06-15T09:29:51Z</time>
      </trkpt>
      <trkpt lat="38.176890006288886" lon="-7.076710006222129">
        <ele>172.03125</ele>
        <time>2008-06-15T09:30:03Z</time>
      </trkpt>
      <trkpt lat="38.176910039037466" lon="-7.076700031757355">
        <ele>172.41015625</ele>
        <time>2008-06-15T09:30:07Z</time>
      </trkpt>
      <trkpt lat="38.176929987967014" lon="-7.076670024544001">
        <ele>172.984375</ele>
        <time>2008-06-15T09:30:11Z</time>
      </trkpt>
      <trkpt lat="38.176969969645143" lon="-7.076649991795421">
        <ele>173.91015625</ele>
        <time>2008-06-15T09:30:21Z</time>
      </trkpt>
      <trkpt lat="38.176969969645143" lon="-7.076640017330647">
        <ele>174.015625</ele>
        <time>2008-06-15T09:30:22Z</time>
      </trkpt>
      <trkpt lat="38.176980027928948" lon="-7.076610010117292">
        <ele>174.5546875</ele>
        <time>2008-06-15T09:30:44Z</time>
      </trkpt>
      <trkpt lat="38.176999976858497" lon="-7.076640017330647">
        <ele>174.59765625</ele>
        <time>2008-06-15T09:32:07Z</time>
      </trkpt>
      <trkpt lat="38.177120005711913" lon="-7.076759962365031">
        <ele>174.38671875</ele>
        <time>2008-06-15T09:32:17Z</time>
      </trkpt>
      <trkpt lat="38.177289990708232" lon="-7.076789969578385">
        <ele>175.546875</ele>
        <time>2008-06-15T09:32:21Z</time>
      </trkpt>
      <trkpt lat="38.17737003788352" lon="-7.07681997679174">
        <ele>176.015625</ele>
        <time>2008-06-15T09:32:22Z</time>
      </trkpt>
      <trkpt lat="38.177510015666485" lon="-7.07697001285851">
        <ele>176.00390625</ele>
        <time>2008-06-15T09:32:26Z</time>
      </trkpt>
      <trkpt lat="38.177749989554286" lon="-7.077249968424439">
        <ele>175.515625</ele>
        <time>2008-06-15T09:32:33Z</time>
      </trkpt>
      <trkpt lat="38.177879992872477" lon="-7.077279975637794">
        <ele>175.74609375</ele>
        <time>2008-06-15T09:32:37Z</time>
      </trkpt>
      <trkpt lat="38.178490027785301" lon="-7.076879991218448">
        <ele>179.8828125</ele>
        <time>2008-06-15T09:32:52Z</time>
      </trkpt>
      <trkpt lat="38.178539983928204" lon="-7.076789969578385">
        <ele>180.26953125</ele>
        <time>2008-06-15T09:32:53Z</time>
      </trkpt>
      <trkpt lat="38.17863998003304" lon="-7.076480006799102">
        <ele>181.1328125</ele>
        <time>2008-06-15T09:33:00Z</time>
      </trkpt>
      <trkpt lat="38.179010041058064" lon="-7.07598002627492">
        <ele>185.6640625</ele>
        <time>2008-06-15T09:33:11Z</time>
      </trkpt>
      <trkpt lat="38.179050022736192" lon="-7.075950019061565">
        <ele>186.36328125</ele>
        <time>2008-06-15T09:33:12Z</time>
      </trkpt>
      <trkpt lat="38.179129986092448" lon="-7.075890004634857">
        <ele>187.703125</ele>
        <time>2008-06-15T09:33:14Z</time>
      </trkpt>
      <trkpt lat="38.179470039904118" lon="-7.07563997246325">
        <ele>190.58984375</ele>
        <time>2008-06-15T09:33:23Z</time>
      </trkpt>
      <trkpt lat="38.179780002683401" lon="-7.075369991362095">
        <ele>192.03515625</ele>
        <time>2008-06-15T09:33:35Z</time>
      </trkpt>
      <trkpt lat="38.179770028218627" lon="-7.075290028005838">
        <ele>193.6171875</ele>
        <time>2008-06-15T09:33:39Z</time>
      </trkpt>
      <trkpt lat="38.179689981043339" lon="-7.075279969722033">
        <ele>196.01171875</ele>
        <time>2008-06-15T09:33:43Z</time>
      </trkpt>
      <trkpt lat="38.179389992728829" lon="-7.075450038537383">
        <ele>198.75</ele>
        <time>2008-06-15T09:33:51Z</time>
      </trkpt>
      <trkpt lat="38.178990008309484" lon="-7.075599990785122">
        <ele>198.7578125</ele>
        <time>2008-06-15T09:34:02Z</time>
      </trkpt>
      <trkpt lat="38.178620031103492" lon="-7.07568003796041">
        <ele>199.5</ele>
        <time>2008-06-15T09:34:10Z</time>
      </trkpt>
      <trkpt lat="38.178479969501495" lon="-7.075539976358414">
        <ele>200.30859375</ele>
        <time>2008-06-15T09:34:14Z</time>
      </trkpt>
      <trkpt lat="38.178349966183305" lon="-7.075179973617196">
        <ele>203.4765625</ele>
        <time>2008-06-15T09:34:20Z</time>
      </trkpt>
      <trkpt lat="38.178219962865114" lon="-7.074919966980815">
        <ele>205.70703125</ele>
        <time>2008-06-15T09:34:24Z</time>
      </trkpt>
      <trkpt lat="38.178139999508858" lon="-7.07480002194643">
        <ele>205.78515625</ele>
        <time>2008-06-15T09:34:25Z</time>
      </trkpt>
      <trkpt lat="38.178130025044084" lon="-7.074740007519722">
        <ele>206.67578125</ele>
        <time>2008-06-15T09:34:29Z</time>
      </trkpt>
      <trkpt lat="38.178139999508858" lon="-7.074719974771142">
        <ele>207.43359375</ele>
        <time>2008-06-15T09:34:30Z</time>
      </trkpt>
      <trkpt lat="38.178249970078468" lon="-7.074749981984496">
        <ele>210.328125</ele>
        <time>2008-06-15T09:34:36Z</time>
      </trkpt>
      <trkpt lat="38.178509976714849" lon="-7.074879985302687">
        <ele>214.53125</ele>
        <time>2008-06-15T09:34:44Z</time>
      </trkpt>
      <trkpt lat="38.178750034421682" lon="-7.074970006942749">
        <ele>217.53515625</ele>
        <time>2008-06-15T09:34:48Z</time>
      </trkpt>
      <trkpt lat="38.178860004991293" lon="-7.075000014156103">
        <ele>218.4921875</ele>
        <time>2008-06-15T09:34:52Z</time>
      </trkpt>
      <trkpt lat="38.178850030526519" lon="-7.074870010837913">
        <ele>222.19921875</ele>
        <time>2008-06-15T09:34:56Z</time>
      </trkpt>
      <trkpt lat="38.178739976137877" lon="-7.074730033054948">
        <ele>223.52734375</ele>
        <time>2008-06-15T09:35:00Z</time>
      </trkpt>
      <trkpt lat="38.178709968924522" lon="-7.074679993093014">
        <ele>223.98046875</ele>
        <time>2008-06-15T09:35:02Z</time>
      </trkpt>
      <trkpt lat="38.178650038316846" lon="-7.074570022523403">
        <ele>224.375</ele>
        <time>2008-06-15T09:35:04Z</time>
      </trkpt>
      <trkpt lat="38.17866001278162" lon="-7.074300041422248">
        <ele>227.21484375</ele>
        <time>2008-06-15T09:35:08Z</time>
      </trkpt>
      <trkpt lat="38.178790016099811" lon="-7.074020002037287">
        <ele>231.046875</ele>
        <time>2008-06-15T09:35:14Z</time>
      </trkpt>
      <trkpt lat="38.178829997777939" lon="-7.07381003536284">
        <ele>232.33984375</ele>
        <time>2008-06-15T09:35:16Z</time>
      </trkpt>
      <trkpt lat="38.178969975560904" lon="-7.073659999296069">
        <ele>234.71484375</ele>
        <time>2008-06-15T09:35:20Z</time>
      </trkpt>
      <trkpt lat="38.179139960557222" lon="-7.073569977656007">
        <ele>237.51953125</ele>
        <time>2008-06-15T09:35:23Z</time>
      </trkpt>
      <trkpt lat="38.179470039904118" lon="-7.073420025408268">
        <ele>237.69921875</ele>
        <time>2008-06-15T09:35:30Z</time>
      </trkpt>
      <trkpt lat="38.179659973829985" lon="-7.073100004345179">
        <ele>240.25390625</ele>
        <time>2008-06-15T09:35:34Z</time>
      </trkpt>
      <trkpt lat="38.179780002683401" lon="-7.072809990495443">
        <ele>243.33203125</ele>
        <time>2008-06-15T09:35:38Z</time>
      </trkpt>
      <trkpt lat="38.179879998788238" lon="-7.07263003103435">
        <ele>245.37890625</ele>
        <time>2008-06-15T09:35:42Z</time>
      </trkpt>
      <trkpt lat="38.180000027641654" lon="-7.072489969432354">
        <ele>246.859375</ele>
        <time>2008-06-15T09:35:45Z</time>
      </trkpt>
      <trkpt lat="38.180179987102747" lon="-7.072459962219">
        <ele>248.5625</ele>
        <time>2008-06-15T09:35:49Z</time>
      </trkpt>
      <trkpt lat="38.180330023169518" lon="-7.072519976645708">
        <ele>250.8671875</ele>
        <time>2008-06-15T09:35:51Z</time>
      </trkpt>
      <trkpt lat="38.180370004847646" lon="-7.072570016607642">
        <ele>252.171875</ele>
        <time>2008-06-15T09:35:53Z</time>
      </trkpt>
      <trkpt lat="38.18080997094512" lon="-7.072839997708798">
        <ele>252.54296875</ele>
        <time>2008-06-15T09:36:01Z</time>
      </trkpt>
      <trkpt lat="38.181090010330081" lon="-7.072890037670732">
        <ele>253.390625</ele>
        <time>2008-06-15T09:36:05Z</time>
      </trkpt>
      <trkpt lat="38.181520001962781" lon="-7.072749976068735">
        <ele>254.41015625</ele>
        <time>2008-06-15T09:36:13Z</time>
      </trkpt>
      <trkpt lat="38.181670038029552" lon="-7.072619972750545">
        <ele>254.94140625</ele>
        <time>2008-06-15T09:36:16Z</time>
      </trkpt>
      <trkpt lat="38.181759975850582" lon="-7.072389973327518">
        <ele>256.42578125</ele>
        <time>2008-06-15T09:36:18Z</time>
      </trkpt>
      <trkpt lat="38.182149985805154" lon="-7.072340017184615">
        <ele>256.91015625</ele>
        <time>2008-06-15T09:36:27Z</time>
      </trkpt>
      <trkpt lat="38.182319970801473" lon="-7.072410006076098">
        <ele>255.73046875</ele>
        <time>2008-06-15T09:36:29Z</time>
      </trkpt>
      <trkpt lat="38.182660024613142" lon="-7.072489969432354">
        <ele>252.22265625</ele>
        <time>2008-06-15T09:36:33Z</time>
      </trkpt>
      <trkpt lat="38.182909972965717" lon="-7.072749976068735">
        <ele>250.0078125</ele>
        <time>2008-06-15T09:36:37Z</time>
      </trkpt>
      <trkpt lat="38.183090016245842" lon="-7.073000008240342">
        <ele>248.46875</ele>
        <time>2008-06-15T09:36:40Z</time>
      </trkpt>
      <trkpt lat="38.18315003067255" lon="-7.073090029880405">
        <ele>248.30078125</ele>
        <time>2008-06-15T09:36:41Z</time>
      </trkpt>
      <trkpt lat="38.183260001242161" lon="-7.073260014876723">
        <ele>248.38671875</ele>
        <time>2008-06-15T09:36:44Z</time>
      </trkpt>
      <trkpt lat="38.183390004560351" lon="-7.073399992659688">
        <ele>250.5703125</ele>
        <time>2008-06-15T09:36:45Z</time>
      </trkpt>
      <trkpt lat="38.183569964021444" lon="-7.073629992082715">
        <ele>254.47265625</ele>
        <time>2008-06-15T09:36:48Z</time>
      </trkpt>
      <trkpt lat="38.183720000088215" lon="-7.073929980397224">
        <ele>258.8203125</ele>
        <time>2008-06-15T09:36:52Z</time>
      </trkpt>
      <trkpt lat="38.183810021728277" lon="-7.074129972606897">
        <ele>262.14453125</ele>
        <time>2008-06-15T09:36:54Z</time>
      </trkpt>
      <trkpt lat="38.183899959549308" lon="-7.074319990351796">
        <ele>264.47265625</ele>
        <time>2008-06-15T09:36:55Z</time>
      </trkpt>
      <trkpt lat="38.184049995616078" lon="-7.074630036950111">
        <ele>266.109375</ele>
        <time>2008-06-15T09:36:59Z</time>
      </trkpt>
      <trkpt lat="38.184359958395362" lon="-7.075109984725714">
        <ele>268.328125</ele>
        <time>2008-06-15T09:37:03Z</time>
      </trkpt>
      <trkpt lat="38.184660030528903" lon="-7.075479961931706">
        <ele>268.49609375</ele>
        <time>2008-06-15T09:37:11Z</time>
      </trkpt>
      <trkpt lat="38.184739993885159" lon="-7.075599990785122">
        <ele>267.0546875</ele>
        <time>2008-06-15T09:37:27Z</time>
      </trkpt>
      <trkpt lat="38.184809982776642" lon="-7.075790008530021">
        <ele>265.75</ele>
        <time>2008-06-15T09:37:57Z</time>
      </trkpt>
      <trkpt lat="38.185179959982634" lon="-7.076169960200787">
        <ele>261.01953125</ele>
        <time>2008-06-15T09:38:05Z</time>
      </trkpt>
      <trkpt lat="38.185360003262758" lon="-7.076350003480911">
        <ele>260.078125</ele>
        <time>2008-06-15T09:38:08Z</time>
      </trkpt>
      <trkpt lat="38.185469973832369" lon="-7.076459974050522">
        <ele>260.19140625</ele>
        <time>2008-06-15T09:38:09Z</time>
      </trkpt>
      <trkpt lat="38.185599977150559" lon="-7.076480006799102">
        <ele>260.7109375</ele>
        <time>2008-06-15T09:38:12Z</time>
      </trkpt>
      <trkpt lat="38.185840034857392" lon="-7.07641001790762">
        <ele>261.05078125</ele>
        <time>2008-06-15T09:38:16Z</time>
      </trkpt>
      <trkpt lat="38.186770007014275" lon="-7.076040040701628">
        <ele>259.828125</ele>
        <time>2008-06-15T09:38:32Z</time>
      </trkpt>
      <trkpt lat="38.187209973111749" lon="-7.076040040701628">
        <ele>257.10546875</ele>
        <time>2008-06-15T09:38:38Z</time>
      </trkpt>
      <trkpt lat="38.187379958108068" lon="-7.076059989631176">
        <ele>256.1171875</ele>
        <time>2008-06-15T09:38:40Z</time>
      </trkpt>
      <trkpt lat="38.187639964744449" lon="-7.076169960200787">
        <ele>254.234375</ele>
        <time>2008-06-15T09:38:43Z</time>
      </trkpt>
      <trkpt lat="38.187950011342764" lon="-7.07641001790762">
        <ele>251.2734375</ele>
        <time>2008-06-15T09:38:47Z</time>
      </trkpt>
      <trkpt lat="38.188020000234246" lon="-7.076470032334328">
        <ele>250.40234375</ele>
        <time>2008-06-15T09:38:47Z</time>
      </trkpt>
      <trkpt lat="38.188249999657273" lon="-7.076640017330647">
        <ele>248.49609375</ele>
        <time>2008-06-15T09:38:51Z</time>
      </trkpt>
      <trkpt lat="38.188549987971783" lon="-7.076849984005094">
        <ele>246.3203125</ele>
        <time>2008-06-15T09:38:55Z</time>
      </trkpt>
      <trkpt lat="38.188840001821518" lon="-7.077000020071864">
        <ele>243.79296875</ele>
        <time>2008-06-15T09:38:59Z</time>
      </trkpt>
      <trkpt lat="38.188909990713" lon="-7.077049976214767">
        <ele>243.66796875</ele>
        <time>2008-06-15T09:38:59Z</time>
      </trkpt>
      <trkpt lat="38.189190030097961" lon="-7.077200012281537">
        <ele>242.1328125</ele>
        <time>2008-06-15T09:39:03Z</time>
      </trkpt>
      <trkpt lat="38.189479960128665" lon="-7.077330015599728">
        <ele>239.91796875</ele>
        <time>2008-06-15T09:39:07Z</time>
      </trkpt>
      <trkpt lat="38.189729992300272" lon="-7.077550040557981">
        <ele>238.26953125</ele>
        <time>2008-06-15T09:39:11Z</time>
      </trkpt>
      <trkpt lat="38.189969966188073" lon="-7.077799988910556">
        <ele>237.35546875</ele>
        <time>2008-06-15T09:39:15Z</time>
      </trkpt>
      <trkpt lat="38.190120002254844" lon="-7.077969973906875">
        <ele>237.078125</ele>
        <time>2008-06-15T09:39:18Z</time>
      </trkpt>
      <trkpt lat="38.190229972824454" lon="-7.078050021082163">
        <ele>236.9921875</ele>
        <time>2008-06-15T09:39:21Z</time>
      </trkpt>
      <trkpt lat="38.190559968352318" lon="-7.078080028295517">
        <ele>237.828125</ele>
        <time>2008-06-15T09:39:27Z</time>
      </trkpt>
      <trkpt lat="38.19064998999238" lon="-7.078039962798357">
        <ele>238.43359375</ele>
        <time>2008-06-15T09:39:30Z</time>
      </trkpt>
      <trkpt lat="38.191109988838434" lon="-7.077969973906875">
        <ele>240.58984375</ele>
        <time>2008-06-15T09:39:36Z</time>
      </trkpt>
      <trkpt lat="38.191630002111197" lon="-7.077699992805719">
        <ele>245.29296875</ele>
        <time>2008-06-15T09:39:42Z</time>
      </trkpt>
      <trkpt lat="38.191809961572289" lon="-7.077720025554299">
        <ele>248.0546875</ele>
        <time>2008-06-15T09:39:45Z</time>
      </trkpt>
      <trkpt lat="38.19198003038764" lon="-7.07785002887249">
        <ele>251.1953125</ele>
        <time>2008-06-15T09:39:49Z</time>
      </trkpt>
      <trkpt lat="38.192099975422025" lon="-7.077959999442101">
        <ele>253.54296875</ele>
        <time>2008-06-15T09:39:50Z</time>
      </trkpt>
      <trkpt lat="38.192310025915504" lon="-7.078099977225065">
        <ele>255.3984375</ele>
        <time>2008-06-15T09:39:53Z</time>
      </trkpt>
      <trkpt lat="38.192359982058406" lon="-7.078139958903194">
        <ele>255.54296875</ele>
        <time>2008-06-15T09:39:54Z</time>
      </trkpt>
      <trkpt lat="38.192440029233694" lon="-7.078250013291836">
        <ele>255.08203125</ele>
        <time>2008-06-15T09:39:57Z</time>
      </trkpt>
      <trkpt lat="38.192510018125176" lon="-7.078389991074801">
        <ele>253.578125</ele>
        <time>2008-06-15T09:39:59Z</time>
      </trkpt>
      <trkpt lat="38.192549999803305" lon="-7.078470038250089">
        <ele>252.546875</ele>
        <time>2008-06-15T09:40:00Z</time>
      </trkpt>
      <trkpt lat="38.19284001365304" lon="-7.078729961067438">
        <ele>248.19921875</ele>
        <time>2008-06-15T09:40:04Z</time>
      </trkpt>
      <trkpt lat="38.192900028079748" lon="-7.078810008242726">
        <ele>246.98828125</ele>
        <time>2008-06-15T09:40:05Z</time>
      </trkpt>
      <trkpt lat="38.193079987540841" lon="-7.079030033200979">
        <ele>244.359375</ele>
        <time>2008-06-15T09:40:08Z</time>
      </trkpt>
      <trkpt lat="38.193149976432323" lon="-7.079109996557236">
        <ele>243.71484375</ele>
        <time>2008-06-15T09:40:09Z</time>
      </trkpt>
      <trkpt lat="38.193460023030639" lon="-7.079319963231683">
        <ele>240.55859375</ele>
        <time>2008-06-15T09:40:13Z</time>
      </trkpt>
      <trkpt lat="38.194039966911077" lon="-7.079490032047033">
        <ele>237.9765625</ele>
        <time>2008-06-15T09:40:23Z</time>
      </trkpt>
      <trkpt lat="38.19468998350203" lon="-7.07969999872148">
        <ele>238.6015625</ele>
        <time>2008-06-15T09:40:35Z</time>
      </trkpt>
      <trkpt lat="38.195130033418536" lon="-7.079950030893087">
        <ele>239.3828125</ele>
        <time>2008-06-15T09:40:43Z</time>
      </trkpt>
      <trkpt lat="38.195279985666275" lon="-7.080029994249344">
        <ele>239.875</ele>
        <time>2008-06-15T09:40:44Z</time>
      </trkpt>
      <trkpt lat="38.19543999619782" lon="-7.080120015889406">
        <ele>239.98828125</ele>
        <time>2008-06-15T09:40:47Z</time>
      </trkpt>
      <trkpt lat="38.196510029956698" lon="-7.080550007522106">
        <ele>242.67578125</ele>
        <time>2008-06-15T09:40:59Z</time>
      </trkpt>
      <trkpt lat="38.196580018848181" lon="-7.08055998198688">
        <ele>242.859375</ele>
        <time>2008-06-15T09:41:01Z</time>
      </trkpt>
      <trkpt lat="38.197140013799071" lon="-7.080369964241982">
        <ele>243.6484375</ele>
        <time>2008-06-15T09:41:13Z</time>
      </trkpt>
      <trkpt lat="38.197270017117262" lon="-7.080340040847659">
        <ele>244.3671875</ele>
        <time>2008-06-15T09:41:14Z</time>
      </trkpt>
      <trkpt lat="38.197709983214736" lon="-7.080480018630624">
        <ele>246.18359375</ele>
        <time>2008-06-15T09:41:21Z</time>
      </trkpt>
      <trkpt lat="38.198220022022724" lon="-7.080870028585196">
        <ele>249.08203125</ele>
        <time>2008-06-15T09:41:28Z</time>
      </trkpt>
      <trkpt lat="38.198380032554269" lon="-7.08098997361958">
        <ele>250.375</ele>
        <time>2008-06-15T09:41:29Z</time>
      </trkpt>
      <trkpt lat="38.199089979752898" lon="-7.081530019640923">
        <ele>253.65234375</ele>
        <time>2008-06-15T09:41:38Z</time>
      </trkpt>
      <trkpt lat="38.199389968067408" lon="-7.081909971311688">
        <ele>252.203125</ele>
        <time>2008-06-15T09:41:44Z</time>
      </trkpt>
      <trkpt lat="38.200049959123135" lon="-7.082799961790443">
        <ele>249.1328125</ele>
        <time>2008-06-15T09:41:56Z</time>
      </trkpt>
      <trkpt lat="38.20051004178822" lon="-7.083370015025139">
        <ele>249.046875</ele>
        <time>2008-06-15T09:42:04Z</time>
      </trkpt>
      <trkpt lat="38.200639961287379" lon="-7.083489960059524">
        <ele>249.29296875</ele>
        <time>2008-06-15T09:42:07Z</time>
      </trkpt>
      <trkpt lat="38.200850011780858" lon="-7.08360998891294">
        <ele>250.09765625</ele>
        <time>2008-06-15T09:42:09Z</time>
      </trkpt>
      <trkpt lat="38.200929975137115" lon="-7.08363002166152">
        <ele>250.28515625</ele>
        <time>2008-06-15T09:42:11Z</time>
      </trkpt>
      <trkpt lat="38.201270028948784" lon="-7.083670003339648">
        <ele>251.80859375</ele>
        <time>2008-06-15T09:42:15Z</time>
      </trkpt>
      <trkpt lat="38.201340017840266" lon="-7.083670003339648">
        <ele>252.16796875</ele>
        <time>2008-06-15T09:42:16Z</time>
      </trkpt>
      <trkpt lat="38.201489970088005" lon="-7.083649970591068">
        <ele>252.99609375</ele>
        <time>2008-06-15T09:42:18Z</time>
      </trkpt>
      <trkpt lat="38.201700020581484" lon="-7.083549974486232">
        <ele>255.296875</ele>
        <time>2008-06-15T09:42:23Z</time>
      </trkpt>
      <trkpt lat="38.201730027794838" lon="-7.083530025556684">
        <ele>255.7265625</ele>
        <time>2008-06-15T09:42:23Z</time>
      </trkpt>
      <trkpt lat="38.201879980042577" lon="-7.083349982276559">
        <ele>258.25</ele>
        <time>2008-06-15T09:42:27Z</time>
      </trkpt>
      <trkpt lat="38.202069997787476" lon="-7.083080001175404">
        <ele>260.91015625</ele>
        <time>2008-06-15T09:42:31Z</time>
      </trkpt>
      <trkpt lat="38.202269989997149" lon="-7.082910016179085">
        <ele>263.54296875</ele>
        <time>2008-06-15T09:42:35Z</time>
      </trkpt>
      <trkpt lat="38.202420026063919" lon="-7.082840027287602">
        <ele>265.796875</ele>
        <time>2008-06-15T09:42:43Z</time>
      </trkpt>
      <trkpt lat="38.202439974993467" lon="-7.082819994539022">
        <ele>265.8125</ele>
        <time>2008-06-15T09:42:58Z</time>
      </trkpt>
      <trkpt lat="38.20252999663353" lon="-7.082710023969412">
        <ele>265.6171875</ele>
        <time>2008-06-15T09:43:10Z</time>
      </trkpt>
      <trkpt lat="38.20255002938211" lon="-7.082669958472252">
        <ele>265.546875</ele>
        <time>2008-06-15T09:43:33Z</time>
      </trkpt>
      <trkpt lat="38.202469982206821" lon="-7.082160003483295">
        <ele>267.8125</ele>
        <time>2008-06-15T09:43:41Z</time>
      </trkpt>
      <trkpt lat="38.202469982206821" lon="-7.082080040127039">
        <ele>268.60546875</ele>
        <time>2008-06-15T09:43:43Z</time>
      </trkpt>
      <trkpt lat="38.202469982206821" lon="-7.08173998631537">
        <ele>272.22265625</ele>
        <time>2008-06-15T09:43:47Z</time>
      </trkpt>
      <trkpt lat="38.202469982206821" lon="-7.081660022959113">
        <ele>272.9140625</ele>
        <time>2008-06-15T09:43:48Z</time>
      </trkpt>
      <trkpt lat="38.20255002938211" lon="-7.081340001896024">
        <ele>274.984375</ele>
        <time>2008-06-15T09:43:52Z</time>
      </trkpt>
      <trkpt lat="38.202729988843203" lon="-7.080440036952496">
        <ele>283.25</ele>
        <time>2008-06-15T09:44:02Z</time>
      </trkpt>
      <trkpt lat="38.202750021591783" lon="-7.080350015312433">
        <ele>284.328125</ele>
        <time>2008-06-15T09:44:03Z</time>
      </trkpt>
      <trkpt lat="38.202920006588101" lon="-7.079980038106442">
        <ele>287.7265625</ele>
        <time>2008-06-15T09:44:07Z</time>
      </trkpt>
      <trkpt lat="38.203050009906292" lon="-7.079860009253025">
        <ele>288.7578125</ele>
        <time>2008-06-15T09:44:10Z</time>
      </trkpt>
      <trkpt lat="38.203449994325638" lon="-7.07959002815187">
        <ele>289.78515625</ele>
        <time>2008-06-15T09:44:15Z</time>
      </trkpt>
      <trkpt lat="38.203559964895248" lon="-7.079030033200979">
        <ele>287.7109375</ele>
        <time>2008-06-15T09:44:23Z</time>
      </trkpt>
      <trkpt lat="38.203489976003766" lon="-7.078150017186999">
        <ele>289.4453125</ele>
        <time>2008-06-15T09:44:31Z</time>
      </trkpt>
      <trkpt lat="38.203500034287572" lon="-7.078059995546937">
        <ele>289.62109375</ele>
        <time>2008-06-15T09:44:31Z</time>
      </trkpt>
      <trkpt lat="38.203549990430474" lon="-7.077880036085844">
        <ele>289.24609375</ele>
        <time>2008-06-15T09:44:34Z</time>
      </trkpt>
      <trkpt lat="38.203579997643828" lon="-7.07782999612391">
        <ele>288.71484375</ele>
        <time>2008-06-15T09:44:35Z</time>
      </trkpt>
      <trkpt lat="38.203740008175373" lon="-7.077639978379011">
        <ele>286.01171875</ele>
        <time>2008-06-15T09:44:41Z</time>
      </trkpt>
      <trkpt lat="38.203849978744984" lon="-7.077520033344626">
        <ele>283.82421875</ele>
        <time>2008-06-15T09:44:43Z</time>
      </trkpt>
      <trkpt lat="38.20394997484982" lon="-7.077439986169338">
        <ele>282.59375</ele>
        <time>2008-06-15T09:44:47Z</time>
      </trkpt>
      <trkpt lat="38.203960033133626" lon="-7.07742003723979">
        <ele>282.4296875</ele>
        <time>2008-06-15T09:44:49Z</time>
      </trkpt>
      <trkpt lat="38.203979982063174" lon="-7.07740000449121">
        <ele>282.3203125</ele>
        <time>2008-06-15T09:45:09Z</time>
      </trkpt>
      <trkpt lat="38.204019963741302" lon="-7.077390030026436">
        <ele>282.2421875</ele>
        <time>2008-06-15T09:45:10Z</time>
      </trkpt>
      <trkpt lat="38.205600036308169" lon="-7.077490026131272">
        <ele>279.359375</ele>
        <time>2008-06-15T09:45:37Z</time>
      </trkpt>
      <trkpt lat="38.205859959125519" lon="-7.077409978955984">
        <ele>278.7734375</ele>
        <time>2008-06-15T09:45:41Z</time>
      </trkpt>
      <trkpt lat="38.206360023468733" lon="-7.076900023967028">
        <ele>274.828125</ele>
        <time>2008-06-15T09:45:54Z</time>
      </trkpt>
      <trkpt lat="38.206490026786923" lon="-7.076779995113611">
        <ele>274.046875</ele>
        <time>2008-06-15T09:45:58Z</time>
      </trkpt>
      <trkpt lat="38.20656999014318" lon="-7.076580002903938">
        <ele>275.65234375</ele>
        <time>2008-06-15T09:46:02Z</time>
      </trkpt>
      <trkpt lat="38.206620030105114" lon="-7.076270040124655">
        <ele>279.2890625</ele>
        <time>2008-06-15T09:46:06Z</time>
      </trkpt>
      <trkpt lat="38.206630004569888" lon="-7.076180018484592">
        <ele>279.98046875</ele>
        <time>2008-06-15T09:46:07Z</time>
      </trkpt>
      <trkpt lat="38.206669986248016" lon="-7.075880030170083">
        <ele>282.71484375</ele>
        <time>2008-06-15T09:46:10Z</time>
      </trkpt>
      <trkpt lat="38.206730000674725" lon="-7.075379965826869">
        <ele>286.86328125</ele>
        <time>2008-06-15T09:46:14Z</time>
      </trkpt>
      <trkpt lat="38.206899985671043" lon="-7.07480002194643">
        <ele>292.15625</ele>
        <time>2008-06-15T09:46:19Z</time>
      </trkpt>
      <trkpt lat="38.206950025632977" lon="-7.074689967557788">
        <ele>292.22265625</ele>
        <time>2008-06-15T09:46:31Z</time>
      </trkpt>
      <trkpt lat="38.206969974562526" lon="-7.074659960344434">
        <ele>292.18359375</ele>
        <time>2008-06-15T09:48:29Z</time>
      </trkpt>
      <trkpt lat="38.207069970667362" lon="-7.074570022523403">
        <ele>291.7109375</ele>
        <time>2008-06-15T09:49:58Z</time>
      </trkpt>
      <trkpt lat="38.207099977880716" lon="-7.074589971452951">
        <ele>291.97265625</ele>
        <time>2008-06-15T09:57:45Z</time>
      </trkpt>
      <trkpt lat="38.207050021737814" lon="-7.074640011414886">
        <ele>292.0546875</ele>
        <time>2008-06-15T09:58:48Z</time>
      </trkpt>
      <trkpt lat="38.207050021737814" lon="-7.074640011414886">
        <ele>292.0546875</ele>
        <time>2008-06-15T09:58:53Z</time>
      </trkpt>
      <trkpt lat="38.207039963454008" lon="-7.074429960921407">
        <ele>290.671875</ele>
        <time>2008-06-15T09:58:58Z</time>
      </trkpt>
      <trkpt lat="38.207169966772199" lon="-7.073980020359159">
        <ele>288.453125</ele>
        <time>2008-06-15T09:59:06Z</time>
      </trkpt>
      <trkpt lat="38.207240039482713" lon="-7.073509963229299">
        <ele>286.09765625</ele>
        <time>2008-06-15T09:59:14Z</time>
      </trkpt>
      <trkpt lat="38.207229981198907" lon="-7.073269989341497">
        <ele>285.82421875</ele>
        <time>2008-06-15T09:59:18Z</time>
      </trkpt>
      <trkpt lat="38.207059996202588" lon="-7.072570016607642">
        <ele>284.83984375</ele>
        <time>2008-06-15T09:59:30Z</time>
      </trkpt>
      <trkpt lat="38.206400005146861" lon="-7.072149999439716">
        <ele>281.62890625</ele>
        <time>2008-06-15T09:59:44Z</time>
      </trkpt>
      <trkpt lat="38.206060035154223" lon="-7.072129966691136">
        <ele>280.00390625</ele>
        <time>2008-06-15T09:59:49Z</time>
      </trkpt>
      <trkpt lat="38.205649992451072" lon="-7.072249995544553">
        <ele>280.17578125</ele>
        <time>2008-06-15T09:59:53Z</time>
      </trkpt>
      <trkpt lat="38.205110030248761" lon="-7.072140024974942">
        <ele>275.078125</ele>
        <time>2008-06-15T10:00:00Z</time>
      </trkpt>
      <trkpt lat="38.20480995811522" lon="-7.071820003911853">
        <ele>270.1953125</ele>
        <time>2008-06-15T10:00:05Z</time>
      </trkpt>
      <trkpt lat="38.204680038616061" lon="-7.07162001170218">
        <ele>267.59375</ele>
        <time>2008-06-15T10:00:08Z</time>
      </trkpt>
      <trkpt lat="38.204639973118901" lon="-7.071539964526892">
        <ele>267.22265625</ele>
        <time>2008-06-15T10:00:11Z</time>
      </trkpt>
      <trkpt lat="38.204590016975999" lon="-7.071439968422055">
        <ele>266.76171875</ele>
        <time>2008-06-15T10:00:12Z</time>
      </trkpt>
      <trkpt lat="38.204490020871162" lon="-7.071139980107546">
        <ele>265.30078125</ele>
        <time>2008-06-15T10:00:18Z</time>
      </trkpt>
      <trkpt lat="38.204330010339618" lon="-7.070819959044457">
        <ele>262.21484375</ele>
        <time>2008-06-15T10:00:22Z</time>
      </trkpt>
      <trkpt lat="38.204279970377684" lon="-7.070730021223426">
        <ele>260.62109375</ele>
        <time>2008-06-15T10:00:23Z</time>
      </trkpt>
      <trkpt lat="38.204190032556653" lon="-7.070549977943301">
        <ele>258.24609375</ele>
        <time>2008-06-15T10:00:24Z</time>
      </trkpt>
      <trkpt lat="38.204169999808073" lon="-7.070129960775375">
        <ele>254.30078125</ele>
        <time>2008-06-15T10:00:30Z</time>
      </trkpt>
      <trkpt lat="38.204209981486201" lon="-7.070049997419119">
        <ele>253.26171875</ele>
        <time>2008-06-15T10:00:31Z</time>
      </trkpt>
      <trkpt lat="38.20442003197968" lon="-7.069629980251193">
        <ele>249.41015625</ele>
        <time>2008-06-15T10:00:35Z</time>
      </trkpt>
      <trkpt lat="38.204469988122582" lon="-7.069550016894937">
        <ele>248.21484375</ele>
        <time>2008-06-15T10:00:36Z</time>
      </trkpt>
      <trkpt lat="38.204760001972318" lon="-7.069199988618493">
        <ele>244.5703125</ele>
        <time>2008-06-15T10:00:42Z</time>
      </trkpt>
      <trkpt lat="38.204780034720898" lon="-7.068730015307665">
        <ele>241.6640625</ele>
        <time>2008-06-15T10:00:47Z</time>
      </trkpt>
      <trkpt lat="38.204750027507544" lon="-7.068660026416183">
        <ele>241.1640625</ele>
        <time>2008-06-15T10:00:49Z</time>
      </trkpt>
      <trkpt lat="38.204680038616061" lon="-7.068490041419864">
        <ele>240.7890625</ele>
        <time>2008-06-15T10:00:51Z</time>
      </trkpt>
      <trkpt lat="38.204629998654127" lon="-7.068370012566447">
        <ele>240.62890625</ele>
        <time>2008-06-15T10:00:54Z</time>
      </trkpt>
      <trkpt lat="38.204550035297871" lon="-7.06801000982523">
        <ele>237.67578125</ele>
        <time>2008-06-15T10:00:58Z</time>
      </trkpt>
      <trkpt lat="38.204369992017746" lon="-7.067729970440269">
        <ele>235.4765625</ele>
        <time>2008-06-15T10:01:02Z</time>
      </trkpt>
      <trkpt lat="38.203960033133626" lon="-7.067320011556149">
        <ele>230.72265625</ele>
        <time>2008-06-15T10:01:08Z</time>
      </trkpt>
      <trkpt lat="38.203889960423112" lon="-7.067250022664666">
        <ele>229.8359375</ele>
        <time>2008-06-15T10:01:09Z</time>
      </trkpt>
      <trkpt lat="38.203640012070537" lon="-7.067080037668347">
        <ele>227.3984375</ele>
        <time>2008-06-15T10:01:12Z</time>
      </trkpt>
      <trkpt lat="38.203219994902611" lon="-7.06683000549674">
        <ele>225.3125</ele>
        <time>2008-06-15T10:01:17Z</time>
      </trkpt>
      <trkpt lat="38.202759996056557" lon="-7.066409988328815">
        <ele>220.7734375</ele>
        <time>2008-06-15T10:01:22Z</time>
      </trkpt>
      <trkpt lat="38.20255002938211" lon="-7.066149981692433">
        <ele>217.44921875</ele>
        <time>2008-06-15T10:01:25Z</time>
      </trkpt>
      <trkpt lat="38.202339978888631" lon="-7.065650001168251">
        <ele>213.59375</ele>
        <time>2008-06-15T10:01:29Z</time>
      </trkpt>
      <trkpt lat="38.202060023322701" lon="-7.064950028434396">
        <ele>207.86328125</ele>
        <time>2008-06-15T10:01:36Z</time>
      </trkpt>
      <trkpt lat="38.201949968934059" lon="-7.064769985154271">
        <ele>206.5</ele>
        <time>2008-06-15T10:01:37Z</time>
      </trkpt>
      <trkpt lat="38.201709995046258" lon="-7.064500004053116">
        <ele>202.9609375</ele>
        <time>2008-06-15T10:01:41Z</time>
      </trkpt>
      <trkpt lat="38.201589966192842" lon="-7.064400007948279">
        <ele>202.64453125</ele>
        <time>2008-06-15T10:01:44Z</time>
      </trkpt>
      <trkpt lat="38.201500028371811" lon="-7.064360026270151">
        <ele>202.60546875</ele>
        <time>2008-06-15T10:01:45Z</time>
      </trkpt>
      <trkpt lat="38.201150000095367" lon="-7.064190041273832">
        <ele>202.3515625</ele>
        <time>2008-06-15T10:01:52Z</time>
      </trkpt>
      <trkpt lat="38.200970040634274" lon="-7.064009997993708">
        <ele>202.6640625</ele>
        <time>2008-06-15T10:01:56Z</time>
      </trkpt>
      <trkpt lat="38.200929975137115" lon="-7.063989965245128">
        <ele>202.6953125</ele>
        <time>2008-06-15T10:01:57Z</time>
      </trkpt>
      <trkpt lat="38.200639961287379" lon="-7.063900027424097">
        <ele>202.62890625</ele>
        <time>2008-06-15T10:02:02Z</time>
      </trkpt>
      <trkpt lat="38.200480034574866" lon="-7.063840012997389">
        <ele>203.1640625</ele>
        <time>2008-06-15T10:02:04Z</time>
      </trkpt>
      <trkpt lat="38.200220027938485" lon="-7.063840012997389">
        <ele>203.91015625</ele>
        <time>2008-06-15T10:02:07Z</time>
      </trkpt>
      <trkpt lat="38.200030010193586" lon="-7.063930034637451">
        <ele>203.82421875</ele>
        <time>2008-06-15T10:02:11Z</time>
      </trkpt>
      <trkpt lat="38.199879974126816" lon="-7.064009997993708">
        <ele>203.66796875</ele>
        <time>2008-06-15T10:02:15Z</time>
      </trkpt>
      <trkpt lat="38.199819959700108" lon="-7.064030030742288">
        <ele>203.94140625</ele>
        <time>2008-06-15T10:02:15Z</time>
      </trkpt>
      <trkpt lat="38.199330037459731" lon="-7.064019972458482">
        <ele>206.15234375</ele>
        <time>2008-06-15T10:02:22Z</time>
      </trkpt>
      <trkpt lat="38.198959976434708" lon="-7.063759965822101">
        <ele>207.5859375</ele>
        <time>2008-06-15T10:02:29Z</time>
      </trkpt>
      <trkpt lat="38.198850005865097" lon="-7.063740016892552">
        <ele>207.6875</ele>
        <time>2008-06-15T10:02:31Z</time>
      </trkpt>
      <trkpt lat="38.198499977588654" lon="-7.063640020787716">
        <ele>209.2421875</ele>
        <time>2008-06-15T10:02:38Z</time>
      </trkpt>
      <trkpt lat="38.198339967057109" lon="-7.063589980825782">
        <ele>210.30859375</ele>
        <time>2008-06-15T10:02:39Z</time>
      </trkpt>
      <trkpt lat="38.198269978165627" lon="-7.063570031896234">
        <ele>210.65234375</ele>
        <time>2008-06-15T10:02:41Z</time>
      </trkpt>
      <trkpt lat="38.19776002317667" lon="-7.063180021941662">
        <ele>207.78515625</ele>
        <time>2008-06-15T10:02:50Z</time>
      </trkpt>
      <trkpt lat="38.197630019858479" lon="-7.062950022518635">
        <ele>206.0390625</ele>
        <time>2008-06-15T10:02:53Z</time>
      </trkpt>
      <trkpt lat="38.197509991005063" lon="-7.0626600086689">
        <ele>204.56640625</ele>
        <time>2008-06-15T10:02:57Z</time>
      </trkpt>
      <trkpt lat="38.197489958256483" lon="-7.062620026990771">
        <ele>204.3203125</ele>
        <time>2008-06-15T10:02:58Z</time>
      </trkpt>
      <trkpt lat="38.197409994900227" lon="-7.062219958752394">
        <ele>204.05859375</ele>
        <time>2008-06-15T10:03:02Z</time>
      </trkpt>
      <trkpt lat="38.197549972683191" lon="-7.061679996550083">
        <ele>202.03515625</ele>
        <time>2008-06-15T10:03:09Z</time>
      </trkpt>
      <trkpt lat="38.197639994323254" lon="-7.061540018767119">
        <ele>202.34765625</ele>
        <time>2008-06-15T10:03:10Z</time>
      </trkpt>
      <trkpt lat="38.197670001536608" lon="-7.06148000434041">
        <ele>202.55078125</ele>
        <time>2008-06-15T10:03:12Z</time>
      </trkpt>
      <trkpt lat="38.197489958256483" lon="-7.061240030452609">
        <ele>203.11328125</ele>
        <time>2008-06-15T10:03:21Z</time>
      </trkpt>
      <trkpt lat="38.197379987686872" lon="-7.061259979382157">
        <ele>204.3125</ele>
        <time>2008-06-15T10:03:25Z</time>
      </trkpt>
      <trkpt lat="38.197219977155328" lon="-7.061259979382157">
        <ele>206.390625</ele>
        <time>2008-06-15T10:03:28Z</time>
      </trkpt>
      <trkpt lat="38.197130039334297" lon="-7.061250004917383">
        <ele>207.69921875</ele>
        <time>2008-06-15T10:03:29Z</time>
      </trkpt>
      <trkpt lat="38.196819992735982" lon="-7.061270037665963">
        <ele>211.1484375</ele>
        <time>2008-06-15T10:03:35Z</time>
      </trkpt>
      <trkpt lat="38.196499971672893" lon="-7.061400040984154">
        <ele>213.38671875</ele>
        <time>2008-06-15T10:03:40Z</time>
      </trkpt>
      <trkpt lat="38.196329986676574" lon="-7.061170041561127">
        <ele>216.86328125</ele>
        <time>2008-06-15T10:03:45Z</time>
      </trkpt>
      <trkpt lat="38.196399975568056" lon="-7.060720017179847">
        <ele>222.0078125</ele>
        <time>2008-06-15T10:03:52Z</time>
      </trkpt>
      <trkpt lat="38.19645001552999" lon="-7.060539973899722">
        <ele>222.87109375</ele>
        <time>2008-06-15T10:03:55Z</time>
      </trkpt>
      <trkpt lat="38.196350019425154" lon="-7.060109982267022">
        <ele>223.21484375</ele>
        <time>2008-06-15T10:04:00Z</time>
      </trkpt>
      <trkpt lat="38.1958900205791" lon="-7.059329962357879">
        <ele>224.76953125</ele>
        <time>2008-06-15T10:04:11Z</time>
      </trkpt>
      <trkpt lat="38.195839980617166" lon="-7.05918001011014">
        <ele>223.84765625</ele>
        <time>2008-06-15T10:04:14Z</time>
      </trkpt>
      <trkpt lat="38.195760017260909" lon="-7.058560000732541">
        <ele>224.109375</ele>
        <time>2008-06-15T10:04:22Z</time>
      </trkpt>
      <trkpt lat="38.195739984512329" lon="-7.058090027421713">
        <ele>223.32421875</ele>
        <time>2008-06-15T10:04:29Z</time>
      </trkpt>
      <trkpt lat="38.195409988984466" lon="-7.057700017467141">
        <ele>222.0390625</ele>
        <time>2008-06-15T10:04:38Z</time>
      </trkpt>
      <trkpt lat="38.195049986243248" lon="-7.057660035789013">
        <ele>219.10546875</ele>
        <time>2008-06-15T10:04:44Z</time>
      </trkpt>
      <trkpt lat="38.194910008460283" lon="-7.057600021362305">
        <ele>217.73828125</ele>
        <time>2008-06-15T10:04:46Z</time>
      </trkpt>
      <trkpt lat="38.194789979606867" lon="-7.057509999722242">
        <ele>216.23046875</ele>
        <time>2008-06-15T10:05:01Z</time>
      </trkpt>
      <trkpt lat="38.194680009037256" lon="-7.057459959760308">
        <ele>214.5859375</ele>
        <time>2008-06-15T10:05:13Z</time>
      </trkpt>
      <trkpt lat="38.194399969652295" lon="-7.057129964232445">
        <ele>213.30859375</ele>
        <time>2008-06-15T10:05:25Z</time>
      </trkpt>
      <trkpt lat="38.194359987974167" lon="-7.057089982554317">
        <ele>213.41015625</ele>
        <time>2008-06-15T10:05:27Z</time>
      </trkpt>
      <trkpt lat="38.194120014086366" lon="-7.056789994239807">
        <ele>213.72265625</ele>
        <time>2008-06-15T10:05:32Z</time>
      </trkpt>
      <trkpt lat="38.193960003554821" lon="-7.056299988180399">
        <ele>211.37890625</ele>
        <time>2008-06-15T10:05:40Z</time>
      </trkpt>
      <trkpt lat="38.193909963592887" lon="-7.056079963222146">
        <ele>210.17578125</ele>
        <time>2008-06-15T10:05:43Z</time>
      </trkpt>
      <trkpt lat="38.193820025771856" lon="-7.055790033191443">
        <ele>209.48828125</ele>
        <time>2008-06-15T10:05:47Z</time>
      </trkpt>
      <trkpt lat="38.19342004135251" lon="-7.055179998278618">
        <ele>208.76171875</ele>
        <time>2008-06-15T10:06:00Z</time>
      </trkpt>
      <trkpt lat="38.193019973114133" lon="-7.0548199955374">
        <ele>209.515625</ele>
        <time>2008-06-15T10:06:10Z</time>
      </trkpt>
      <trkpt lat="38.192680003121495" lon="-7.054599970579147">
        <ele>212.32421875</ele>
        <time>2008-06-15T10:06:18Z</time>
      </trkpt>
      <trkpt lat="38.192470036447048" lon="-7.054399978369474">
        <ele>215.19921875</ele>
        <time>2008-06-15T10:06:22Z</time>
      </trkpt>
      <trkpt lat="38.192299967631698" lon="-7.05423996783793">
        <ele>217.43359375</ele>
        <time>2008-06-15T10:06:25Z</time>
      </trkpt>
      <trkpt lat="38.192169964313507" lon="-7.054120022803545">
        <ele>218.39453125</ele>
        <time>2008-06-15T10:06:26Z</time>
      </trkpt>
      <trkpt lat="38.192059993743896" lon="-7.053979961201549">
        <ele>219.68359375</ele>
        <time>2008-06-15T10:06:29Z</time>
      </trkpt>
      <trkpt lat="38.191829994320869" lon="-7.053630016744137">
        <ele>222.39453125</ele>
        <time>2008-06-15T10:06:38Z</time>
      </trkpt>
      <trkpt lat="38.191809961572289" lon="-7.053609983995557">
        <ele>222.609375</ele>
        <time>2008-06-15T10:06:40Z</time>
      </trkpt>
      <trkpt lat="38.191609969362617" lon="-7.053309995681047">
        <ele>226.421875</ele>
        <time>2008-06-15T10:06:45Z</time>
      </trkpt>
      <trkpt lat="38.19153000600636" lon="-7.053179992362857">
        <ele>227.75</ele>
        <time>2008-06-15T10:06:48Z</time>
      </trkpt>
      <trkpt lat="38.191430009901524" lon="-7.053010007366538">
        <ele>228.81640625</ele>
        <time>2008-06-15T10:06:50Z</time>
      </trkpt>
      <trkpt lat="38.191130021587014" lon="-7.052719993516803">
        <ele>227.56640625</ele>
        <time>2008-06-15T10:06:57Z</time>
      </trkpt>
      <trkpt lat="38.190930029377341" lon="-7.052619997411966">
        <ele>225.14453125</ele>
        <time>2008-06-15T10:07:01Z</time>
      </trkpt>
      <trkpt lat="38.190610008314252" lon="-7.052489994093776">
        <ele>220.0390625</ele>
        <time>2008-06-15T10:07:04Z</time>
      </trkpt>
      <trkpt lat="38.19051998667419" lon="-7.052450012415648">
        <ele>219.1796875</ele>
        <time>2008-06-15T10:07:05Z</time>
      </trkpt>
      <trkpt lat="38.190440023317933" lon="-7.052420005202293">
        <ele>218.38671875</ele>
        <time>2008-06-15T10:07:07Z</time>
      </trkpt>
      <trkpt lat="38.189850021153688" lon="-7.052159998565912">
        <ele>214.33984375</ele>
        <time>2008-06-15T10:07:13Z</time>
      </trkpt>
      <trkpt lat="38.189699985086918" lon="-7.05206997692585">
        <ele>212.96875</ele>
        <time>2008-06-15T10:07:16Z</time>
      </trkpt>
      <trkpt lat="38.188679991289973" lon="-7.051460025832057">
        <ele>207.58984375</ele>
        <time>2008-06-15T10:07:28Z</time>
      </trkpt>
      <trkpt lat="38.188600027933717" lon="-7.051400011405349">
        <ele>206.60546875</ele>
        <time>2008-06-15T10:07:28Z</time>
      </trkpt>
      <trkpt lat="38.188300039619207" lon="-7.051119972020388">
        <ele>204.26171875</ele>
        <time>2008-06-15T10:07:32Z</time>
      </trkpt>
      <trkpt lat="38.1880500074476" lon="-7.050810009241104">
        <ele>203.5859375</ele>
        <time>2008-06-15T10:07:36Z</time>
      </trkpt>
      <trkpt lat="38.187799975275993" lon="-7.050640024244785">
        <ele>202.3984375</ele>
        <time>2008-06-15T10:07:40Z</time>
      </trkpt>
      <trkpt lat="38.187550026923418" lon="-7.050610017031431">
        <ele>201.875</ele>
        <time>2008-06-15T10:07:43Z</time>
      </trkpt>
      <trkpt lat="38.1871900241822" lon="-7.050640024244785">
        <ele>200.37890625</ele>
        <time>2008-06-15T10:07:48Z</time>
      </trkpt>
      <trkpt lat="38.187100002542138" lon="-7.050680005922914">
        <ele>200.171875</ele>
        <time>2008-06-15T10:07:51Z</time>
      </trkpt>
      <trkpt lat="38.186219986528158" lon="-7.050970019772649">
        <ele>196.875</ele>
        <time>2008-06-15T10:08:03Z</time>
      </trkpt>
      <trkpt lat="38.185840034857392" lon="-7.051290040835738">
        <ele>197.0546875</ele>
        <time>2008-06-15T10:08:10Z</time>
      </trkpt>
      <trkpt lat="38.185710031539202" lon="-7.051409985870123">
        <ele>197.7734375</ele>
        <time>2008-06-15T10:08:14Z</time>
      </trkpt>
      <trkpt lat="38.185050040483475" lon="-7.051669992506504">
        <ele>192.37890625</ele>
        <time>2008-06-15T10:08:25Z</time>
      </trkpt>
      <trkpt lat="38.184949960559607" lon="-7.051679966971278">
        <ele>192.4609375</ele>
        <time>2008-06-15T10:08:37Z</time>
      </trkpt>
      <trkpt lat="38.184930011630058" lon="-7.051679966971278">
        <ele>192.54296875</ele>
        <time>2008-06-15T10:09:12Z</time>
      </trkpt>
      <trkpt lat="38.184530027210712" lon="-7.051699999719858">
        <ele>194.14453125</ele>
        <time>2008-06-15T10:09:23Z</time>
      </trkpt>
      <trkpt lat="38.18441997282207" lon="-7.051750039681792">
        <ele>194.265625</ele>
        <time>2008-06-15T10:09:24Z</time>
      </trkpt>
      <trkpt lat="38.18428996950388" lon="-7.051830003038049">
        <ele>193.93359375</ele>
        <time>2008-06-15T10:09:27Z</time>
      </trkpt>
      <trkpt lat="38.184170024469495" lon="-7.051839977502823">
        <ele>194.85546875</ele>
        <time>2008-06-15T10:09:31Z</time>
      </trkpt>
      <trkpt lat="38.184040021151304" lon="-7.051839977502823">
        <ele>194.23046875</ele>
        <time>2008-06-15T10:09:34Z</time>
      </trkpt>
      <trkpt lat="38.183829970657825" lon="-7.051929999142885">
        <ele>192.51953125</ele>
        <time>2008-06-15T10:09:38Z</time>
      </trkpt>
      <trkpt lat="38.183740032836795" lon="-7.052039969712496">
        <ele>192.26171875</ele>
        <time>2008-06-15T10:09:39Z</time>
      </trkpt>
      <trkpt lat="38.183650011196733" lon="-7.052139965817332">
        <ele>192.33203125</ele>
        <time>2008-06-15T10:09:42Z</time>
      </trkpt>
      <trkpt lat="38.183439960703254" lon="-7.052199980244041">
        <ele>193.68359375</ele>
        <time>2008-06-15T10:09:46Z</time>
      </trkpt>
      <trkpt lat="38.183369971811771" lon="-7.052190005779266">
        <ele>193.76953125</ele>
        <time>2008-06-15T10:10:06Z</time>
      </trkpt>
      <trkpt lat="38.183359997346997" lon="-7.052199980244041">
        <ele>193.75</ele>
        <time>2008-06-15T10:10:16Z</time>
      </trkpt>
      <trkpt lat="38.183268718421459" lon="-7.052179528400302">
        <ele>193.96875</ele>
        <time>2008-06-15T10:10:22Z</time>
      </trkpt>
      <trkpt lat="38.183203591033816" lon="-7.052126554772258">
        <ele>193.58203125</ele>
        <time>2008-06-15T10:10:47Z</time>
      </trkpt>
      <trkpt lat="38.183183306828141" lon="-7.052119849249721">
        <ele>193.484375</ele>
        <time>2008-06-15T10:10:55Z</time>
      </trkpt>
      <trkpt lat="38.18312605842948" lon="-7.052050530910492">
        <ele>193.31640625</ele>
        <time>2008-06-15T10:10:57Z</time>
      </trkpt>
      <trkpt lat="38.183269975706935" lon="-7.052180031314492">
        <ele>193.90234375</ele>
        <time>2008-06-15T10:11:07Z</time>
      </trkpt>
      <trkpt lat="38.183320015668869" lon="-7.052210038527846">
        <ele>193.75</ele>
        <time>2008-06-15T10:11:45Z</time>
      </trkpt>
      <trkpt lat="38.183320015668869" lon="-7.052210038527846">
        <ele>193.75</ele>
        <time>2008-06-15T10:12:25Z</time>
      </trkpt>
      <trkpt lat="38.18358002230525" lon="-7.052199980244041">
        <ele>192.75</ele>
        <time>2008-06-15T10:12:32Z</time>
      </trkpt>
      <trkpt lat="38.183810021728277" lon="-7.051960006356239">
        <ele>192.34765625</ele>
        <time>2008-06-15T10:12:39Z</time>
      </trkpt>
      <trkpt lat="38.184070028364658" lon="-7.051850035786629">
        <ele>194.234375</ele>
        <time>2008-06-15T10:12:44Z</time>
      </trkpt>
      <trkpt lat="38.184129958972335" lon="-7.051850035786629">
        <ele>194.51171875</ele>
        <time>2008-06-15T10:12:44Z</time>
      </trkpt>
      <trkpt lat="38.184219980612397" lon="-7.051850035786629">
        <ele>194.3671875</ele>
        <time>2008-06-15T10:12:47Z</time>
      </trkpt>
      <trkpt lat="38.184409998357296" lon="-7.051739981397986">
        <ele>194.6015625</ele>
        <time>2008-06-15T10:12:51Z</time>
      </trkpt>
      <trkpt lat="38.184639997780323" lon="-7.051679966971278">
        <ele>193.52734375</ele>
        <time>2008-06-15T10:12:55Z</time>
      </trkpt>
      <trkpt lat="38.184709986671805" lon="-7.051669992506504">
        <ele>193.59375</ele>
        <time>2008-06-15T10:12:56Z</time>
      </trkpt>
      <trkpt lat="38.185169985517859" lon="-7.05163998529315">
        <ele>192.8046875</ele>
        <time>2008-06-15T10:13:06Z</time>
      </trkpt>
      <trkpt lat="38.185369977727532" lon="-7.051500007510185">
        <ele>195.453125</ele>
        <time>2008-06-15T10:13:11Z</time>
      </trkpt>
      <trkpt lat="38.185689998790622" lon="-7.051409985870123">
        <ele>197.72265625</ele>
        <time>2008-06-15T10:13:17Z</time>
      </trkpt>
      <trkpt lat="38.18618000485003" lon="-7.050989968702197">
        <ele>196.81640625</ele>
        <time>2008-06-15T10:13:29Z</time>
      </trkpt>
      <trkpt lat="38.187139984220266" lon="-7.050670031458139">
        <ele>200.22265625</ele>
        <time>2008-06-15T10:13:44Z</time>
      </trkpt>
      <trkpt lat="38.187209973111749" lon="-7.050649998709559">
        <ele>200.42578125</ele>
        <time>2008-06-15T10:13:46Z</time>
      </trkpt>
      <trkpt lat="38.187650023028255" lon="-7.05062996596098">
        <ele>202.1640625</ele>
        <time>2008-06-15T10:13:53Z</time>
      </trkpt>
      <trkpt lat="38.187799975275993" lon="-7.050670031458139">
        <ele>202.34765625</ele>
        <time>2008-06-15T10:13:54Z</time>
      </trkpt>
      <trkpt lat="38.188010025769472" lon="-7.050749994814396">
        <ele>203.546875</ele>
        <time>2008-06-15T10:13:57Z</time>
      </trkpt>
      <trkpt lat="38.18845996633172" lon="-7.051270008087158">
        <ele>205.78515625</ele>
        <time>2008-06-15T10:14:05Z</time>
      </trkpt>
      <trkpt lat="38.188610002398491" lon="-7.051390036940575">
        <ele>206.5625</ele>
        <time>2008-06-15T10:14:08Z</time>
      </trkpt>
      <trkpt lat="38.189090033993125" lon="-7.051690025255084">
        <ele>210.12109375</ele>
        <time>2008-06-15T10:14:13Z</time>
      </trkpt>
      <trkpt lat="38.189620021730661" lon="-7.052020020782948">
        <ele>212.8046875</ele>
        <time>2008-06-15T10:14:20Z</time>
      </trkpt>
      <trkpt lat="38.190150009468198" lon="-7.052310034632683">
        <ele>216.31640625</ele>
        <time>2008-06-15T10:14:25Z</time>
      </trkpt>
      <trkpt lat="38.19024003110826" lon="-7.052340041846037">
        <ele>216.953125</ele>
        <time>2008-06-15T10:14:27Z</time>
      </trkpt>
      <trkpt lat="38.19067002274096" lon="-7.052529975771904">
        <ele>220.890625</ele>
        <time>2008-06-15T10:14:32Z</time>
      </trkpt>
      <trkpt lat="38.190919971093535" lon="-7.052619997411966">
        <ele>225.02734375</ele>
        <time>2008-06-15T10:14:35Z</time>
      </trkpt>
      <trkpt lat="38.191219959408045" lon="-7.052780007943511">
        <ele>228.46875</ele>
        <time>2008-06-15T10:14:39Z</time>
      </trkpt>
      <trkpt lat="38.191349962726235" lon="-7.052870029583573">
        <ele>229.07421875</ele>
        <time>2008-06-15T10:14:40Z</time>
      </trkpt>
      <trkpt lat="38.191720023751259" lon="-7.053419966250658">
        <ele>224.8984375</ele>
        <time>2008-06-15T10:14:50Z</time>
      </trkpt>
      <trkpt lat="38.191860001534224" lon="-7.053649965673685">
        <ele>222.171875</ele>
        <time>2008-06-15T10:14:54Z</time>
      </trkpt>
      <trkpt lat="38.192090000957251" lon="-7.054009968414903">
        <ele>219.35546875</ele>
        <time>2008-06-15T10:15:02Z</time>
      </trkpt>
      <trkpt lat="38.192549999803305" lon="-7.054459992796183">
        <ele>214.265625</ele>
        <time>2008-06-15T10:15:09Z</time>
      </trkpt>
      <trkpt lat="38.192680003121495" lon="-7.054589996114373">
        <ele>212.3671875</ele>
        <time>2008-06-15T10:15:10Z</time>
      </trkpt>
      <trkpt lat="38.192849988117814" lon="-7.054719999432564">
        <ele>210.55078125</ele>
        <time>2008-06-15T10:15:14Z</time>
      </trkpt>
      <trkpt lat="38.192979991436005" lon="-7.054780013859272">
        <ele>209.68359375</ele>
        <time>2008-06-15T10:15:17Z</time>
      </trkpt>
      <trkpt lat="38.193409983068705" lon="-7.055149991065264">
        <ele>208.796875</ele>
        <time>2008-06-15T10:15:29Z</time>
      </trkpt>
      <trkpt lat="38.193430015817285" lon="-7.055179998278618">
        <ele>208.80859375</ele>
        <time>2008-06-15T10:15:30Z</time>
      </trkpt>
      <trkpt lat="38.193750036880374" lon="-7.0556799788028">
        <ele>209.421875</ele>
        <time>2008-06-15T10:15:38Z</time>
      </trkpt>
      <trkpt lat="38.193899989128113" lon="-7.055960018187761">
        <ele>209.8046875</ele>
        <time>2008-06-15T10:15:42Z</time>
      </trkpt>
      <trkpt lat="38.194039966911077" lon="-7.056520013138652">
        <ele>212.82421875</ele>
        <time>2008-06-15T10:15:49Z</time>
      </trkpt>
      <trkpt lat="38.194059999659657" lon="-7.056620009243488">
        <ele>213.1171875</ele>
        <time>2008-06-15T10:15:50Z</time>
      </trkpt>
      <trkpt lat="38.19455998018384" lon="-7.057319981977344">
        <ele>213.24609375</ele>
        <time>2008-06-15T10:16:03Z</time>
      </trkpt>
      <trkpt lat="38.194570038467646" lon="-7.057340014725924">
        <ele>213.21875</ele>
        <time>2008-06-15T10:16:04Z</time>
      </trkpt>
      <trkpt lat="38.19471001625061" lon="-7.057519974187017">
        <ele>214.7265625</ele>
        <time>2008-06-15T10:16:08Z</time>
      </trkpt>
      <trkpt lat="38.194900033995509" lon="-7.057760031893849">
        <ele>216.3984375</ele>
        <time>2008-06-15T10:16:13Z</time>
      </trkpt>
      <trkpt lat="38.195189964026213" lon="-7.057860027998686">
        <ele>217.33203125</ele>
        <time>2008-06-15T10:16:17Z</time>
      </trkpt>
      <trkpt lat="38.195430021733046" lon="-7.05789003521204">
        <ele>219.52734375</ele>
        <time>2008-06-15T10:16:20Z</time>
      </trkpt>
      <trkpt lat="38.195700002834201" lon="-7.058069994673133">
        <ele>222.59765625</ele>
        <time>2008-06-15T10:16:24Z</time>
      </trkpt>
      <trkpt lat="38.195799998939037" lon="-7.058360008522868">
        <ele>224.46484375</ele>
        <time>2008-06-15T10:16:28Z</time>
      </trkpt>
      <trkpt lat="38.195799998939037" lon="-7.058610040694475">
        <ele>225.00390625</ele>
        <time>2008-06-15T10:16:31Z</time>
      </trkpt>
      <trkpt lat="38.195830006152391" lon="-7.059010025113821">
        <ele>223.63671875</ele>
        <time>2008-06-15T10:16:36Z</time>
      </trkpt>
      <trkpt lat="38.195930002257228" lon="-7.059479998424649">
        <ele>225.03125</ele>
        <time>2008-06-15T10:16:44Z</time>
      </trkpt>
      <trkpt lat="38.196069980040193" lon="-7.05971997231245">
        <ele>225.50390625</ele>
        <time>2008-06-15T10:16:47Z</time>
      </trkpt>
      <trkpt lat="38.196310037747025" lon="-7.060090033337474">
        <ele>223.0703125</ele>
        <time>2008-06-15T10:16:53Z</time>
      </trkpt>
      <trkpt lat="38.196399975568056" lon="-7.060230011120439">
        <ele>223.4140625</ele>
        <time>2008-06-15T10:16:55Z</time>
      </trkpt>
      <trkpt lat="38.19642998278141" lon="-7.06062002107501">
        <ele>222.6875</ele>
        <time>2008-06-15T10:16:59Z</time>
      </trkpt>
      <trkpt lat="38.196390001103282" lon="-7.060750024393201">
        <ele>221.68359375</ele>
        <time>2008-06-15T10:17:02Z</time>
      </trkpt>
      <trkpt lat="38.196350019425154" lon="-7.061010031029582">
        <ele>218.8125</ele>
        <time>2008-06-15T10:17:05Z</time>
      </trkpt>
      <trkpt lat="38.196329986676574" lon="-7.061289986595511">
        <ele>215.5234375</ele>
        <time>2008-06-15T10:17:07Z</time>
      </trkpt>
      <trkpt lat="38.196369968354702" lon="-7.061510011553764">
        <ele>213.69140625</ele>
        <time>2008-06-15T10:17:11Z</time>
      </trkpt>
      <trkpt lat="38.196440041065216" lon="-7.061529960483313">
        <ele>212.984375</ele>
        <time>2008-06-15T10:17:14Z</time>
      </trkpt>
      <trkpt lat="38.196499971672893" lon="-7.061489978805184">
        <ele>212.46484375</ele>
        <time>2008-06-15T10:17:18Z</time>
      </trkpt>
      <trkpt lat="38.196540037170053" lon="-7.061440022662282">
        <ele>212.421875</ele>
        <time>2008-06-15T10:17:33Z</time>
      </trkpt>
      <trkpt lat="38.196650007739663" lon="-7.061359975486994">
        <ele>211.8671875</ele>
        <time>2008-06-15T10:17:49Z</time>
      </trkpt>
      <trkpt lat="38.196710022166371" lon="-7.06132996827364">
        <ele>211.53125</ele>
        <time>2008-06-15T10:17:52Z</time>
      </trkpt>
      <trkpt lat="38.19715996272862" lon="-7.061299961060286">
        <ele>206.625</ele>
        <time>2008-06-15T10:17:59Z</time>
      </trkpt>
      <trkpt lat="38.197340006008744" lon="-7.061299961060286">
        <ele>204.265625</ele>
        <time>2008-06-15T10:18:01Z</time>
      </trkpt>
      <trkpt lat="38.197579979896545" lon="-7.061240030452609">
        <ele>202.4765625</ele>
        <time>2008-06-15T10:18:07Z</time>
      </trkpt>
      <trkpt lat="38.197649968788028" lon="-7.061270037665963">
        <ele>203.32421875</ele>
        <time>2008-06-15T10:18:09Z</time>
      </trkpt>
      <trkpt lat="38.197579979896545" lon="-7.061689971014857">
        <ele>202.38671875</ele>
        <time>2008-06-15T10:18:16Z</time>
      </trkpt>
      <trkpt lat="38.197440002113581" lon="-7.062190035358071">
        <ele>204.765625</ele>
        <time>2008-06-15T10:18:23Z</time>
      </trkpt>
      <trkpt lat="38.197460034862161" lon="-7.062369994819164">
        <ele>205.01953125</ele>
        <time>2008-06-15T10:18:24Z</time>
      </trkpt>
      <trkpt lat="38.197549972683191" lon="-7.062739972025156">
        <ele>205.0859375</ele>
        <time>2008-06-15T10:18:28Z</time>
      </trkpt>
      <trkpt lat="38.197679976001382" lon="-7.063050018623471">
        <ele>206.7265625</ele>
        <time>2008-06-15T10:18:34Z</time>
      </trkpt>
      <trkpt lat="38.197820037603378" lon="-7.063229978084564">
        <ele>208.61328125</ele>
        <time>2008-06-15T10:18:36Z</time>
      </trkpt>
      <trkpt lat="38.197879968211055" lon="-7.063280018046498">
        <ele>209.11328125</ele>
        <time>2008-06-15T10:18:38Z</time>
      </trkpt>
      <trkpt lat="38.198120025917888" lon="-7.063480010256171">
        <ele>210.421875</ele>
        <time>2008-06-15T10:18:42Z</time>
      </trkpt>
      <trkpt lat="38.198209963738918" lon="-7.063559973612428">
        <ele>210.3984375</ele>
        <time>2008-06-15T10:18:43Z</time>
      </trkpt>
      <trkpt lat="38.198629980906844" lon="-7.063700035214424">
        <ele>208.33984375</ele>
        <time>2008-06-15T10:18:50Z</time>
      </trkpt>
      <trkpt lat="38.198910020291805" lon="-7.063779998570681">
        <ele>207.03125</ele>
        <time>2008-06-15T10:18:54Z</time>
      </trkpt>
      <trkpt lat="38.19902996532619" lon="-7.063810005784035">
        <ele>207.44921875</ele>
        <time>2008-06-15T10:18:58Z</time>
      </trkpt>
      <trkpt lat="38.199149994179606" lon="-7.063930034637451">
        <ele>206.3203125</ele>
        <time>2008-06-15T10:19:01Z</time>
      </trkpt>
      <trkpt lat="38.199460040777922" lon="-7.064060037955642">
        <ele>205.62109375</ele>
        <time>2008-06-15T10:19:05Z</time>
      </trkpt>
      <trkpt lat="38.199709989130497" lon="-7.064070012420416">
        <ele>204.33984375</ele>
        <time>2008-06-15T10:19:08Z</time>
      </trkpt>
      <trkpt lat="38.199949963018298" lon="-7.064040005207062">
        <ele>201.99609375</ele>
        <time>2008-06-15T10:19:10Z</time>
      </trkpt>
      <trkpt lat="38.200030010193586" lon="-7.064030030742288">
        <ele>201.28125</ele>
        <time>2008-06-15T10:19:12Z</time>
      </trkpt>
      <trkpt lat="38.200190020725131" lon="-7.063949983566999">
        <ele>201.72265625</ele>
        <time>2008-06-15T10:19:14Z</time>
      </trkpt>
      <trkpt lat="38.200299991294742" lon="-7.063870020210743">
        <ele>202.60546875</ele>
        <time>2008-06-15T10:19:17Z</time>
      </trkpt>
      <trkpt lat="38.200780022889376" lon="-7.063970016315579">
        <ele>202.23828125</ele>
        <time>2008-06-15T10:19:25Z</time>
      </trkpt>
      <trkpt lat="38.201400032266974" lon="-7.064279979094863">
        <ele>202.89453125</ele>
        <time>2008-06-15T10:19:36Z</time>
      </trkpt>
      <trkpt lat="38.201679987832904" lon="-7.064420040696859">
        <ele>202.94140625</ele>
        <time>2008-06-15T10:19:41Z</time>
      </trkpt>
      <trkpt lat="38.201809991151094" lon="-7.064500004053116">
        <ele>204.2421875</ele>
        <time>2008-06-15T10:19:44Z</time>
      </trkpt>
      <trkpt lat="38.201990034431219" lon="-7.064699996262789">
        <ele>206.9375</ele>
        <time>2008-06-15T10:19:48Z</time>
      </trkpt>
      <trkpt lat="38.202090030536056" lon="-7.064860006794334">
        <ele>208.23828125</ele>
        <time>2008-06-15T10:19:51Z</time>
      </trkpt>
      <trkpt lat="38.202179968357086" lon="-7.065050024539232">
        <ele>209.1796875</ele>
        <time>2008-06-15T10:19:52Z</time>
      </trkpt>
      <trkpt lat="38.202450033277273" lon="-7.065770030021668">
        <ele>215.04296875</ele>
        <time>2008-06-15T10:20:00Z</time>
      </trkpt>
      <trkpt lat="38.202590011060238" lon="-7.066100025549531">
        <ele>217.70703125</ele>
        <time>2008-06-15T10:20:03Z</time>
      </trkpt>
      <trkpt lat="38.202729988843203" lon="-7.06640001386404">
        <ele>220.3125</ele>
        <time>2008-06-15T10:20:06Z</time>
      </trkpt>
      <trkpt lat="38.202929981052876" lon="-7.066630013287067">
        <ele>222.2890625</ele>
        <time>2008-06-15T10:20:08Z</time>
      </trkpt>
      <trkpt lat="38.203229969367385" lon="-7.066869987174869">
        <ele>225.18359375</ele>
        <time>2008-06-15T10:20:12Z</time>
      </trkpt>
      <trkpt lat="38.203319991007447" lon="-7.066920027136803">
        <ele>225.75390625</ele>
        <time>2008-06-15T10:20:14Z</time>
      </trkpt>
      <trkpt lat="38.203510008752346" lon="-7.067029997706413">
        <ele>226.125</ele>
        <time>2008-06-15T10:20:15Z</time>
      </trkpt>
      <trkpt lat="38.203879985958338" lon="-7.06725999712944">
        <ele>229.671875</ele>
        <time>2008-06-15T10:20:19Z</time>
      </trkpt>
      <trkpt lat="38.204290028661489" lon="-7.067650007084012">
        <ele>234.66015625</ele>
        <time>2008-06-15T10:20:24Z</time>
      </trkpt>
      <trkpt lat="38.204360017552972" lon="-7.067719995975494">
        <ele>235.375</ele>
        <time>2008-06-15T10:20:26Z</time>
      </trkpt>
      <trkpt lat="38.204430006444454" lon="-7.067789984866977">
        <ele>236.1640625</ele>
        <time>2008-06-15T10:20:27Z</time>
      </trkpt>
      <trkpt lat="38.204560009762645" lon="-7.06801000982523">
        <ele>237.62890625</ele>
        <time>2008-06-15T10:20:30Z</time>
      </trkpt>
      <trkpt lat="38.204579958692193" lon="-7.068100031465292">
        <ele>238.39453125</ele>
        <time>2008-06-15T10:20:31Z</time>
      </trkpt>
      <trkpt lat="38.204650031402707" lon="-7.068379987031221">
        <ele>240.4609375</ele>
        <time>2008-06-15T10:20:34Z</time>
      </trkpt>
      <trkpt lat="38.204669980332255" lon="-7.06844000145793">
        <ele>240.64453125</ele>
        <time>2008-06-15T10:20:34Z</time>
      </trkpt>
      <trkpt lat="38.204750027507544" lon="-7.068609986454248">
        <ele>240.87890625</ele>
        <time>2008-06-15T10:20:38Z</time>
      </trkpt>
      <trkpt lat="38.2048299908638" lon="-7.068809978663921">
        <ele>242.14453125</ele>
        <time>2008-06-15T10:20:41Z</time>
      </trkpt>
      <trkpt lat="38.204880030825734" lon="-7.069069985300303">
        <ele>243.76953125</ele>
        <time>2008-06-15T10:20:43Z</time>
      </trkpt>
      <trkpt lat="38.204799983650446" lon="-7.069369973614812">
        <ele>245.9296875</ele>
        <time>2008-06-15T10:20:47Z</time>
      </trkpt>
      <trkpt lat="38.204579958692193" lon="-7.069640038534999">
        <ele>248.73828125</ele>
        <time>2008-06-15T10:20:51Z</time>
      </trkpt>
      <trkpt lat="38.20426999591291" lon="-7.07015996798873">
        <ele>254.02734375</ele>
        <time>2008-06-15T10:20:58Z</time>
      </trkpt>
      <trkpt lat="38.204169999808073" lon="-7.07033003680408">
        <ele>255.98828125</ele>
        <time>2008-06-15T10:21:00Z</time>
      </trkpt>
      <trkpt lat="38.204149967059493" lon="-7.070500021800399">
        <ele>257.8203125</ele>
        <time>2008-06-15T10:21:01Z</time>
      </trkpt>
      <trkpt lat="38.204179974272847" lon="-7.070639999583364">
        <ele>259.67578125</ele>
        <time>2008-06-15T10:21:04Z</time>
      </trkpt>
      <trkpt lat="38.204260021448135" lon="-7.070819959044457">
        <ele>261.69921875</ele>
        <time>2008-06-15T10:21:06Z</time>
      </trkpt>
      <trkpt lat="38.204360017552972" lon="-7.070990027859807">
        <ele>264.1953125</ele>
        <time>2008-06-15T10:21:09Z</time>
      </trkpt>
      <trkpt lat="38.204509969800711" lon="-7.071239976212382">
        <ele>265.83984375</ele>
        <time>2008-06-15T10:21:13Z</time>
      </trkpt>
      <trkpt lat="38.204569984227419" lon="-7.071369979530573">
        <ele>266.55859375</ele>
        <time>2008-06-15T10:21:16Z</time>
      </trkpt>
      <trkpt lat="38.204739969223738" lon="-7.071820003911853">
        <ele>269.015625</ele>
        <time>2008-06-15T10:21:24Z</time>
      </trkpt>
      <trkpt lat="38.204839965328574" lon="-7.071999963372946">
        <ele>271.05078125</ele>
        <time>2008-06-15T10:21:28Z</time>
      </trkpt>
      <trkpt lat="38.204990001395345" lon="-7.07218000665307">
        <ele>272.82421875</ele>
        <time>2008-06-15T10:21:32Z</time>
      </trkpt>
      <trkpt lat="38.205029983073473" lon="-7.072229962795973">
        <ele>272.9140625</ele>
        <time>2008-06-15T10:21:32Z</time>
      </trkpt>
      <trkpt lat="38.205270040780306" lon="-7.072319984436035">
        <ele>275.203125</ele>
        <time>2008-06-15T10:21:36Z</time>
      </trkpt>
      <trkpt lat="38.205370036885142" lon="-7.072340017184615">
        <ele>276.28515625</ele>
        <time>2008-06-15T10:21:36Z</time>
      </trkpt>
      <trkpt lat="38.205619985237718" lon="-7.072319984436035">
        <ele>279.46484375</ele>
        <time>2008-06-15T10:21:40Z</time>
      </trkpt>
      <trkpt lat="38.206479968503118" lon="-7.072310009971261">
        <ele>281.7265625</ele>
        <time>2008-06-15T10:21:50Z</time>
      </trkpt>
      <trkpt lat="38.207050021737814" lon="-7.072640005499125">
        <ele>284.45703125</ele>
        <time>2008-06-15T10:22:03Z</time>
      </trkpt>
      <trkpt lat="38.207229981198907" lon="-7.073369985446334">
        <ele>285.82421875</ele>
        <time>2008-06-15T10:22:15Z</time>
      </trkpt>
      <trkpt lat="38.207240039482713" lon="-7.073659999296069">
        <ele>287.08984375</ele>
        <time>2008-06-15T10:22:19Z</time>
      </trkpt>
      <trkpt lat="38.20702001452446" lon="-7.074619978666306">
        <ele>291.8125</ele>
        <time>2008-06-15T10:22:31Z</time>
      </trkpt>
      <trkpt lat="38.207080028951168" lon="-7.074719974771142">
        <ele>292.078125</ele>
        <time>2008-06-15T10:22:34Z</time>
      </trkpt>
      <trkpt lat="38.207169966772199" lon="-7.074719974771142">
        <ele>292.21484375</ele>
        <time>2008-06-15T10:22:37Z</time>
      </trkpt>
      <trkpt lat="38.207440031692386" lon="-7.074640011414886">
        <ele>293.19921875</ele>
        <time>2008-06-15T10:22:42Z</time>
      </trkpt>
      <trkpt lat="38.207830041646957" lon="-7.074510008096695">
        <ele>296.94140625</ele>
        <time>2008-06-15T10:22:53Z</time>
      </trkpt>
      <trkpt lat="38.207930037751794" lon="-7.074530040845275">
        <ele>297.80859375</ele>
        <time>2008-06-15T10:22:57Z</time>
      </trkpt>
      <trkpt lat="38.208089964464307" lon="-7.074540015310049">
        <ele>299.19140625</ele>
        <time>2008-06-15T10:23:01Z</time>
      </trkpt>
      <trkpt lat="38.208349971100688" lon="-7.074579996988177">
        <ele>300.55859375</ele>
        <time>2008-06-15T10:23:08Z</time>
      </trkpt>
      <trkpt lat="38.208490032702684" lon="-7.074600029736757">
        <ele>300.10546875</ele>
        <time>2008-06-15T10:23:12Z</time>
      </trkpt>
      <trkpt lat="38.208709973841906" lon="-7.074589971452951">
        <ele>298.05078125</ele>
        <time>2008-06-15T10:23:20Z</time>
      </trkpt>
      <trkpt lat="38.209069976583123" lon="-7.074619978666306">
        <ele>295.1484375</ele>
        <time>2008-06-15T10:23:33Z</time>
      </trkpt>
      <trkpt lat="38.209109958261251" lon="-7.074630036950111">
        <ele>294.8125</ele>
        <time>2008-06-15T10:23:35Z</time>
      </trkpt>
      <trkpt lat="38.209199979901314" lon="-7.074689967557788">
        <ele>294.375</ele>
        <time>2008-06-15T10:23:36Z</time>
      </trkpt>
      <trkpt lat="38.209480019286275" lon="-7.074830029159784">
        <ele>293.20703125</ele>
        <time>2008-06-15T10:23:42Z</time>
      </trkpt>
      <trkpt lat="38.209629971534014" lon="-7.074860036373138">
        <ele>292.72265625</ele>
        <time>2008-06-15T10:23:44Z</time>
      </trkpt>
      <trkpt lat="38.210079995915294" lon="-7.074949974194169">
        <ele>293.7734375</ele>
        <time>2008-06-15T10:23:52Z</time>
      </trkpt>
      <trkpt lat="38.211030000820756" lon="-7.07606996409595">
        <ele>290.03125</ele>
        <time>2008-06-15T10:24:13Z</time>
      </trkpt>
      <trkpt lat="38.211729973554611" lon="-7.076679999008775">
        <ele>288.04296875</ele>
        <time>2008-06-15T10:24:27Z</time>
      </trkpt>
      <trkpt lat="38.212560033425689" lon="-7.077170005068183">
        <ele>280.6796875</ele>
        <time>2008-06-15T10:24:41Z</time>
      </trkpt>
      <trkpt lat="38.212749967351556" lon="-7.077290033921599">
        <ele>279.92578125</ele>
        <time>2008-06-15T10:24:44Z</time>
      </trkpt>
      <trkpt lat="38.212849963456392" lon="-7.07740000449121">
        <ele>279.38671875</ele>
        <time>2008-06-15T10:24:45Z</time>
      </trkpt>
      <trkpt lat="38.212999999523163" lon="-7.077569989487529">
        <ele>278.484375</ele>
        <time>2008-06-15T10:24:49Z</time>
      </trkpt>
      <trkpt lat="38.213320020586252" lon="-7.07780996337533">
        <ele>276.4296875</ele>
        <time>2008-06-15T10:24:57Z</time>
      </trkpt>
      <trkpt lat="38.2137699611485" lon="-7.078050021082163">
        <ele>274.34765625</ele>
        <time>2008-06-15T10:25:08Z</time>
      </trkpt>
      <trkpt lat="38.214149996638298" lon="-7.078389991074801">
        <ele>274.58984375</ele>
        <time>2008-06-15T10:25:16Z</time>
      </trkpt>
      <trkpt lat="38.214279999956489" lon="-7.078470038250089">
        <ele>274.7109375</ele>
        <time>2008-06-15T10:25:19Z</time>
      </trkpt>
      <trkpt lat="38.214340014383197" lon="-7.078510019928217">
        <ele>274.6484375</ele>
        <time>2008-06-15T10:25:20Z</time>
      </trkpt>
      <trkpt lat="38.214630028232932" lon="-7.078759968280792">
        <ele>272.90625</ele>
        <time>2008-06-15T10:25:24Z</time>
      </trkpt>
      <trkpt lat="38.214700017124414" lon="-7.078819982707501">
        <ele>272.85546875</ele>
        <time>2008-06-15T10:25:27Z</time>
      </trkpt>
      <trkpt lat="38.214730024337769" lon="-7.07884001545608">
        <ele>272.93359375</ele>
        <time>2008-06-15T10:25:28Z</time>
      </trkpt>
      <trkpt lat="38.214900009334087" lon="-7.078979993239045">
        <ele>273.06640625</ele>
        <time>2008-06-15T10:25:31Z</time>
      </trkpt>
      <trkpt lat="38.215069994330406" lon="-7.079109996557236">
        <ele>273.05078125</ele>
        <time>2008-06-15T10:25:35Z</time>
      </trkpt>
      <trkpt lat="38.215539967641234" lon="-7.079189959913492">
        <ele>269.875</ele>
        <time>2008-06-15T10:25:43Z</time>
      </trkpt>
      <trkpt lat="38.215950010344386" lon="-7.079430017620325">
        <ele>268.90625</ele>
        <time>2008-06-15T10:25:51Z</time>
      </trkpt>
      <trkpt lat="38.216329962015152" lon="-7.079579969868064">
        <ele>269.05078125</ele>
        <time>2008-06-15T10:25:59Z</time>
      </trkpt>
      <trkpt lat="38.216479998081923" lon="-7.079709973186255">
        <ele>269.1484375</ele>
        <time>2008-06-15T10:26:03Z</time>
      </trkpt>
      <trkpt lat="38.216919964179397" lon="-7.079879958182573">
        <ele>270.03515625</ele>
        <time>2008-06-15T10:26:10Z</time>
      </trkpt>
      <trkpt lat="38.21713998913765" lon="-7.079939972609282">
        <ele>270.328125</ele>
        <time>2008-06-15T10:26:14Z</time>
      </trkpt>
      <trkpt lat="38.21772001683712" lon="-7.080329982563853">
        <ele>272.30859375</ele>
        <time>2008-06-15T10:26:22Z</time>
      </trkpt>
      <trkpt lat="38.217869969084859" lon="-7.080570040270686">
        <ele>274.0703125</ele>
        <time>2008-06-15T10:26:25Z</time>
      </trkpt>
      <trkpt lat="38.217910034582019" lon="-7.080670036375523">
        <ele>275.1328125</ele>
        <time>2008-06-15T10:26:26Z</time>
      </trkpt>
      <trkpt lat="38.218089994043112" lon="-7.081119976937771">
        <ele>278.33203125</ele>
        <time>2008-06-15T10:26:30Z</time>
      </trkpt>
      <trkpt lat="38.218140034005046" lon="-7.081230031326413">
        <ele>279.2890625</ele>
        <time>2008-06-15T10:26:32Z</time>
      </trkpt>
      <trkpt lat="38.218299960717559" lon="-7.081630015745759">
        <ele>280.78125</ele>
        <time>2008-06-15T10:26:36Z</time>
      </trkpt>
      <trkpt lat="38.218340026214719" lon="-7.081730011850596">
        <ele>280.796875</ele>
        <time>2008-06-15T10:26:37Z</time>
      </trkpt>
      <trkpt lat="38.2186000328511" lon="-7.082180036231875">
        <ele>280.05859375</ele>
        <time>2008-06-15T10:26:42Z</time>
      </trkpt>
      <trkpt lat="38.218870013952255" lon="-7.082559987902641">
        <ele>278.87890625</ele>
        <time>2008-06-15T10:26:48Z</time>
      </trkpt>
      <trkpt lat="38.219039998948574" lon="-7.08275000564754">
        <ele>278.72265625</ele>
        <time>2008-06-15T10:26:52Z</time>
      </trkpt>
      <trkpt lat="38.219070006161928" lon="-7.082789987325668">
        <ele>278.87890625</ele>
        <time>2008-06-15T10:26:53Z</time>
      </trkpt>
      <trkpt lat="38.219490023329854" lon="-7.083590039983392">
        <ele>280.671875</ele>
        <time>2008-06-15T10:27:04Z</time>
      </trkpt>
      <trkpt lat="38.219530005007982" lon="-7.083660028874874">
        <ele>280.85546875</ele>
        <time>2008-06-15T10:27:04Z</time>
      </trkpt>
      <trkpt lat="38.219680041074753" lon="-7.084130002185702">
        <ele>279.1875</ele>
        <time>2008-06-15T10:27:11Z</time>
      </trkpt>
      <trkpt lat="38.220050018280745" lon="-7.084769960492849">
        <ele>275.24609375</ele>
        <time>2008-06-15T10:27:18Z</time>
      </trkpt>
      <trkpt lat="38.220110032707453" lon="-7.084850007668138">
        <ele>274.953125</ele>
        <time>2008-06-15T10:27:19Z</time>
      </trkpt>
      <trkpt lat="38.220600038766861" lon="-7.0853700209409">
        <ele>274.09765625</ele>
        <time>2008-06-15T10:27:30Z</time>
      </trkpt>
      <trkpt lat="38.220889968797565" lon="-7.085649976506829">
        <ele>275.1328125</ele>
        <time>2008-06-15T10:27:36Z</time>
      </trkpt>
      <trkpt lat="38.221000023186207" lon="-7.085739998146892">
        <ele>275.74609375</ele>
        <time>2008-06-15T10:27:39Z</time>
      </trkpt>
      <trkpt lat="38.221230022609234" lon="-7.085900008678436">
        <ele>277.3515625</ele>
        <time>2008-06-15T10:27:42Z</time>
      </trkpt>
      <trkpt lat="38.221720028668642" lon="-7.08636000752449">
        <ele>283.75390625</ele>
        <time>2008-06-15T10:27:49Z</time>
      </trkpt>
      <trkpt lat="38.221829999238253" lon="-7.086469978094101">
        <ele>284.51171875</ele>
        <time>2008-06-15T10:27:50Z</time>
      </trkpt>
      <trkpt lat="38.221939969807863" lon="-7.086650021374226">
        <ele>285.11328125</ele>
        <time>2008-06-15T10:27:54Z</time>
      </trkpt>
      <trkpt lat="38.222139962017536" lon="-7.087349994108081">
        <ele>287.53515625</ele>
        <time>2008-06-15T10:28:06Z</time>
      </trkpt>
      <trkpt lat="38.222480015829206" lon="-7.088109981268644">
        <ele>292.13671875</ele>
        <time>2008-06-15T10:28:14Z</time>
      </trkpt>
      <trkpt lat="38.222559979185462" lon="-7.088290024548769">
        <ele>292.859375</ele>
        <time>2008-06-15T10:28:17Z</time>
      </trkpt>
      <trkpt lat="38.22259996086359" lon="-7.088369987905026">
        <ele>292.90234375</ele>
        <time>2008-06-15T10:28:17Z</time>
      </trkpt>
      <trkpt lat="38.223300017416477" lon="-7.089050011709333">
        <ele>295.875</ele>
        <time>2008-06-15T10:28:32Z</time>
      </trkpt>
      <trkpt lat="38.223460027948022" lon="-7.089140033349395">
        <ele>296.546875</ele>
        <time>2008-06-15T10:28:33Z</time>
      </trkpt>
      <trkpt lat="38.223980041220784" lon="-7.089589973911643">
        <ele>300.41015625</ele>
        <time>2008-06-15T10:28:40Z</time>
      </trkpt>
      <trkpt lat="38.224060004577041" lon="-7.089679995551705">
        <ele>301.0390625</ele>
        <time>2008-06-15T10:28:41Z</time>
      </trkpt>
      <trkpt lat="38.22438002564013" lon="-7.090049972757697">
        <ele>303.91796875</ele>
        <time>2008-06-15T10:28:45Z</time>
      </trkpt>
      <trkpt lat="38.224529977887869" lon="-7.090230016037822">
        <ele>305.9375</ele>
        <time>2008-06-15T10:28:48Z</time>
      </trkpt>
      <trkpt lat="38.224599966779351" lon="-7.090330012142658">
        <ele>306.71484375</ele>
        <time>2008-06-15T10:28:48Z</time>
      </trkpt>
      <trkpt lat="38.224840024486184" lon="-7.09072002209723">
        <ele>309.5703125</ele>
        <time>2008-06-15T10:28:52Z</time>
      </trkpt>
      <trkpt lat="38.224989976733923" lon="-7.090980028733611">
        <ele>310.39453125</ele>
        <time>2008-06-15T10:28:56Z</time>
      </trkpt>
      <trkpt lat="38.225029958412051" lon="-7.091059992089868">
        <ele>310.3125</ele>
        <time>2008-06-15T10:28:56Z</time>
      </trkpt>
      <trkpt lat="38.225100031122565" lon="-7.091220002621412">
        <ele>310.19140625</ele>
        <time>2008-06-15T10:28:59Z</time>
      </trkpt>
      <trkpt lat="38.225349979475141" lon="-7.092040004208684">
        <ele>308.2890625</ele>
        <time>2008-06-15T10:29:06Z</time>
      </trkpt>
      <trkpt lat="38.225409993901849" lon="-7.092200014740229">
        <ele>307.80859375</ele>
        <time>2008-06-15T10:29:07Z</time>
      </trkpt>
      <trkpt lat="38.225430026650429" lon="-7.092260029166937">
        <ele>307.6484375</ele>
        <time>2008-06-15T10:29:08Z</time>
      </trkpt>
      <trkpt lat="38.22567000053823" lon="-7.092660013586283">
        <ele>307.01171875</ele>
        <time>2008-06-15T10:29:15Z</time>
      </trkpt>
      <trkpt lat="38.225869992747903" lon="-7.092939969152212">
        <ele>307.04296875</ele>
        <time>2008-06-15T10:29:19Z</time>
      </trkpt>
      <trkpt lat="38.226020028814673" lon="-7.093220008537173">
        <ele>307.37890625</ele>
        <time>2008-06-15T10:29:27Z</time>
      </trkpt>
      <trkpt lat="38.226299984380603" lon="-7.094240002334118">
        <ele>308.82421875</ele>
        <time>2008-06-15T10:29:41Z</time>
      </trkpt>
      <trkpt lat="38.226439962163568" lon="-7.094590030610561">
        <ele>311.484375</ele>
        <time>2008-06-15T10:29:45Z</time>
      </trkpt>
      <trkpt lat="38.226469969376922" lon="-7.094660019502044">
        <ele>311.94921875</ele>
        <time>2008-06-15T10:29:46Z</time>
      </trkpt>
      <trkpt lat="38.226559991016984" lon="-7.095160000026226">
        <ele>310.25</ele>
        <time>2008-06-15T10:29:51Z</time>
      </trkpt>
      <trkpt lat="38.226559991016984" lon="-7.095250021666288">
        <ele>309.66796875</ele>
        <time>2008-06-15T10:29:53Z</time>
      </trkpt>
      <trkpt lat="38.226520009338856" lon="-7.095880005508661">
        <ele>305.08984375</ele>
        <time>2008-06-15T10:29:58Z</time>
      </trkpt>
      <trkpt lat="38.22652998380363" lon="-7.096230033785105">
        <ele>302.8359375</ele>
        <time>2008-06-15T10:30:01Z</time>
      </trkpt>
      <trkpt lat="38.22655001655221" lon="-7.096470007672906">
        <ele>301.69140625</ele>
        <time>2008-06-15T10:30:04Z</time>
      </trkpt>
      <trkpt lat="38.226580023765564" lon="-7.096579978242517">
        <ele>301.23828125</ele>
        <time>2008-06-15T10:30:05Z</time>
      </trkpt>
      <trkpt lat="38.226599972695112" lon="-7.096690032631159">
        <ele>300.58984375</ele>
        <time>2008-06-15T10:30:05Z</time>
      </trkpt>
      <trkpt lat="38.2266800198704" lon="-7.097009969875217">
        <ele>298.54296875</ele>
        <time>2008-06-15T10:30:09Z</time>
      </trkpt>
      <trkpt lat="38.226740034297109" lon="-7.097220020368695">
        <ele>297.29296875</ele>
        <time>2008-06-15T10:30:10Z</time>
      </trkpt>
      <trkpt lat="38.22700004093349" lon="-7.09781002253294">
        <ele>294.54296875</ele>
        <time>2008-06-15T10:30:17Z</time>
      </trkpt>
      <trkpt lat="38.227159967646003" lon="-7.098289970308542">
        <ele>293.73046875</ele>
        <time>2008-06-15T10:30:25Z</time>
      </trkpt>
      <trkpt lat="38.227460039779544" lon="-7.09880000911653">
        <ele>294.70703125</ele>
        <time>2008-06-15T10:30:31Z</time>
      </trkpt>
      <trkpt lat="38.227509995922446" lon="-7.098869998008013">
        <ele>295.07421875</ele>
        <time>2008-06-15T10:30:32Z</time>
      </trkpt>
      <trkpt lat="38.227719962596893" lon="-7.099190019071102">
        <ele>295.29296875</ele>
        <time>2008-06-15T10:30:36Z</time>
      </trkpt>
      <trkpt lat="38.228020034730434" lon="-7.099539963528514">
        <ele>295.21875</ele>
        <time>2008-06-15T10:30:44Z</time>
      </trkpt>
      <trkpt lat="38.228429993614554" lon="-7.100029969587922">
        <ele>297.44921875</ele>
        <time>2008-06-15T10:30:51Z</time>
      </trkpt>
      <trkpt lat="38.228820003569126" lon="-7.100400030612946">
        <ele>301.390625</ele>
        <time>2008-06-15T10:30:55Z</time>
      </trkpt>
      <trkpt lat="38.228910025209188" lon="-7.100489968433976">
        <ele>301.9453125</ele>
        <time>2008-06-15T10:30:55Z</time>
      </trkpt>
      <trkpt lat="38.229500027373433" lon="-7.101450031623244">
        <ele>297.3828125</ele>
        <time>2008-06-15T10:31:07Z</time>
      </trkpt>
      <trkpt lat="38.229540009051561" lon="-7.101539969444275">
        <ele>296.98828125</ele>
        <time>2008-06-15T10:31:07Z</time>
      </trkpt>
      <trkpt lat="38.229630030691624" lon="-7.101759994402528">
        <ele>296.453125</ele>
        <time>2008-06-15T10:31:11Z</time>
      </trkpt>
      <trkpt lat="38.229560041800141" lon="-7.102380003780127">
        <ele>301.71875</ele>
        <time>2008-06-15T10:31:19Z</time>
      </trkpt>
      <trkpt lat="38.229549983516335" lon="-7.102470025420189">
        <ele>302.796875</ele>
        <time>2008-06-15T10:31:19Z</time>
      </trkpt>
      <trkpt lat="38.229510001838207" lon="-7.102770013734698">
        <ele>305.9921875</ele>
        <time>2008-06-15T10:31:23Z</time>
      </trkpt>
      <trkpt lat="38.229500027373433" lon="-7.102819969877601">
        <ele>306.375</ele>
        <time>2008-06-15T10:31:25Z</time>
      </trkpt>
      <trkpt lat="38.229410005733371" lon="-7.102970005944371">
        <ele>307.359375</ele>
        <time>2008-06-15T10:31:34Z</time>
      </trkpt>
      <trkpt lat="38.229410005733371" lon="-7.102970005944371">
        <ele>307.359375</ele>
        <time>2008-06-15T10:31:38Z</time>
      </trkpt>
      <trkpt lat="38.229319984093308" lon="-7.103030020371079">
        <ele>307.1953125</ele>
        <time>2008-06-15T10:32:15Z</time>
      </trkpt>
      <trkpt lat="38.229099959135056" lon="-7.103339983150363">
        <ele>304.6171875</ele>
        <time>2008-06-15T10:32:44Z</time>
      </trkpt>
      <trkpt lat="38.229070035740733" lon="-7.103420030325651">
        <ele>304.1015625</ele>
        <time>2008-06-15T10:32:47Z</time>
      </trkpt>
      <trkpt lat="38.228759989142418" lon="-7.103629997000098">
        <ele>301.19921875</ele>
        <time>2008-06-15T10:32:59Z</time>
      </trkpt>
      <trkpt lat="38.228369979187846" lon="-7.103850021958351">
        <ele>298.77734375</ele>
        <time>2008-06-15T10:33:10Z</time>
      </trkpt>
      <trkpt lat="38.228230001404881" lon="-7.103989999741316">
        <ele>299.00390625</ele>
        <time>2008-06-15T10:33:14Z</time>
      </trkpt>
      <trkpt lat="38.228179961442947" lon="-7.104080021381378">
        <ele>299.5</ele>
        <time>2008-06-15T10:33:15Z</time>
      </trkpt>
      <trkpt lat="38.227960020303726" lon="-7.104500038549304">
        <ele>299.6484375</ele>
        <time>2008-06-15T10:33:27Z</time>
      </trkpt>
      <trkpt lat="38.228079965338111" lon="-7.104679998010397">
        <ele>299.11328125</ele>
        <time>2008-06-15T10:33:32Z</time>
      </trkpt>
      <trkpt lat="38.22829001583159" lon="-7.105009993538261">
        <ele>299.12890625</ele>
        <time>2008-06-15T10:33:37Z</time>
      </trkpt>
      <trkpt lat="38.228520015254617" lon="-7.105300007387996">
        <ele>300.65625</ele>
        <time>2008-06-15T10:33:42Z</time>
      </trkpt>
      <trkpt lat="38.228889992460608" lon="-7.105660010129213">
        <ele>302.83203125</ele>
        <time>2008-06-15T10:33:49Z</time>
      </trkpt>
      <trkpt lat="38.229349991306663" lon="-7.106150016188622">
        <ele>301.34375</ele>
        <time>2008-06-15T10:33:59Z</time>
      </trkpt>
      <trkpt lat="38.229470020160079" lon="-7.106329975649715">
        <ele>299.578125</ele>
        <time>2008-06-15T10:34:01Z</time>
      </trkpt>
      <trkpt lat="38.229549983516335" lon="-7.106459978967905">
        <ele>298.49609375</ele>
        <time>2008-06-15T10:34:11Z</time>
      </trkpt>
      <trkpt lat="38.229670012369752" lon="-7.106689978390932">
        <ele>296.58984375</ele>
        <time>2008-06-15T10:34:26Z</time>
      </trkpt>
      <trkpt lat="38.229760034009814" lon="-7.106870021671057">
        <ele>295.07421875</ele>
        <time>2008-06-15T10:34:28Z</time>
      </trkpt>
      <trkpt lat="38.229979975149035" lon="-7.107089962810278">
        <ele>294.39453125</ele>
        <time>2008-06-15T10:34:34Z</time>
      </trkpt>
      <trkpt lat="38.230230007320642" lon="-7.107219966128469">
        <ele>294.5546875</ele>
        <time>2008-06-15T10:34:39Z</time>
      </trkpt>
      <trkpt lat="38.230469981208444" lon="-7.107330020517111">
        <ele>295.1875</ele>
        <time>2008-06-15T10:34:43Z</time>
      </trkpt>
      <trkpt lat="38.230659998953342" lon="-7.107790019363165">
        <ele>295.6328125</ele>
        <time>2008-06-15T10:34:50Z</time>
      </trkpt>
      <trkpt lat="38.230710038915277" lon="-7.107920022681356">
        <ele>295.88671875</ele>
        <time>2008-06-15T10:34:54Z</time>
      </trkpt>
      <trkpt lat="38.230750020593405" lon="-7.107980037108064">
        <ele>296.0703125</ele>
        <time>2008-06-15T10:34:58Z</time>
      </trkpt>
      <trkpt lat="38.231089990586042" lon="-7.108199978247285">
        <ele>297.5078125</ele>
        <time>2008-06-15T10:35:06Z</time>
      </trkpt>
      <trkpt lat="38.231180012226105" lon="-7.10846995934844">
        <ele>298.609375</ele>
        <time>2008-06-15T10:35:11Z</time>
      </trkpt>
      <trkpt lat="38.231180012226105" lon="-7.108610020950437">
        <ele>299.3359375</ele>
        <time>2008-06-15T10:35:14Z</time>
      </trkpt>
      <trkpt lat="38.231189986690879" lon="-7.108770031481981">
        <ele>300.4453125</ele>
        <time>2008-06-15T10:35:15Z</time>
      </trkpt>
      <trkpt lat="38.231219993904233" lon="-7.109019979834557">
        <ele>302.53125</ele>
        <time>2008-06-15T10:35:18Z</time>
      </trkpt>
      <trkpt lat="38.231229968369007" lon="-7.109100027009845">
        <ele>303.140625</ele>
        <time>2008-06-15T10:35:20Z</time>
      </trkpt>
      <trkpt lat="38.231310015544295" lon="-7.109379982575774">
        <ele>306.01953125</ele>
        <time>2008-06-15T10:35:25Z</time>
      </trkpt>
      <trkpt lat="38.231410011649132" lon="-7.109530018642545">
        <ele>307.87890625</ele>
        <time>2008-06-15T10:35:29Z</time>
      </trkpt>
      <trkpt lat="38.231700025498867" lon="-7.110060006380081">
        <ele>308.75390625</ele>
        <time>2008-06-15T10:35:37Z</time>
      </trkpt>
      <trkpt lat="38.231740007176995" lon="-7.110150028020144">
        <ele>308.5234375</ele>
        <time>2008-06-15T10:35:38Z</time>
      </trkpt>
      <trkpt lat="38.232009988278151" lon="-7.110580019652844">
        <ele>307.34765625</ele>
        <time>2008-06-15T10:35:44Z</time>
      </trkpt>
      <trkpt lat="38.232360016554594" lon="-7.111400021240115">
        <ele>303.87890625</ele>
        <time>2008-06-15T10:35:52Z</time>
      </trkpt>
      <trkpt lat="38.232409972697496" lon="-7.11156003177166">
        <ele>303.16015625</ele>
        <time>2008-06-15T10:35:55Z</time>
      </trkpt>
      <trkpt lat="38.232460012659431" lon="-7.111790031194687">
        <ele>304.37890625</ele>
        <time>2008-06-15T10:36:01Z</time>
      </trkpt>
      <trkpt lat="38.232490019872785" lon="-7.112109968438745">
        <ele>303.609375</ele>
        <time>2008-06-15T10:36:07Z</time>
      </trkpt>
      <trkpt lat="38.232680037617683" lon="-7.112669963389635">
        <ele>301.03515625</ele>
        <time>2008-06-15T10:36:15Z</time>
      </trkpt>
      <trkpt lat="38.232720019295812" lon="-7.112729977816343">
        <ele>300.65234375</ele>
        <time>2008-06-15T10:36:16Z</time>
      </trkpt>
      <trkpt lat="38.232899978756905" lon="-7.112899962812662">
        <ele>299.109375</ele>
        <time>2008-06-15T10:36:19Z</time>
      </trkpt>
      <trkpt lat="38.232939960435033" lon="-7.112940028309822">
        <ele>298.8046875</ele>
        <time>2008-06-15T10:36:20Z</time>
      </trkpt>
      <trkpt lat="38.232990000396967" lon="-7.113040024414659">
        <ele>298.23046875</ele>
        <time>2008-06-15T10:36:23Z</time>
      </trkpt>
      <trkpt lat="38.232990000396967" lon="-7.113229958340526">
        <ele>297.1953125</ele>
        <time>2008-06-15T10:36:26Z</time>
      </trkpt>
      <trkpt lat="38.233010033145547" lon="-7.113570012152195">
        <ele>296.51953125</ele>
        <time>2008-06-15T10:36:31Z</time>
      </trkpt>
      <trkpt lat="38.233280014246702" lon="-7.11413998156786">
        <ele>295.57421875</ele>
        <time>2008-06-15T10:36:39Z</time>
      </trkpt>
      <trkpt lat="38.233600035309792" lon="-7.114550024271011">
        <ele>295.58984375</ele>
        <time>2008-06-15T10:36:46Z</time>
      </trkpt>
      <trkpt lat="38.233740013092756" lon="-7.114759990945458">
        <ele>296.6875</ele>
        <time>2008-06-15T10:36:50Z</time>
      </trkpt>
      <trkpt lat="38.233800027519464" lon="-7.114959983155131">
        <ele>298.10546875</ele>
        <time>2008-06-15T10:36:54Z</time>
      </trkpt>
      <trkpt lat="38.233889965340495" lon="-7.115229964256287">
        <ele>300.640625</ele>
        <time>2008-06-15T10:36:58Z</time>
      </trkpt>
      <trkpt lat="38.233949979767203" lon="-7.115359967574477">
        <ele>302.18359375</ele>
        <time>2008-06-15T10:37:01Z</time>
      </trkpt>
      <trkpt lat="38.234190037474036" lon="-7.115640006959438">
        <ele>304.8671875</ele>
        <time>2008-06-15T10:37:06Z</time>
      </trkpt>
      <trkpt lat="38.234560014680028" lon="-7.116019958630204">
        <ele>302.6640625</ele>
        <time>2008-06-15T10:37:16Z</time>
      </trkpt>
      <trkpt lat="38.234620029106736" lon="-7.116160020232201">
        <ele>301.984375</ele>
        <time>2008-06-15T10:37:17Z</time>
      </trkpt>
      <trkpt lat="38.234769981354475" lon="-7.116720015183091">
        <ele>296.6328125</ele>
        <time>2008-06-15T10:37:25Z</time>
      </trkpt>
      <trkpt lat="38.234809963032603" lon="-7.116880025714636">
        <ele>295.0078125</ele>
        <time>2008-06-15T10:37:26Z</time>
      </trkpt>
      <trkpt lat="38.234829995781183" lon="-7.117219995707274">
        <ele>292.05859375</ele>
        <time>2008-06-15T10:37:30Z</time>
      </trkpt>
      <trkpt lat="38.234880035743117" lon="-7.117589972913265">
        <ele>290.2734375</ele>
        <time>2008-06-15T10:37:36Z</time>
      </trkpt>
      <trkpt lat="38.2349500246346" lon="-7.117930026724935">
        <ele>288.66796875</ele>
        <time>2008-06-15T10:37:41Z</time>
      </trkpt>
      <trkpt lat="38.234969973564148" lon="-7.118009990081191">
        <ele>288.3515625</ele>
        <time>2008-06-15T10:37:52Z</time>
      </trkpt>
      <trkpt lat="38.23639003559947" lon="-7.118309978395701">
        <ele>283.08203125</ele>
        <time>2008-06-15T10:38:23Z</time>
      </trkpt>
      <trkpt lat="38.237159997224808" lon="-7.118379967287183">
        <ele>283.21875</ele>
        <time>2008-06-15T10:38:35Z</time>
      </trkpt>
      <trkpt lat="38.237410029396415" lon="-7.118379967287183">
        <ele>282.98828125</ele>
        <time>2008-06-15T10:38:38Z</time>
      </trkpt>
      <trkpt lat="38.238830007612705" lon="-7.118569985032082">
        <ele>286.35546875</ele>
        <time>2008-06-15T10:38:54Z</time>
      </trkpt>
      <trkpt lat="38.239450016990304" lon="-7.118569985032082">
        <ele>284.55859375</ele>
        <time>2008-06-15T10:39:04Z</time>
      </trkpt>
      <trkpt lat="38.239919990301132" lon="-7.118520028889179">
        <ele>284.83984375</ele>
        <time>2008-06-15T10:39:10Z</time>
      </trkpt>
      <trkpt lat="38.240340007469058" lon="-7.118409974500537">
        <ele>287.25390625</ele>
        <time>2008-06-15T10:39:17Z</time>
      </trkpt>
      <trkpt lat="38.240470010787249" lon="-7.118379967287183">
        <ele>287.8671875</ele>
        <time>2008-06-15T10:39:18Z</time>
      </trkpt>
      <trkpt lat="38.240760024636984" lon="-7.118260022252798">
        <ele>289.3203125</ele>
        <time>2008-06-15T10:39:24Z</time>
      </trkpt>
      <trkpt lat="38.241069987416267" lon="-7.118030022829771">
        <ele>288.5234375</ele>
        <time>2008-06-15T10:39:36Z</time>
      </trkpt>
      <trkpt lat="38.24156996794045" lon="-7.117760041728616">
        <ele>284.45703125</ele>
        <time>2008-06-15T10:39:45Z</time>
      </trkpt>
      <trkpt lat="38.242249991744757" lon="-7.116969963535667">
        <ele>281.98046875</ele>
        <time>2008-06-15T10:40:02Z</time>
      </trkpt>
      <trkpt lat="38.242200035601854" lon="-7.116829985752702">
        <ele>281.609375</ele>
        <time>2008-06-15T10:40:06Z</time>
      </trkpt>
      <trkpt lat="38.241850007325411" lon="-7.116469983011484">
        <ele>283.6171875</ele>
        <time>2008-06-15T10:40:11Z</time>
      </trkpt>
      <trkpt lat="38.241550019010901" lon="-7.116100005805492">
        <ele>287.7421875</ele>
        <time>2008-06-15T10:40:17Z</time>
      </trkpt>
      <trkpt lat="38.241362767294049" lon="-7.115914514288306">
        <ele>290.203125</ele>
        <time>2008-06-15T10:40:19Z</time>
      </trkpt>
      <trkpt lat="38.241314655169845" lon="-7.115846369415522">
        <ele>290.8359375</ele>
        <time>2008-06-15T10:40:21Z</time>
      </trkpt>
      <trkpt lat="38.24123184196651" lon="-7.115595415234566">
        <ele>292.31640625</ele>
        <time>2008-06-15T10:40:26Z</time>
      </trkpt>
    </trkseg>
  </trk>

</gpx>